<?xml version="1.0" encoding="UTF-8"?>
<gpx version="1.1" creator="https://www.youtrack.es" xsi:schemaLocation="http://www.topografix.com/GPX/1/1 http://www.topografix.com/GPX/1/1/gpx.xsd http://www.garmin.com/xmlschemas/GpxExtensions/v3 http://www.garmin.com/xmlschemas/GpxExtensionsv3.xsd http://www.garmin.com/xmlschemas/TrackPointExtension/v1 http://www.garmin.com/xmlschemas/TrackPointExtensionv1.xsd" xmlns:gpxtpx="http://www.garmin.com/xmlschemas/TrackPointExtension/v1" xmlns:gpxx="http://www.garmin.com/xmlschemas/GpxExtensions/v3" xmlns:xsi="http://www.w3.org/2001/XMLSchema-instance">
  <metadata>
    <link href="https://www.youtrack.es">
      <text>YouTrack.es</text>
    </link>
    <time>2026-05-08T02:25:57Z</time>
  </metadata>
  <trk>
    <src>https://www.youtrack.es</src>
    <link href="https://www.youtrack.es/ruta/21003-ensanche-valle-de-ollo-valle-de-goni">
      <text>YouTrack.es</text>
    </link>
    <trkseg>
      <trkpt lat="42.8232071734964847564697265625" lon="-1.65416590869426727294921875">
        <ele>412.79998779296875</ele>
        <time>2021-04-07T11:46:33.000Z</time>
      </trkpt>
      <trkpt lat="42.8231384418904781341552734375" lon="-1.6541035473346710205078125">
        <ele>413</ele>
        <time>2021-04-07T11:46:34.000Z</time>
      </trkpt>
      <trkpt lat="42.8230764158070087432861328125" lon="-1.6540675051510334014892578125">
        <ele>413.600006103515625</ele>
        <time>2021-04-07T11:46:35.000Z</time>
      </trkpt>
      <trkpt lat="42.82301413826644420623779296875" lon="-1.6540473885834217071533203125">
        <ele>414.79998779296875</ele>
        <time>2021-04-07T11:46:36.000Z</time>
      </trkpt>
      <trkpt lat="42.82295831479132175445556640625" lon="-1.654030792415142059326171875">
        <ele>414.79998779296875</ele>
        <time>2021-04-07T11:46:37.000Z</time>
      </trkpt>
      <trkpt lat="42.82290383242070674896240234375" lon="-1.65405518375337123870849609375">
        <ele>414.399993896484375</ele>
        <time>2021-04-07T11:46:38.000Z</time>
      </trkpt>
      <trkpt lat="42.8228450752794742584228515625" lon="-1.6540822573006153106689453125">
        <ele>414.20001220703125</ele>
        <time>2021-04-07T11:46:39.000Z</time>
      </trkpt>
      <trkpt lat="42.82278782688081264495849609375" lon="-1.65410363115370273590087890625">
        <ele>414.20001220703125</ele>
        <time>2021-04-07T11:46:40.000Z</time>
      </trkpt>
      <trkpt lat="42.82273099757730960845947265625" lon="-1.6541174612939357757568359375">
        <ele>414.20001220703125</ele>
        <time>2021-04-07T11:46:41.000Z</time>
      </trkpt>
      <trkpt lat="42.82267617993056774139404296875" lon="-1.65412140078842639923095703125">
        <ele>414</ele>
        <time>2021-04-07T11:46:42.000Z</time>
      </trkpt>
      <trkpt lat="42.82262387685477733612060546875" lon="-1.65411301888525485992431640625">
        <ele>413.79998779296875</ele>
        <time>2021-04-07T11:46:43.000Z</time>
      </trkpt>
      <trkpt lat="42.8225786983966827392578125" lon="-1.65409256704151630401611328125">
        <ele>413.600006103515625</ele>
        <time>2021-04-07T11:46:44.000Z</time>
      </trkpt>
      <trkpt lat="42.8225389681756496429443359375" lon="-1.6540587879717350006103515625">
        <ele>413.600006103515625</ele>
        <time>2021-04-07T11:46:45.000Z</time>
      </trkpt>
      <trkpt lat="42.82251256518065929412841796875" lon="-1.6540195606648921966552734375">
        <ele>413.399993896484375</ele>
        <time>2021-04-07T11:46:46.000Z</time>
      </trkpt>
      <trkpt lat="42.82249395735561847686767578125" lon="-1.653978824615478515625">
        <ele>413.20001220703125</ele>
        <time>2021-04-07T11:46:47.000Z</time>
      </trkpt>
      <trkpt lat="42.8224843181669712066650390625" lon="-1.65394303388893604278564453125">
        <ele>413.20001220703125</ele>
        <time>2021-04-07T11:46:48.000Z</time>
      </trkpt>
      <trkpt lat="42.8224767744541168212890625" lon="-1.65390682406723499298095703125">
        <ele>413.399993896484375</ele>
        <time>2021-04-07T11:46:49.000Z</time>
      </trkpt>
      <trkpt lat="42.82247417606413364410400390625" lon="-1.6538757272064685821533203125">
        <ele>413.399993896484375</ele>
        <time>2021-04-07T11:46:50.000Z</time>
      </trkpt>
      <trkpt lat="42.8224702365696430206298828125" lon="-1.653843037784099578857421875">
        <ele>413.20001220703125</ele>
        <time>2021-04-07T11:46:51.000Z</time>
      </trkpt>
      <trkpt lat="42.8224678896367549896240234375" lon="-1.65380892343819141387939453125">
        <ele>413.20001220703125</ele>
        <time>2021-04-07T11:46:52.000Z</time>
      </trkpt>
      <trkpt lat="42.82247032038867473602294921875" lon="-1.6537697799503803253173828125">
        <ele>413</ele>
        <time>2021-04-07T11:46:53.000Z</time>
      </trkpt>
      <trkpt lat="42.822475433349609375" lon="-1.65372711606323719024658203125">
        <ele>412.79998779296875</ele>
        <time>2021-04-07T11:46:54.000Z</time>
      </trkpt>
      <trkpt lat="42.82247920520603656768798828125" lon="-1.653682775795459747314453125">
        <ele>412.79998779296875</ele>
        <time>2021-04-07T11:46:55.000Z</time>
      </trkpt>
      <trkpt lat="42.82248272560536861419677734375" lon="-1.65364287793636322021484375">
        <ele>412.600006103515625</ele>
        <time>2021-04-07T11:46:56.000Z</time>
      </trkpt>
      <trkpt lat="42.822487838566303253173828125" lon="-1.65360809303820133209228515625">
        <ele>412.399993896484375</ele>
        <time>2021-04-07T11:46:57.000Z</time>
      </trkpt>
      <trkpt lat="42.82249898649752140045166015625" lon="-1.6535778343677520751953125">
        <ele>412.399993896484375</ele>
        <time>2021-04-07T11:46:58.000Z</time>
      </trkpt>
      <trkpt lat="42.82252212055027484893798828125" lon="-1.65355361066758632659912109375">
        <ele>412.20001220703125</ele>
        <time>2021-04-07T11:46:59.000Z</time>
      </trkpt>
      <trkpt lat="42.82254491932690143585205078125" lon="-1.653534583747386932373046875">
        <ele>412.20001220703125</ele>
        <time>2021-04-07T11:47:00.000Z</time>
      </trkpt>
      <trkpt lat="42.8225694783031940460205078125" lon="-1.65351890958845615386962890625">
        <ele>412.20001220703125</ele>
        <time>2021-04-07T11:47:01.000Z</time>
      </trkpt>
      <trkpt lat="42.822599820792675018310546875" lon="-1.65350667200982570648193359375">
        <ele>412.20001220703125</ele>
        <time>2021-04-07T11:47:02.000Z</time>
      </trkpt>
      <trkpt lat="42.82263644970953464508056640625" lon="-1.65349778719246387481689453125">
        <ele>412.20001220703125</ele>
        <time>2021-04-07T11:47:03.000Z</time>
      </trkpt>
      <trkpt lat="42.822662852704524993896484375" lon="-1.6534723900258541107177734375">
        <ele>412.20001220703125</ele>
        <time>2021-04-07T11:47:04.000Z</time>
      </trkpt>
      <trkpt lat="42.82270015217363834381103515625" lon="-1.65346719324588775634765625">
        <ele>412.20001220703125</ele>
        <time>2021-04-07T11:47:05.000Z</time>
      </trkpt>
      <trkpt lat="42.82274005003273487091064453125" lon="-1.65345889516174793243408203125">
        <ele>412</ele>
        <time>2021-04-07T11:47:06.000Z</time>
      </trkpt>
      <trkpt lat="42.8227800317108631134033203125" lon="-1.65345353074371814727783203125">
        <ele>412</ele>
        <time>2021-04-07T11:47:07.000Z</time>
      </trkpt>
      <trkpt lat="42.82282286323606967926025390625" lon="-1.65345252491533756256103515625">
        <ele>412</ele>
        <time>2021-04-07T11:47:08.000Z</time>
      </trkpt>
      <trkpt lat="42.8228598274290561676025390625" lon="-1.65342503227293491363525390625">
        <ele>412</ele>
        <time>2021-04-07T11:47:09.000Z</time>
      </trkpt>
      <trkpt lat="42.82289452850818634033203125" lon="-1.6533446498215198516845703125">
        <ele>412</ele>
        <time>2021-04-07T11:47:10.000Z</time>
      </trkpt>
      <trkpt lat="42.82293132506310939788818359375" lon="-1.65329955518245697021484375">
        <ele>412</ele>
        <time>2021-04-07T11:47:11.000Z</time>
      </trkpt>
      <trkpt lat="42.822961919009685516357421875" lon="-1.65324985049664974212646484375">
        <ele>412</ele>
        <time>2021-04-07T11:47:12.000Z</time>
      </trkpt>
      <trkpt lat="42.8229998052120208740234375" lon="-1.65320299565792083740234375">
        <ele>412</ele>
        <time>2021-04-07T11:47:13.000Z</time>
      </trkpt>
      <trkpt lat="42.82303207553923130035400390625" lon="-1.65316083468496799468994140625">
        <ele>412</ele>
        <time>2021-04-07T11:47:14.000Z</time>
      </trkpt>
      <trkpt lat="42.8230469115078449249267578125" lon="-1.6531374491751194000244140625">
        <ele>411.79998779296875</ele>
        <time>2021-04-07T11:47:15.000Z</time>
      </trkpt>
      <trkpt lat="42.823052108287811279296875" lon="-1.65311448276042938232421875">
        <ele>411.600006103515625</ele>
        <time>2021-04-07T11:47:16.000Z</time>
      </trkpt>
      <trkpt lat="42.8230288065969944000244140625" lon="-1.65310107171535491943359375">
        <ele>411.600006103515625</ele>
        <time>2021-04-07T11:47:17.000Z</time>
      </trkpt>
      <trkpt lat="42.823002152144908905029296875" lon="-1.65307584218680858612060546875">
        <ele>411.600006103515625</ele>
        <time>2021-04-07T11:47:18.000Z</time>
      </trkpt>
      <trkpt lat="42.8229637630283832550048828125" lon="-1.65304348804056644439697265625">
        <ele>411.600006103515625</ele>
        <time>2021-04-07T11:47:19.000Z</time>
      </trkpt>
      <trkpt lat="42.8228983841836452484130859375" lon="-1.652999818325042724609375">
        <ele>411.600006103515625</ele>
        <time>2021-04-07T11:47:20.000Z</time>
      </trkpt>
      <trkpt lat="42.8228454105556011199951171875" lon="-1.6529751755297183990478515625">
        <ele>411.600006103515625</ele>
        <time>2021-04-07T11:47:21.000Z</time>
      </trkpt>
      <trkpt lat="42.82280274666845798492431640625" lon="-1.6529564000666141510009765625">
        <ele>411.600006103515625</ele>
        <time>2021-04-07T11:47:22.000Z</time>
      </trkpt>
      <trkpt lat="42.8227530419826507568359375" lon="-1.65290954522788524627685546875">
        <ele>411.79998779296875</ele>
        <time>2021-04-07T11:47:23.000Z</time>
      </trkpt>
      <trkpt lat="42.82271691597998142242431640625" lon="-1.65288993157446384429931640625">
        <ele>411.79998779296875</ele>
        <time>2021-04-07T11:47:24.000Z</time>
      </trkpt>
      <trkpt lat="42.82267148606479167938232421875" lon="-1.6528455913066864013671875">
        <ele>412</ele>
        <time>2021-04-07T11:47:25.000Z</time>
      </trkpt>
      <trkpt lat="42.8226221166551113128662109375" lon="-1.6527337767183780670166015625">
        <ele>411.79998779296875</ele>
        <time>2021-04-07T11:47:26.000Z</time>
      </trkpt>
      <trkpt lat="42.82257442362606525421142578125" lon="-1.65268222801387310028076171875">
        <ele>411.79998779296875</ele>
        <time>2021-04-07T11:47:27.000Z</time>
      </trkpt>
      <trkpt lat="42.822537124156951904296875" lon="-1.65263629518449306488037109375">
        <ele>411.79998779296875</ele>
        <time>2021-04-07T11:47:28.000Z</time>
      </trkpt>
      <trkpt lat="42.82248624600470066070556640625" lon="-1.6525580920279026031494140625">
        <ele>412</ele>
        <time>2021-04-07T11:47:29.000Z</time>
      </trkpt>
      <trkpt lat="42.8224474377930164337158203125" lon="-1.652480475604534149169921875">
        <ele>412</ele>
        <time>2021-04-07T11:47:30.000Z</time>
      </trkpt>
      <trkpt lat="42.82240862958133220672607421875" lon="-1.65239573456346988677978515625">
        <ele>412</ele>
        <time>2021-04-07T11:47:31.000Z</time>
      </trkpt>
      <trkpt lat="42.8223793767392635345458984375" lon="-1.65232549421489238739013671875">
        <ele>412</ele>
        <time>2021-04-07T11:47:32.000Z</time>
      </trkpt>
      <trkpt lat="42.82235062681138515472412109375" lon="-1.65227092802524566650390625">
        <ele>412</ele>
        <time>2021-04-07T11:47:33.000Z</time>
      </trkpt>
      <trkpt lat="42.82232782803475856781005859375" lon="-1.65223337709903717041015625">
        <ele>412.20001220703125</ele>
        <time>2021-04-07T11:47:34.000Z</time>
      </trkpt>
      <trkpt lat="42.82230444252490997314453125" lon="-1.6521830856800079345703125">
        <ele>412.20001220703125</ele>
        <time>2021-04-07T11:47:35.000Z</time>
      </trkpt>
      <trkpt lat="42.82228072173893451690673828125" lon="-1.652135141193866729736328125">
        <ele>412</ele>
        <time>2021-04-07T11:47:36.000Z</time>
      </trkpt>
      <trkpt lat="42.82225272618234157562255859375" lon="-1.652079485356807708740234375">
        <ele>412</ele>
        <time>2021-04-07T11:47:37.000Z</time>
      </trkpt>
      <trkpt lat="42.822222299873828887939453125" lon="-1.65202139876782894134521484375">
        <ele>412.20001220703125</ele>
        <time>2021-04-07T11:47:38.000Z</time>
      </trkpt>
      <trkpt lat="42.82219313085079193115234375" lon="-1.6519569419324398040771484375">
        <ele>412.20001220703125</ele>
        <time>2021-04-07T11:47:39.000Z</time>
      </trkpt>
      <trkpt lat="42.82216228544712066650390625" lon="-1.65189835242927074432373046875">
        <ele>412.399993896484375</ele>
        <time>2021-04-07T11:47:40.000Z</time>
      </trkpt>
      <trkpt lat="42.822138480842113494873046875" lon="-1.651836074888706207275390625">
        <ele>412.600006103515625</ele>
        <time>2021-04-07T11:47:41.000Z</time>
      </trkpt>
      <trkpt lat="42.8221141733229160308837890625" lon="-1.6517789103090763092041015625">
        <ele>412.79998779296875</ele>
        <time>2021-04-07T11:47:42.000Z</time>
      </trkpt>
      <trkpt lat="42.82208508811891078948974609375" lon="-1.65172065608203411102294921875">
        <ele>413</ele>
        <time>2021-04-07T11:47:43.000Z</time>
      </trkpt>
      <trkpt lat="42.82205893658101558685302734375" lon="-1.6516654193401336669921875">
        <ele>413</ele>
        <time>2021-04-07T11:47:44.000Z</time>
      </trkpt>
      <trkpt lat="42.822031863033771514892578125" lon="-1.6516069136559963226318359375">
        <ele>413</ele>
        <time>2021-04-07T11:47:45.000Z</time>
      </trkpt>
      <trkpt lat="42.82200998626649379730224609375" lon="-1.65155000053346157073974609375">
        <ele>413</ele>
        <time>2021-04-07T11:47:46.000Z</time>
      </trkpt>
      <trkpt lat="42.82198500819504261016845703125" lon="-1.65149283595383167266845703125">
        <ele>413</ele>
        <time>2021-04-07T11:47:47.000Z</time>
      </trkpt>
      <trkpt lat="42.8219552524387836456298828125" lon="-1.6514322347939014434814453125">
        <ele>413</ele>
        <time>2021-04-07T11:47:48.000Z</time>
      </trkpt>
      <trkpt lat="42.8219304420053958892822265625" lon="-1.65137775242328643798828125">
        <ele>412.79998779296875</ele>
        <time>2021-04-07T11:47:49.000Z</time>
      </trkpt>
      <trkpt lat="42.82189632765948772430419921875" lon="-1.65134564973413944244384765625">
        <ele>412.600006103515625</ele>
        <time>2021-04-07T11:47:50.000Z</time>
      </trkpt>
      <trkpt lat="42.8218650631606578826904296875" lon="-1.65130206383764743804931640625">
        <ele>412.600006103515625</ele>
        <time>2021-04-07T11:47:51.000Z</time>
      </trkpt>
      <trkpt lat="42.8218355588614940643310546875" lon="-1.65125428698956966400146484375">
        <ele>412.399993896484375</ele>
        <time>2021-04-07T11:47:52.000Z</time>
      </trkpt>
      <trkpt lat="42.8218053840100765228271484375" lon="-1.65121153928339481353759765625">
        <ele>412.399993896484375</ele>
        <time>2021-04-07T11:47:53.000Z</time>
      </trkpt>
      <trkpt lat="42.8217825852334499359130859375" lon="-1.65116443298757076263427734375">
        <ele>412.600006103515625</ele>
        <time>2021-04-07T11:47:54.000Z</time>
      </trkpt>
      <trkpt lat="42.8217601217329502105712890625" lon="-1.651108525693416595458984375">
        <ele>412.399993896484375</ele>
        <time>2021-04-07T11:47:55.000Z</time>
      </trkpt>
      <trkpt lat="42.82174327410757541656494140625" lon="-1.65105345658957958221435546875">
        <ele>412.600006103515625</ele>
        <time>2021-04-07T11:47:56.000Z</time>
      </trkpt>
      <trkpt lat="42.82172106206417083740234375" lon="-1.6510040871798992156982421875">
        <ele>412.79998779296875</ele>
        <time>2021-04-07T11:47:57.000Z</time>
      </trkpt>
      <trkpt lat="42.82170002348721027374267578125" lon="-1.65095354430377483367919921875">
        <ele>412.79998779296875</ele>
        <time>2021-04-07T11:47:58.000Z</time>
      </trkpt>
      <trkpt lat="42.8216846846044063568115234375" lon="-1.65089453570544719696044921875">
        <ele>413</ele>
        <time>2021-04-07T11:47:59.000Z</time>
      </trkpt>
      <trkpt lat="42.82167605124413967132568359375" lon="-1.6508267261087894439697265625">
        <ele>412.79998779296875</ele>
        <time>2021-04-07T11:48:00.000Z</time>
      </trkpt>
      <trkpt lat="42.82165291719138622283935546875" lon="-1.6507630236446857452392578125">
        <ele>412.79998779296875</ele>
        <time>2021-04-07T11:48:01.000Z</time>
      </trkpt>
      <trkpt lat="42.8216343931853771209716796875" lon="-1.6507025063037872314453125">
        <ele>412.79998779296875</ele>
        <time>2021-04-07T11:48:02.000Z</time>
      </trkpt>
      <trkpt lat="42.821622826159000396728515625" lon="-1.65063687600195407867431640625">
        <ele>412.600006103515625</ele>
        <time>2021-04-07T11:48:03.000Z</time>
      </trkpt>
      <trkpt lat="42.82162391580641269683837890625" lon="-1.65057443082332611083984375">
        <ele>412.600006103515625</ele>
        <time>2021-04-07T11:48:04.000Z</time>
      </trkpt>
      <trkpt lat="42.82163254916667938232421875" lon="-1.65051533840596675872802734375">
        <ele>412.399993896484375</ele>
        <time>2021-04-07T11:48:05.000Z</time>
      </trkpt>
      <trkpt lat="42.8216479718685150146484375" lon="-1.65045683272182941436767578125">
        <ele>412.399993896484375</ele>
        <time>2021-04-07T11:48:06.000Z</time>
      </trkpt>
      <trkpt lat="42.8216640651226043701171875" lon="-1.65040100924670696258544921875">
        <ele>412.399993896484375</ele>
        <time>2021-04-07T11:48:07.000Z</time>
      </trkpt>
      <trkpt lat="42.82168141566216945648193359375" lon="-1.65034065954387187957763671875">
        <ele>412.20001220703125</ele>
        <time>2021-04-07T11:48:08.000Z</time>
      </trkpt>
      <trkpt lat="42.82169717364013195037841796875" lon="-1.65027444250881671905517578125">
        <ele>412.20001220703125</ele>
        <time>2021-04-07T11:48:09.000Z</time>
      </trkpt>
      <trkpt lat="42.82171276398003101348876953125" lon="-1.6502091474831104278564453125">
        <ele>412.399993896484375</ele>
        <time>2021-04-07T11:48:10.000Z</time>
      </trkpt>
      <trkpt lat="42.821732126176357269287109375" lon="-1.65014586411416530609130859375">
        <ele>412.399993896484375</ele>
        <time>2021-04-07T11:48:11.000Z</time>
      </trkpt>
      <trkpt lat="42.8217463754117488861083984375" lon="-1.65008869953453540802001953125">
        <ele>412.399993896484375</ele>
        <time>2021-04-07T11:48:12.000Z</time>
      </trkpt>
      <trkpt lat="42.82175869680941104888916015625" lon="-1.650033630430698394775390625">
        <ele>412.399993896484375</ele>
        <time>2021-04-07T11:48:13.000Z</time>
      </trkpt>
      <trkpt lat="42.82178317196667194366455078125" lon="-1.6499741189181804656982421875">
        <ele>412.600006103515625</ele>
        <time>2021-04-07T11:48:14.000Z</time>
      </trkpt>
      <trkpt lat="42.82181468792259693145751953125" lon="-1.6499124281108379364013671875">
        <ele>412.79998779296875</ele>
        <time>2021-04-07T11:48:15.000Z</time>
      </trkpt>
      <trkpt lat="42.82183639705181121826171875" lon="-1.649857275187969207763671875">
        <ele>413</ele>
        <time>2021-04-07T11:48:16.000Z</time>
      </trkpt>
      <trkpt lat="42.82186162658035755157470703125" lon="-1.6498051397502422332763671875">
        <ele>413</ele>
        <time>2021-04-07T11:48:17.000Z</time>
      </trkpt>
      <trkpt lat="42.82188878394663333892822265625" lon="-1.64975895546376705169677734375">
        <ele>413</ele>
        <time>2021-04-07T11:48:18.000Z</time>
      </trkpt>
      <trkpt lat="42.82191728241741657257080078125" lon="-1.6497136093676090240478515625">
        <ele>413</ele>
        <time>2021-04-07T11:48:19.000Z</time>
      </trkpt>
      <trkpt lat="42.8219456970691680908203125" lon="-1.649672873318195343017578125">
        <ele>413</ele>
        <time>2021-04-07T11:48:20.000Z</time>
      </trkpt>
      <trkpt lat="42.82195617444813251495361328125" lon="-1.6496537625789642333984375">
        <ele>413</ele>
        <time>2021-04-07T11:48:21.000Z</time>
      </trkpt>
      <trkpt lat="42.82198349945247173309326171875" lon="-1.64964412339031696319580078125">
        <ele>413</ele>
        <time>2021-04-07T11:48:22.000Z</time>
      </trkpt>
      <trkpt lat="42.821993641555309295654296875" lon="-1.649640016257762908935546875">
        <ele>413</ele>
        <time>2021-04-07T11:48:23.000Z</time>
      </trkpt>
      <trkpt lat="42.82200043089687824249267578125" lon="-1.6496358253061771392822265625">
        <ele>412.79998779296875</ele>
        <time>2021-04-07T11:48:24.000Z</time>
      </trkpt>
      <trkpt lat="42.8220018558204174041748046875" lon="-1.64963473565876483917236328125">
        <ele>412.600006103515625</ele>
        <time>2021-04-07T11:48:25.000Z</time>
      </trkpt>
      <trkpt lat="42.822001688182353973388671875" lon="-1.649633310735225677490234375">
        <ele>412.600006103515625</ele>
        <time>2021-04-07T11:48:26.000Z</time>
      </trkpt>
      <trkpt lat="42.8220020234584808349609375" lon="-1.64963205344974994659423828125">
        <ele>412.399993896484375</ele>
        <time>2021-04-07T11:48:27.000Z</time>
      </trkpt>
      <trkpt lat="42.82204519025981426239013671875" lon="-1.64934958331286907196044921875">
        <ele>413.20001220703125</ele>
        <time>2021-04-07T11:48:37.000Z</time>
      </trkpt>
      <trkpt lat="42.8219113312661647796630859375" lon="-1.64940624497830867767333984375">
        <ele>412.79998779296875</ele>
        <time>2021-04-07T11:48:41.000Z</time>
      </trkpt>
      <trkpt lat="42.821891717612743377685546875" lon="-1.649378836154937744140625">
        <ele>412.79998779296875</ele>
        <time>2021-04-07T11:48:42.000Z</time>
      </trkpt>
      <trkpt lat="42.82186430878937244415283203125" lon="-1.6493716277182102203369140625">
        <ele>413</ele>
        <time>2021-04-07T11:48:43.000Z</time>
      </trkpt>
      <trkpt lat="42.8218295238912105560302734375" lon="-1.6493568755686283111572265625">
        <ele>413</ele>
        <time>2021-04-07T11:48:44.000Z</time>
      </trkpt>
      <trkpt lat="42.8217742033302783966064453125" lon="-1.64942518807947635650634765625">
        <ele>413</ele>
        <time>2021-04-07T11:48:45.000Z</time>
      </trkpt>
      <trkpt lat="42.8217440284788608551025390625" lon="-1.64941529743373394012451171875">
        <ele>412.79998779296875</ele>
        <time>2021-04-07T11:48:46.000Z</time>
      </trkpt>
      <trkpt lat="42.82170807011425495147705078125" lon="-1.6493890620768070220947265625">
        <ele>412.79998779296875</ele>
        <time>2021-04-07T11:48:47.000Z</time>
      </trkpt>
      <trkpt lat="42.82166599296033382415771484375" lon="-1.64935712702572345733642578125">
        <ele>412.79998779296875</ele>
        <time>2021-04-07T11:48:48.000Z</time>
      </trkpt>
      <trkpt lat="42.82162961550056934356689453125" lon="-1.6493451409041881561279296875">
        <ele>413</ele>
        <time>2021-04-07T11:48:49.000Z</time>
      </trkpt>
      <trkpt lat="42.8215871192514896392822265625" lon="-1.64932343177497386932373046875">
        <ele>412.79998779296875</ele>
        <time>2021-04-07T11:48:50.000Z</time>
      </trkpt>
      <trkpt lat="42.821545042097568511962890625" lon="-1.64929962716996669769287109375">
        <ele>412.79998779296875</ele>
        <time>2021-04-07T11:48:51.000Z</time>
      </trkpt>
      <trkpt lat="42.82149801962077617645263671875" lon="-1.64928504265844821929931640625">
        <ele>412.79998779296875</ele>
        <time>2021-04-07T11:48:52.000Z</time>
      </trkpt>
      <trkpt lat="42.8214516676962375640869140625" lon="-1.6492361761629581451416015625">
        <ele>412.79998779296875</ele>
        <time>2021-04-07T11:48:53.000Z</time>
      </trkpt>
      <trkpt lat="42.82140129245817661285400390625" lon="-1.6492153890430927276611328125">
        <ele>412.79998779296875</ele>
        <time>2021-04-07T11:48:54.000Z</time>
      </trkpt>
      <trkpt lat="42.82134714536368846893310546875" lon="-1.6492053307592868804931640625">
        <ele>412.79998779296875</ele>
        <time>2021-04-07T11:48:55.000Z</time>
      </trkpt>
      <trkpt lat="42.821292243897914886474609375" lon="-1.6492046602070331573486328125">
        <ele>412.600006103515625</ele>
        <time>2021-04-07T11:48:56.000Z</time>
      </trkpt>
      <trkpt lat="42.821239940822124481201171875" lon="-1.6491972841322422027587890625">
        <ele>412.600006103515625</ele>
        <time>2021-04-07T11:48:57.000Z</time>
      </trkpt>
      <trkpt lat="42.82119828276336193084716796875" lon="-1.649181358516216278076171875">
        <ele>412.399993896484375</ele>
        <time>2021-04-07T11:48:58.000Z</time>
      </trkpt>
      <trkpt lat="42.82115436159074306488037109375" lon="-1.64913835935294628143310546875">
        <ele>412.399993896484375</ele>
        <time>2021-04-07T11:48:59.000Z</time>
      </trkpt>
      <trkpt lat="42.8211324848234653472900390625" lon="-1.6491030715405941009521484375">
        <ele>412.399993896484375</ele>
        <time>2021-04-07T11:49:00.000Z</time>
      </trkpt>
      <trkpt lat="42.821101807057857513427734375" lon="-1.64905889891088008880615234375">
        <ele>412.399993896484375</ele>
        <time>2021-04-07T11:49:01.000Z</time>
      </trkpt>
      <trkpt lat="42.82107892446219921112060546875" lon="-1.649014391005039215087890625">
        <ele>412.399993896484375</ele>
        <time>2021-04-07T11:49:02.000Z</time>
      </trkpt>
      <trkpt lat="42.82106249593198299407958984375" lon="-1.6489803604781627655029296875">
        <ele>412.600006103515625</ele>
        <time>2021-04-07T11:49:03.000Z</time>
      </trkpt>
      <trkpt lat="42.821046151220798492431640625" lon="-1.6489461623132228851318359375">
        <ele>412.600006103515625</ele>
        <time>2021-04-07T11:49:04.000Z</time>
      </trkpt>
      <trkpt lat="42.82102997414767742156982421875" lon="-1.6489161550998687744140625">
        <ele>412.600006103515625</ele>
        <time>2021-04-07T11:49:05.000Z</time>
      </trkpt>
      <trkpt lat="42.82101270742714405059814453125" lon="-1.6488941945135593414306640625">
        <ele>412.600006103515625</ele>
        <time>2021-04-07T11:49:06.000Z</time>
      </trkpt>
      <trkpt lat="42.8209950216114521026611328125" lon="-1.64887416176497936248779296875">
        <ele>412.600006103515625</ele>
        <time>2021-04-07T11:49:07.000Z</time>
      </trkpt>
      <trkpt lat="42.82100248150527477264404296875" lon="-1.6488760896027088165283203125">
        <ele>412.600006103515625</ele>
        <time>2021-04-07T11:49:08.000Z</time>
      </trkpt>
      <trkpt lat="42.8210295550525188446044921875" lon="-1.64886795915663242340087890625">
        <ele>412.600006103515625</ele>
        <time>2021-04-07T11:49:09.000Z</time>
      </trkpt>
      <trkpt lat="42.82103634439408779144287109375" lon="-1.6488586552441120147705078125">
        <ele>412.600006103515625</ele>
        <time>2021-04-07T11:49:10.000Z</time>
      </trkpt>
      <trkpt lat="42.821046151220798492431640625" lon="-1.6488496027886867523193359375">
        <ele>412.600006103515625</ele>
        <time>2021-04-07T11:49:11.000Z</time>
      </trkpt>
      <trkpt lat="42.82107532024383544921875" lon="-1.64885781705379486083984375">
        <ele>412.600006103515625</ele>
        <time>2021-04-07T11:49:12.000Z</time>
      </trkpt>
      <trkpt lat="42.82109535299241542816162109375" lon="-1.6488663665950298309326171875">
        <ele>412.600006103515625</ele>
        <time>2021-04-07T11:49:13.000Z</time>
      </trkpt>
      <trkpt lat="42.82110658474266529083251953125" lon="-1.6488759219646453857421875">
        <ele>412.600006103515625</ele>
        <time>2021-04-07T11:49:14.000Z</time>
      </trkpt>
      <trkpt lat="42.82110943458974361419677734375" lon="-1.64890073239803314208984375">
        <ele>412.600006103515625</ele>
        <time>2021-04-07T11:49:15.000Z</time>
      </trkpt>
      <trkpt lat="42.821105159819126129150390625" lon="-1.6489242017269134521484375">
        <ele>412.399993896484375</ele>
        <time>2021-04-07T11:49:16.000Z</time>
      </trkpt>
      <trkpt lat="42.8210935927927494049072265625" lon="-1.64893669076263904571533203125">
        <ele>412.399993896484375</ele>
        <time>2021-04-07T11:49:17.000Z</time>
      </trkpt>
      <trkpt lat="42.82107406295835971832275390625" lon="-1.64893870241940021514892578125">
        <ele>412.600006103515625</ele>
        <time>2021-04-07T11:49:18.000Z</time>
      </trkpt>
      <trkpt lat="42.82104757614433765411376953125" lon="-1.6489247046411037445068359375">
        <ele>412.600006103515625</ele>
        <time>2021-04-07T11:49:19.000Z</time>
      </trkpt>
      <trkpt lat="42.82101438380777835845947265625" lon="-1.64890475571155548095703125">
        <ele>412.79998779296875</ele>
        <time>2021-04-07T11:49:20.000Z</time>
      </trkpt>
      <trkpt lat="42.8209802694618701934814453125" lon="-1.64889427833259105682373046875">
        <ele>412.79998779296875</ele>
        <time>2021-04-07T11:49:21.000Z</time>
      </trkpt>
      <trkpt lat="42.82094196416437625885009765625" lon="-1.64888556115329265594482421875">
        <ele>412.79998779296875</ele>
        <time>2021-04-07T11:49:22.000Z</time>
      </trkpt>
      <trkpt lat="42.82090458087623119354248046875" lon="-1.64887684397399425506591796875">
        <ele>413</ele>
        <time>2021-04-07T11:49:23.000Z</time>
      </trkpt>
      <trkpt lat="42.8208652697503566741943359375" lon="-1.648867540061473846435546875">
        <ele>413.399993896484375</ele>
        <time>2021-04-07T11:49:24.000Z</time>
      </trkpt>
      <trkpt lat="42.8208257071673870086669921875" lon="-1.6488519497215747833251953125">
        <ele>413.600006103515625</ele>
        <time>2021-04-07T11:49:25.000Z</time>
      </trkpt>
      <trkpt lat="42.82078606076538562774658203125" lon="-1.64884348399937152862548828125">
        <ele>413.600006103515625</ele>
        <time>2021-04-07T11:49:26.000Z</time>
      </trkpt>
      <trkpt lat="42.82074783928692340850830078125" lon="-1.648839376866817474365234375">
        <ele>413.20001220703125</ele>
        <time>2021-04-07T11:49:27.000Z</time>
      </trkpt>
      <trkpt lat="42.82070542685687541961669921875" lon="-1.64883761666715145111083984375">
        <ele>413.20001220703125</ele>
        <time>2021-04-07T11:49:28.000Z</time>
      </trkpt>
      <trkpt lat="42.820659913122653961181640625" lon="-1.6488395445048809051513671875">
        <ele>413.20001220703125</ele>
        <time>2021-04-07T11:49:29.000Z</time>
      </trkpt>
      <trkpt lat="42.82061372883617877960205078125" lon="-1.64884708821773529052734375">
        <ele>413.20001220703125</ele>
        <time>2021-04-07T11:49:30.000Z</time>
      </trkpt>
      <trkpt lat="42.82056645490229129791259765625" lon="-1.6488610021770000457763671875">
        <ele>412.79998779296875</ele>
        <time>2021-04-07T11:49:31.000Z</time>
      </trkpt>
      <trkpt lat="42.82050727866590023040771484375" lon="-1.64887122809886932373046875">
        <ele>412.600006103515625</ele>
        <time>2021-04-07T11:49:32.000Z</time>
      </trkpt>
      <trkpt lat="42.82045103609561920166015625" lon="-1.6488895006477832794189453125">
        <ele>412.399993896484375</ele>
        <time>2021-04-07T11:49:33.000Z</time>
      </trkpt>
      <trkpt lat="42.8203948773443698883056640625" lon="-1.64890467189252376556396484375">
        <ele>412.20001220703125</ele>
        <time>2021-04-07T11:49:34.000Z</time>
      </trkpt>
      <trkpt lat="42.8203417360782623291015625" lon="-1.6489161550998687744140625">
        <ele>412.20001220703125</ele>
        <time>2021-04-07T11:49:35.000Z</time>
      </trkpt>
      <trkpt lat="42.82029219903051853179931640625" lon="-1.6489213518798351287841796875">
        <ele>412.20001220703125</ele>
        <time>2021-04-07T11:49:36.000Z</time>
      </trkpt>
      <trkpt lat="42.8202473558485507965087890625" lon="-1.64892428554594516754150390625">
        <ele>412.399993896484375</ele>
        <time>2021-04-07T11:49:37.000Z</time>
      </trkpt>
      <trkpt lat="42.8202004171907901763916015625" lon="-1.64891908876597881317138671875">
        <ele>412.399993896484375</ele>
        <time>2021-04-07T11:49:38.000Z</time>
      </trkpt>
      <trkpt lat="42.82015599310398101806640625" lon="-1.6489092819392681121826171875">
        <ele>412.600006103515625</ele>
        <time>2021-04-07T11:49:39.000Z</time>
      </trkpt>
      <trkpt lat="42.82011819072067737579345703125" lon="-1.648902408778667449951171875">
        <ele>412.600006103515625</ele>
        <time>2021-04-07T11:49:40.000Z</time>
      </trkpt>
      <trkpt lat="42.82007955014705657958984375" lon="-1.64888975210487842559814453125">
        <ele>413</ele>
        <time>2021-04-07T11:49:41.000Z</time>
      </trkpt>
      <trkpt lat="42.82004526816308498382568359375" lon="-1.64887282066047191619873046875">
        <ele>413</ele>
        <time>2021-04-07T11:49:42.000Z</time>
      </trkpt>
      <trkpt lat="42.8200153447687625885009765625" lon="-1.64884951896965503692626953125">
        <ele>413</ele>
        <time>2021-04-07T11:49:43.000Z</time>
      </trkpt>
      <trkpt lat="42.819986678659915924072265625" lon="-1.6488211043179035186767578125">
        <ele>413</ele>
        <time>2021-04-07T11:49:44.000Z</time>
      </trkpt>
      <trkpt lat="42.81996295787394046783447265625" lon="-1.64879880845546722412109375">
        <ele>413.20001220703125</ele>
        <time>2021-04-07T11:49:45.000Z</time>
      </trkpt>
      <trkpt lat="42.81994250603020191192626953125" lon="-1.6487874090671539306640625">
        <ele>413.399993896484375</ele>
        <time>2021-04-07T11:49:46.000Z</time>
      </trkpt>
      <trkpt lat="42.8199164383113384246826171875" lon="-1.6487681306898593902587890625">
        <ele>413.399993896484375</ele>
        <time>2021-04-07T11:49:47.000Z</time>
      </trkpt>
      <trkpt lat="42.8198911249637603759765625" lon="-1.64875396527349948883056640625">
        <ele>413.600006103515625</ele>
        <time>2021-04-07T11:49:48.000Z</time>
      </trkpt>
      <trkpt lat="42.81986304558813571929931640625" lon="-1.64873485453426837921142578125">
        <ele>414</ele>
        <time>2021-04-07T11:49:49.000Z</time>
      </trkpt>
      <trkpt lat="42.819831781089305877685546875" lon="-1.64871322922408580780029296875">
        <ele>414.20001220703125</ele>
        <time>2021-04-07T11:49:50.000Z</time>
      </trkpt>
      <trkpt lat="42.81980194151401519775390625" lon="-1.648694537580013275146484375">
        <ele>414.600006103515625</ele>
        <time>2021-04-07T11:49:51.000Z</time>
      </trkpt>
      <trkpt lat="42.8197739459574222564697265625" lon="-1.648682467639446258544921875">
        <ele>414.79998779296875</ele>
        <time>2021-04-07T11:49:52.000Z</time>
      </trkpt>
      <trkpt lat="42.81974704004824161529541015625" lon="-1.6486685536801815032958984375">
        <ele>415.20001220703125</ele>
        <time>2021-04-07T11:49:53.000Z</time>
      </trkpt>
      <trkpt lat="42.819717116653919219970703125" lon="-1.648654974997043609619140625">
        <ele>415.399993896484375</ele>
        <time>2021-04-07T11:49:54.000Z</time>
      </trkpt>
      <trkpt lat="42.819688282907009124755859375" lon="-1.6486407257616519927978515625">
        <ele>415.600006103515625</ele>
        <time>2021-04-07T11:49:55.000Z</time>
      </trkpt>
      <trkpt lat="42.819657437503337860107421875" lon="-1.6486209444701671600341796875">
        <ele>415.79998779296875</ele>
        <time>2021-04-07T11:49:56.000Z</time>
      </trkpt>
      <trkpt lat="42.819629944860935211181640625" lon="-1.64859755896031856536865234375">
        <ele>416</ele>
        <time>2021-04-07T11:49:57.000Z</time>
      </trkpt>
      <trkpt lat="42.8196096606552600860595703125" lon="-1.64856738410890102386474609375">
        <ele>416.20001220703125</ele>
        <time>2021-04-07T11:49:58.000Z</time>
      </trkpt>
      <trkpt lat="42.8195922262966632843017578125" lon="-1.64853050373494625091552734375">
        <ele>416.600006103515625</ele>
        <time>2021-04-07T11:49:59.000Z</time>
      </trkpt>
      <trkpt lat="42.8195744566619396209716796875" lon="-1.64848943240940570831298828125">
        <ele>416.79998779296875</ele>
        <time>2021-04-07T11:50:00.000Z</time>
      </trkpt>
      <trkpt lat="42.8195633925497531890869140625" lon="-1.6484476067125797271728515625">
        <ele>417.20001220703125</ele>
        <time>2021-04-07T11:50:01.000Z</time>
      </trkpt>
      <trkpt lat="42.81955660320818424224853515625" lon="-1.6484020091593265533447265625">
        <ele>417.20001220703125</ele>
        <time>2021-04-07T11:50:02.000Z</time>
      </trkpt>
      <trkpt lat="42.819550819694995880126953125" lon="-1.6483560763299465179443359375">
        <ele>417.399993896484375</ele>
        <time>2021-04-07T11:50:03.000Z</time>
      </trkpt>
      <trkpt lat="42.8195526637136936187744140625" lon="-1.64831039495766162872314453125">
        <ele>417.399993896484375</ele>
        <time>2021-04-07T11:50:04.000Z</time>
      </trkpt>
      <trkpt lat="42.81955643557012081146240234375" lon="-1.64826379157602787017822265625">
        <ele>417.600006103515625</ele>
        <time>2021-04-07T11:50:05.000Z</time>
      </trkpt>
      <trkpt lat="42.81956716440618038177490234375" lon="-1.64821542799472808837890625">
        <ele>417.79998779296875</ele>
        <time>2021-04-07T11:50:06.000Z</time>
      </trkpt>
      <trkpt lat="42.819574289023876190185546875" lon="-1.64817175827920436859130859375">
        <ele>417.79998779296875</ele>
        <time>2021-04-07T11:50:07.000Z</time>
      </trkpt>
      <trkpt lat="42.81958225183188915252685546875" lon="-1.6481284238398075103759765625">
        <ele>418</ele>
        <time>2021-04-07T11:50:08.000Z</time>
      </trkpt>
      <trkpt lat="42.81958577223122119903564453125" lon="-1.64808575995266437530517578125">
        <ele>418</ele>
        <time>2021-04-07T11:50:09.000Z</time>
      </trkpt>
      <trkpt lat="42.81959298066794872283935546875" lon="-1.64803974330425262451171875">
        <ele>418.20001220703125</ele>
        <time>2021-04-07T11:50:10.000Z</time>
      </trkpt>
      <trkpt lat="42.819601781666278839111328125" lon="-1.64799414575099945068359375">
        <ele>418.600006103515625</ele>
        <time>2021-04-07T11:50:11.000Z</time>
      </trkpt>
      <trkpt lat="42.81960404478013515472412109375" lon="-1.64794854819774627685546875">
        <ele>419.20001220703125</ele>
        <time>2021-04-07T11:50:12.000Z</time>
      </trkpt>
      <trkpt lat="42.8196110017597675323486328125" lon="-1.6478994302451610565185546875">
        <ele>419.600006103515625</ele>
        <time>2021-04-07T11:50:13.000Z</time>
      </trkpt>
      <trkpt lat="42.8196167014539241790771484375" lon="-1.6478545032441616058349609375">
        <ele>420</ele>
        <time>2021-04-07T11:50:14.000Z</time>
      </trkpt>
      <trkpt lat="42.81962223351001739501953125" lon="-1.6478135995566844940185546875">
        <ele>420.20001220703125</ele>
        <time>2021-04-07T11:50:15.000Z</time>
      </trkpt>
      <trkpt lat="42.8196202218532562255859375" lon="-1.647775880992412567138671875">
        <ele>420.399993896484375</ele>
        <time>2021-04-07T11:50:16.000Z</time>
      </trkpt>
      <trkpt lat="42.81962634064257144927978515625" lon="-1.64773975498974323272705078125">
        <ele>420.600006103515625</ele>
        <time>2021-04-07T11:50:17.000Z</time>
      </trkpt>
      <trkpt lat="42.81963405199348926544189453125" lon="-1.6477093286812305450439453125">
        <ele>420.79998779296875</ele>
        <time>2021-04-07T11:50:18.000Z</time>
      </trkpt>
      <trkpt lat="42.8196411766111850738525390625" lon="-1.64768074639141559600830078125">
        <ele>421.20001220703125</ele>
        <time>2021-04-07T11:50:19.000Z</time>
      </trkpt>
      <trkpt lat="42.8196609579026699066162109375" lon="-1.6476503200829029083251953125">
        <ele>421.20001220703125</ele>
        <time>2021-04-07T11:50:20.000Z</time>
      </trkpt>
      <trkpt lat="42.8196730278432369232177734375" lon="-1.647620312869548797607421875">
        <ele>421.399993896484375</ele>
        <time>2021-04-07T11:50:21.000Z</time>
      </trkpt>
      <trkpt lat="42.81967847608029842376708984375" lon="-1.64758821018040180206298828125">
        <ele>421.600006103515625</ele>
        <time>2021-04-07T11:50:22.000Z</time>
      </trkpt>
      <trkpt lat="42.8196837566792964935302734375" lon="-1.64755602367222309112548828125">
        <ele>421.79998779296875</ele>
        <time>2021-04-07T11:50:23.000Z</time>
      </trkpt>
      <trkpt lat="42.81969607807695865631103515625" lon="-1.64751763455569744110107421875">
        <ele>422</ele>
        <time>2021-04-07T11:50:24.000Z</time>
      </trkpt>
      <trkpt lat="42.8197102434933185577392578125" lon="-1.6474826820194721221923828125">
        <ele>422.20001220703125</ele>
        <time>2021-04-07T11:50:25.000Z</time>
      </trkpt>
      <trkpt lat="42.8197350539267063140869140625" lon="-1.64744454436004161834716796875">
        <ele>422.399993896484375</ele>
        <time>2021-04-07T11:50:26.000Z</time>
      </trkpt>
      <trkpt lat="42.8197498060762882232666015625" lon="-1.6474069096148014068603515625">
        <ele>422.600006103515625</ele>
        <time>2021-04-07T11:50:27.000Z</time>
      </trkpt>
      <trkpt lat="42.81975408084690570831298828125" lon="-1.6473720408976078033447265625">
        <ele>422.79998779296875</ele>
        <time>2021-04-07T11:50:28.000Z</time>
      </trkpt>
      <trkpt lat="42.819758355617523193359375" lon="-1.6473418660461902618408203125">
        <ele>423</ele>
        <time>2021-04-07T11:50:29.000Z</time>
      </trkpt>
      <trkpt lat="42.819766066968441009521484375" lon="-1.6473116911947727203369140625">
        <ele>423.20001220703125</ele>
        <time>2021-04-07T11:50:30.000Z</time>
      </trkpt>
      <trkpt lat="42.81977453269064426422119140625" lon="-1.64728277362883090972900390625">
        <ele>423.399993896484375</ele>
        <time>2021-04-07T11:50:31.000Z</time>
      </trkpt>
      <trkpt lat="42.819786183536052703857421875" lon="-1.647248156368732452392578125">
        <ele>423.600006103515625</ele>
        <time>2021-04-07T11:50:32.000Z</time>
      </trkpt>
      <trkpt lat="42.81980319879949092864990234375" lon="-1.6472107730805873870849609375">
        <ele>423.79998779296875</ele>
        <time>2021-04-07T11:50:33.000Z</time>
      </trkpt>
      <trkpt lat="42.8198131732642650604248046875" lon="-1.64717330597341060638427734375">
        <ele>424</ele>
        <time>2021-04-07T11:50:34.000Z</time>
      </trkpt>
      <trkpt lat="42.81982608139514923095703125" lon="-1.64713525213301181793212890625">
        <ele>424.20001220703125</ele>
        <time>2021-04-07T11:50:35.000Z</time>
      </trkpt>
      <trkpt lat="42.8198433481156826019287109375" lon="-1.64709820412099361419677734375">
        <ele>424.399993896484375</ele>
        <time>2021-04-07T11:50:36.000Z</time>
      </trkpt>
      <trkpt lat="42.81985684297978878021240234375" lon="-1.64706165902316570281982421875">
        <ele>424.600006103515625</ele>
        <time>2021-04-07T11:50:37.000Z</time>
      </trkpt>
      <trkpt lat="42.81986807473003864288330078125" lon="-1.64702528156340122222900390625">
        <ele>424.79998779296875</ele>
        <time>2021-04-07T11:50:38.000Z</time>
      </trkpt>
      <trkpt lat="42.81987796537578105926513671875" lon="-1.6469904966652393341064453125">
        <ele>425</ele>
        <time>2021-04-07T11:50:39.000Z</time>
      </trkpt>
      <trkpt lat="42.81989037059247493743896484375" lon="-1.64695839397609233856201171875">
        <ele>425.20001220703125</ele>
        <time>2021-04-07T11:50:40.000Z</time>
      </trkpt>
      <trkpt lat="42.8199053741991519927978515625" lon="-1.64692520163953304290771484375">
        <ele>425.399993896484375</ele>
        <time>2021-04-07T11:50:41.000Z</time>
      </trkpt>
      <trkpt lat="42.819913588464260101318359375" lon="-1.64689242839813232421875">
        <ele>425.399993896484375</ele>
        <time>2021-04-07T11:50:42.000Z</time>
      </trkpt>
      <trkpt lat="42.81992264091968536376953125" lon="-1.64686351083219051361083984375">
        <ele>425.600006103515625</ele>
        <time>2021-04-07T11:50:43.000Z</time>
      </trkpt>
      <trkpt lat="42.8199285082519054412841796875" lon="-1.64683409035205841064453125">
        <ele>425.79998779296875</ele>
        <time>2021-04-07T11:50:44.000Z</time>
      </trkpt>
      <trkpt lat="42.81993546523153781890869140625" lon="-1.64680718444287776947021484375">
        <ele>426</ele>
        <time>2021-04-07T11:50:45.000Z</time>
      </trkpt>
      <trkpt lat="42.81994342803955078125" lon="-1.64677801541984081268310546875">
        <ele>426.20001220703125</ele>
        <time>2021-04-07T11:50:46.000Z</time>
      </trkpt>
      <trkpt lat="42.8199516423046588897705078125" lon="-1.64674934931099414825439453125">
        <ele>426.20001220703125</ele>
        <time>2021-04-07T11:50:47.000Z</time>
      </trkpt>
      <trkpt lat="42.81995826400816440582275390625" lon="-1.64671850390732288360595703125">
        <ele>426.399993896484375</ele>
        <time>2021-04-07T11:50:48.000Z</time>
      </trkpt>
      <trkpt lat="42.8199697472155094146728515625" lon="-1.64668816141784191131591796875">
        <ele>426.600006103515625</ele>
        <time>2021-04-07T11:50:49.000Z</time>
      </trkpt>
      <trkpt lat="42.81998642720282077789306640625" lon="-1.64665798656642436981201171875">
        <ele>426.79998779296875</ele>
        <time>2021-04-07T11:50:50.000Z</time>
      </trkpt>
      <trkpt lat="42.819999754428863525390625" lon="-1.6466267220675945281982421875">
        <ele>427.20001220703125</ele>
        <time>2021-04-07T11:50:51.000Z</time>
      </trkpt>
      <trkpt lat="42.820014171302318572998046875" lon="-1.64659612812101840972900390625">
        <ele>427.399993896484375</ele>
        <time>2021-04-07T11:50:52.000Z</time>
      </trkpt>
      <trkpt lat="42.82001995481550693511962890625" lon="-1.646562851965427398681640625">
        <ele>427.600006103515625</ele>
        <time>2021-04-07T11:50:53.000Z</time>
      </trkpt>
      <trkpt lat="42.82003127038478851318359375" lon="-1.64652387611567974090576171875">
        <ele>427.79998779296875</ele>
        <time>2021-04-07T11:50:54.000Z</time>
      </trkpt>
      <trkpt lat="42.82004199922084808349609375" lon="-1.64648381061851978302001953125">
        <ele>428</ele>
        <time>2021-04-07T11:50:55.000Z</time>
      </trkpt>
      <trkpt lat="42.820052392780780792236328125" lon="-1.64644542150199413299560546875">
        <ele>428</ele>
        <time>2021-04-07T11:50:56.000Z</time>
      </trkpt>
      <trkpt lat="42.82005817629396915435791015625" lon="-1.64640803821384906768798828125">
        <ele>428.20001220703125</ele>
        <time>2021-04-07T11:50:57.000Z</time>
      </trkpt>
      <trkpt lat="42.82006940804421901702880859375" lon="-1.6463672183454036712646484375">
        <ele>428.600006103515625</ele>
        <time>2021-04-07T11:50:58.000Z</time>
      </trkpt>
      <trkpt lat="42.8200733475387096405029296875" lon="-1.6463291645050048828125">
        <ele>429</ele>
        <time>2021-04-07T11:50:59.000Z</time>
      </trkpt>
      <trkpt lat="42.82007091678678989410400390625" lon="-1.6462884284555912017822265625">
        <ele>429.20001220703125</ele>
        <time>2021-04-07T11:51:00.000Z</time>
      </trkpt>
      <trkpt lat="42.820065803825855255126953125" lon="-1.64624962024390697479248046875">
        <ele>429.399993896484375</ele>
        <time>2021-04-07T11:51:01.000Z</time>
      </trkpt>
      <trkpt lat="42.82006136141717433929443359375" lon="-1.646214164793491363525390625">
        <ele>429.600006103515625</ele>
        <time>2021-04-07T11:51:02.000Z</time>
      </trkpt>
      <trkpt lat="42.82005147077143192291259765625" lon="-1.6461821459233760833740234375">
        <ele>429.600006103515625</ele>
        <time>2021-04-07T11:51:03.000Z</time>
      </trkpt>
      <trkpt lat="42.8200411610305309295654296875" lon="-1.64615356363356113433837890625">
        <ele>429.79998779296875</ele>
        <time>2021-04-07T11:51:04.000Z</time>
      </trkpt>
      <trkpt lat="42.82002724707126617431640625" lon="-1.64612992666661739349365234375">
        <ele>430</ele>
        <time>2021-04-07T11:51:05.000Z</time>
      </trkpt>
      <trkpt lat="42.82001073472201824188232421875" lon="-1.646110229194164276123046875">
        <ele>430.20001220703125</ele>
        <time>2021-04-07T11:51:06.000Z</time>
      </trkpt>
      <trkpt lat="42.81999237835407257080078125" lon="-1.64609824307262897491455078125">
        <ele>430.399993896484375</ele>
        <time>2021-04-07T11:51:07.000Z</time>
      </trkpt>
      <trkpt lat="42.81997418962419033050537109375" lon="-1.6460886038839817047119140625">
        <ele>430.79998779296875</ele>
        <time>2021-04-07T11:51:08.000Z</time>
      </trkpt>
      <trkpt lat="42.8199541568756103515625" lon="-1.64608047343790531158447265625">
        <ele>430.79998779296875</ele>
        <time>2021-04-07T11:51:09.000Z</time>
      </trkpt>
      <trkpt lat="42.8199352137744426727294921875" lon="-1.64607360027730464935302734375">
        <ele>431</ele>
        <time>2021-04-07T11:51:10.000Z</time>
      </trkpt>
      <trkpt lat="42.81991266645491123199462890625" lon="-1.64606672711670398712158203125">
        <ele>431.20001220703125</ele>
        <time>2021-04-07T11:51:11.000Z</time>
      </trkpt>
      <trkpt lat="42.81989087350666522979736328125" lon="-1.64606002159416675567626953125">
        <ele>431.399993896484375</ele>
        <time>2021-04-07T11:51:12.000Z</time>
      </trkpt>
      <trkpt lat="42.8198684938251972198486328125" lon="-1.64605415426194667816162109375">
        <ele>431.600006103515625</ele>
        <time>2021-04-07T11:51:13.000Z</time>
      </trkpt>
      <trkpt lat="42.81984795816242694854736328125" lon="-1.64604610763490200042724609375">
        <ele>431.79998779296875</ele>
        <time>2021-04-07T11:51:14.000Z</time>
      </trkpt>
      <trkpt lat="42.81982951797544956207275390625" lon="-1.64604526944458484649658203125">
        <ele>432.20001220703125</ele>
        <time>2021-04-07T11:51:15.000Z</time>
      </trkpt>
      <trkpt lat="42.81980621628463268280029296875" lon="-1.64604141376912593841552734375">
        <ele>432.399993896484375</ele>
        <time>2021-04-07T11:51:16.000Z</time>
      </trkpt>
      <trkpt lat="42.8197843395173549652099609375" lon="-1.64604007266461849212646484375">
        <ele>432.79998779296875</ele>
        <time>2021-04-07T11:51:17.000Z</time>
      </trkpt>
      <trkpt lat="42.8197635523974895477294921875" lon="-1.64603588171303272247314453125">
        <ele>432.79998779296875</ele>
        <time>2021-04-07T11:51:18.000Z</time>
      </trkpt>
      <trkpt lat="42.81974293291568756103515625" lon="-1.64603236131370067596435546875">
        <ele>433</ele>
        <time>2021-04-07T11:51:19.000Z</time>
      </trkpt>
      <trkpt lat="42.8197186253964900970458984375" lon="-1.64602381177246570587158203125">
        <ele>433.20001220703125</ele>
        <time>2021-04-07T11:51:20.000Z</time>
      </trkpt>
      <trkpt lat="42.81969691626727581024169921875" lon="-1.6460166871547698974609375">
        <ele>433.399993896484375</ele>
        <time>2021-04-07T11:51:21.000Z</time>
      </trkpt>
      <trkpt lat="42.81967411749064922332763671875" lon="-1.64600520394742488861083984375">
        <ele>433.79998779296875</ele>
        <time>2021-04-07T11:51:22.000Z</time>
      </trkpt>
      <trkpt lat="42.819656766951084136962890625" lon="-1.64600587449967861175537109375">
        <ele>434</ele>
        <time>2021-04-07T11:51:23.000Z</time>
      </trkpt>
      <trkpt lat="42.81963891349732875823974609375" lon="-1.64600134827196598052978515625">
        <ele>434.20001220703125</ele>
        <time>2021-04-07T11:51:24.000Z</time>
      </trkpt>
      <trkpt lat="42.81962114386260509490966796875" lon="-1.64599464274942874908447265625">
        <ele>434.399993896484375</ele>
        <time>2021-04-07T11:51:25.000Z</time>
      </trkpt>
      <trkpt lat="42.8196068108081817626953125" lon="-1.64597821421921253204345703125">
        <ele>434.600006103515625</ele>
        <time>2021-04-07T11:51:26.000Z</time>
      </trkpt>
      <trkpt lat="42.81959800980985164642333984375" lon="-1.64596044458448886871337890625">
        <ele>435</ele>
        <time>2021-04-07T11:51:27.000Z</time>
      </trkpt>
      <trkpt lat="42.8195784799754619598388671875" lon="-1.64594535715878009796142578125">
        <ele>435</ele>
        <time>2021-04-07T11:51:28.000Z</time>
      </trkpt>
      <trkpt lat="42.8195610456168651580810546875" lon="-1.64593244902789592742919921875">
        <ele>435.20001220703125</ele>
        <time>2021-04-07T11:51:29.000Z</time>
      </trkpt>
      <trkpt lat="42.8195281885564327239990234375" lon="-1.6459283418953418731689453125">
        <ele>435.399993896484375</ele>
        <time>2021-04-07T11:51:30.000Z</time>
      </trkpt>
      <trkpt lat="42.81949751079082489013671875" lon="-1.64592607878148555755615234375">
        <ele>435.600006103515625</ele>
        <time>2021-04-07T11:51:31.000Z</time>
      </trkpt>
      <trkpt lat="42.81947177834808826446533203125" lon="-1.64592557586729526519775390625">
        <ele>435.79998779296875</ele>
        <time>2021-04-07T11:51:32.000Z</time>
      </trkpt>
      <trkpt lat="42.819446213543415069580078125" lon="-1.645919792354106903076171875">
        <ele>436</ele>
        <time>2021-04-07T11:51:33.000Z</time>
      </trkpt>
      <trkpt lat="42.8194249235093593597412109375" lon="-1.6459122486412525177001953125">
        <ele>436.20001220703125</ele>
        <time>2021-04-07T11:51:34.000Z</time>
      </trkpt>
      <trkpt lat="42.81940137036144733428955078125" lon="-1.645908057689666748046875">
        <ele>436.399993896484375</ele>
        <time>2021-04-07T11:51:35.000Z</time>
      </trkpt>
      <trkpt lat="42.81938485801219940185546875" lon="-1.64589724503457546234130859375">
        <ele>436.600006103515625</ele>
        <time>2021-04-07T11:51:36.000Z</time>
      </trkpt>
      <trkpt lat="42.81936717219650745391845703125" lon="-1.6458840854465961456298828125">
        <ele>436.79998779296875</ele>
        <time>2021-04-07T11:51:37.000Z</time>
      </trkpt>
      <trkpt lat="42.8193471394479274749755859375" lon="-1.64587545208632946014404296875">
        <ele>436.79998779296875</ele>
        <time>2021-04-07T11:51:38.000Z</time>
      </trkpt>
      <trkpt lat="42.81932878307998180389404296875" lon="-1.64586589671671390533447265625">
        <ele>437</ele>
        <time>2021-04-07T11:51:39.000Z</time>
      </trkpt>
      <trkpt lat="42.81931243836879730224609375" lon="-1.6458555869758129119873046875">
        <ele>437.20001220703125</ele>
        <time>2021-04-07T11:51:40.000Z</time>
      </trkpt>
      <trkpt lat="42.81930028460919857025146484375" lon="-1.6458465345203876495361328125">
        <ele>437.20001220703125</ele>
        <time>2021-04-07T11:51:41.000Z</time>
      </trkpt>
      <trkpt lat="42.81928536482155323028564453125" lon="-1.64583764970302581787109375">
        <ele>437.399993896484375</ele>
        <time>2021-04-07T11:51:42.000Z</time>
      </trkpt>
      <trkpt lat="42.81927488744258880615234375" lon="-1.64584091864526271820068359375">
        <ele>437.600006103515625</ele>
        <time>2021-04-07T11:51:43.000Z</time>
      </trkpt>
      <trkpt lat="42.81926390714943408966064453125" lon="-1.6458421759307384490966796875">
        <ele>437.600006103515625</ele>
        <time>2021-04-07T11:51:44.000Z</time>
      </trkpt>
      <trkpt lat="42.81925183720886707305908203125" lon="-1.64584712125360965728759765625">
        <ele>437.79998779296875</ele>
        <time>2021-04-07T11:51:45.000Z</time>
      </trkpt>
      <trkpt lat="42.8192354924976825714111328125" lon="-1.645837984979152679443359375">
        <ele>437.79998779296875</ele>
        <time>2021-04-07T11:51:46.000Z</time>
      </trkpt>
      <trkpt lat="42.81922149471938610076904296875" lon="-1.64582666940987110137939453125">
        <ele>438</ele>
        <time>2021-04-07T11:51:47.000Z</time>
      </trkpt>
      <trkpt lat="42.81920783221721649169921875" lon="-1.64581426419317722320556640625">
        <ele>438</ele>
        <time>2021-04-07T11:51:48.000Z</time>
      </trkpt>
      <trkpt lat="42.81920271925628185272216796875" lon="-1.6458036191761493682861328125">
        <ele>438</ele>
        <time>2021-04-07T11:51:49.000Z</time>
      </trkpt>
      <trkpt lat="42.81919844448566436767578125" lon="-1.645786352455615997314453125">
        <ele>438.20001220703125</ele>
        <time>2021-04-07T11:51:50.000Z</time>
      </trkpt>
      <trkpt lat="42.81918109394609928131103515625" lon="-1.64574553258717060089111328125">
        <ele>438.20001220703125</ele>
        <time>2021-04-07T11:51:51.000Z</time>
      </trkpt>
      <trkpt lat="42.8191587142646312713623046875" lon="-1.645711250603199005126953125">
        <ele>438.399993896484375</ele>
        <time>2021-04-07T11:51:52.000Z</time>
      </trkpt>
      <trkpt lat="42.81913231126964092254638671875" lon="-1.64567470550537109375">
        <ele>438.600006103515625</ele>
        <time>2021-04-07T11:51:53.000Z</time>
      </trkpt>
      <trkpt lat="42.8191037289798259735107421875" lon="-1.64563740603625774383544921875">
        <ele>438.79998779296875</ele>
        <time>2021-04-07T11:51:54.000Z</time>
      </trkpt>
      <trkpt lat="42.8190785832703113555908203125" lon="-1.645606644451618194580078125">
        <ele>439</ele>
        <time>2021-04-07T11:51:55.000Z</time>
      </trkpt>
      <trkpt lat="42.81906701624393463134765625" lon="-1.6455781459808349609375">
        <ele>439</ele>
        <time>2021-04-07T11:51:56.000Z</time>
      </trkpt>
      <trkpt lat="42.81904782168567180633544921875" lon="-1.645545624196529388427734375">
        <ele>439</ele>
        <time>2021-04-07T11:51:57.000Z</time>
      </trkpt>
      <trkpt lat="42.81902267597615718841552734375" lon="-1.64551134221255779266357421875">
        <ele>439.20001220703125</ele>
        <time>2021-04-07T11:51:58.000Z</time>
      </trkpt>
      <trkpt lat="42.81899836845695972442626953125" lon="-1.64548066444694995880126953125">
        <ele>439.600006103515625</ele>
        <time>2021-04-07T11:51:59.000Z</time>
      </trkpt>
      <trkpt lat="42.818985544145107269287109375" lon="-1.64545400999486446380615234375">
        <ele>439.79998779296875</ele>
        <time>2021-04-07T11:52:00.000Z</time>
      </trkpt>
      <trkpt lat="42.8189699538052082061767578125" lon="-1.6454266011714935302734375">
        <ele>439.79998779296875</ele>
        <time>2021-04-07T11:52:01.000Z</time>
      </trkpt>
      <trkpt lat="42.81894573010504245758056640625" lon="-1.64539500139653682708740234375">
        <ele>440</ele>
        <time>2021-04-07T11:52:02.000Z</time>
      </trkpt>
      <trkpt lat="42.8189297206699848175048828125" lon="-1.64535862393677234649658203125">
        <ele>440</ele>
        <time>2021-04-07T11:52:03.000Z</time>
      </trkpt>
      <trkpt lat="42.81890985555946826934814453125" lon="-1.645318306982517242431640625">
        <ele>440</ele>
        <time>2021-04-07T11:52:04.000Z</time>
      </trkpt>
      <trkpt lat="42.8188844583928585052490234375" lon="-1.645277403295040130615234375">
        <ele>440</ele>
        <time>2021-04-07T11:52:05.000Z</time>
      </trkpt>
      <trkpt lat="42.81886853277683258056640625" lon="-1.64524513296782970428466796875">
        <ele>439.79998779296875</ele>
        <time>2021-04-07T11:52:06.000Z</time>
      </trkpt>
      <trkpt lat="42.8188505955040454864501953125" lon="-1.6452148742973804473876953125">
        <ele>440</ele>
        <time>2021-04-07T11:52:07.000Z</time>
      </trkpt>
      <trkpt lat="42.81883559189736843109130859375" lon="-1.64519182406365871429443359375">
        <ele>439.79998779296875</ele>
        <time>2021-04-07T11:52:08.000Z</time>
      </trkpt>
      <trkpt lat="42.8188247792422771453857421875" lon="-1.64516869001090526580810546875">
        <ele>440</ele>
        <time>2021-04-07T11:52:09.000Z</time>
      </trkpt>
      <trkpt lat="42.81880273483693599700927734375" lon="-1.6451317258179187774658203125">
        <ele>440</ele>
        <time>2021-04-07T11:52:10.000Z</time>
      </trkpt>
      <trkpt lat="42.81877775676548480987548828125" lon="-1.6450891457498073577880859375">
        <ele>440.399993896484375</ele>
        <time>2021-04-07T11:52:11.000Z</time>
      </trkpt>
      <trkpt lat="42.81875361688435077667236328125" lon="-1.64505067281424999237060546875">
        <ele>440.399993896484375</ele>
        <time>2021-04-07T11:52:12.000Z</time>
      </trkpt>
      <trkpt lat="42.818723022937774658203125" lon="-1.64501530118286609649658203125">
        <ele>440.600006103515625</ele>
        <time>2021-04-07T11:52:13.000Z</time>
      </trkpt>
      <trkpt lat="42.81869997270405292510986328125" lon="-1.6449687816202640533447265625">
        <ele>440.600006103515625</ele>
        <time>2021-04-07T11:52:14.000Z</time>
      </trkpt>
      <trkpt lat="42.8186869807541370391845703125" lon="-1.64492293260991573333740234375">
        <ele>440.600006103515625</ele>
        <time>2021-04-07T11:52:15.000Z</time>
      </trkpt>
      <trkpt lat="42.81867482699453830718994140625" lon="-1.64488035254180431365966796875">
        <ele>440.600006103515625</ele>
        <time>2021-04-07T11:52:16.000Z</time>
      </trkpt>
      <trkpt lat="42.8186547942459583282470703125" lon="-1.64484322071075439453125">
        <ele>440.79998779296875</ele>
        <time>2021-04-07T11:52:17.000Z</time>
      </trkpt>
      <trkpt lat="42.81863710843026638031005859375" lon="-1.64480742998421192169189453125">
        <ele>440.79998779296875</ele>
        <time>2021-04-07T11:52:18.000Z</time>
      </trkpt>
      <trkpt lat="42.81862537376582622528076171875" lon="-1.6447733156383037567138671875">
        <ele>441</ele>
        <time>2021-04-07T11:52:19.000Z</time>
      </trkpt>
      <trkpt lat="42.81861062161624431610107421875" lon="-1.6447407938539981842041015625">
        <ele>441.20001220703125</ele>
        <time>2021-04-07T11:52:20.000Z</time>
      </trkpt>
      <trkpt lat="42.8185934387147426605224609375" lon="-1.6447112895548343658447265625">
        <ele>441.20001220703125</ele>
        <time>2021-04-07T11:52:21.000Z</time>
      </trkpt>
      <trkpt lat="42.81857575289905071258544921875" lon="-1.6446836292743682861328125">
        <ele>441.399993896484375</ele>
        <time>2021-04-07T11:52:22.000Z</time>
      </trkpt>
      <trkpt lat="42.81856678426265716552734375" lon="-1.64465655572712421417236328125">
        <ele>441.600006103515625</ele>
        <time>2021-04-07T11:52:23.000Z</time>
      </trkpt>
      <trkpt lat="42.81855479814112186431884765625" lon="-1.6446304880082607269287109375">
        <ele>442.20001220703125</ele>
        <time>2021-04-07T11:52:24.000Z</time>
      </trkpt>
      <trkpt lat="42.81854105181992053985595703125" lon="-1.64460274390876293182373046875">
        <ele>442.600006103515625</ele>
        <time>2021-04-07T11:52:25.000Z</time>
      </trkpt>
      <trkpt lat="42.8185273893177509307861328125" lon="-1.6445748321712017059326171875">
        <ele>442.79998779296875</ele>
        <time>2021-04-07T11:52:26.000Z</time>
      </trkpt>
      <trkpt lat="42.81850651837885379791259765625" lon="-1.64456435479223728179931640625">
        <ele>443</ele>
        <time>2021-04-07T11:52:27.000Z</time>
      </trkpt>
      <trkpt lat="42.81849578954279422760009765625" lon="-1.64454281330108642578125">
        <ele>443.20001220703125</ele>
        <time>2021-04-07T11:52:28.000Z</time>
      </trkpt>
      <trkpt lat="42.81850048340857028961181640625" lon="-1.644501574337482452392578125">
        <ele>443.399993896484375</ele>
        <time>2021-04-07T11:52:29.000Z</time>
      </trkpt>
      <trkpt lat="42.81851959414780139923095703125" lon="-1.6444454155862331390380859375">
        <ele>443.600006103515625</ele>
        <time>2021-04-07T11:52:30.000Z</time>
      </trkpt>
      <trkpt lat="42.81850936822593212127685546875" lon="-1.64442571811378002166748046875">
        <ele>443.79998779296875</ele>
        <time>2021-04-07T11:52:31.000Z</time>
      </trkpt>
      <trkpt lat="42.8184958733618259429931640625" lon="-1.6444122232496738433837890625">
        <ele>444.20001220703125</ele>
        <time>2021-04-07T11:52:32.000Z</time>
      </trkpt>
      <trkpt lat="42.81848154030740261077880859375" lon="-1.6443981416523456573486328125">
        <ele>444.399993896484375</ele>
        <time>2021-04-07T11:52:33.000Z</time>
      </trkpt>
      <trkpt lat="42.81846511177718639373779296875" lon="-1.64438783191144466400146484375">
        <ele>444.600006103515625</ele>
        <time>2021-04-07T11:52:34.000Z</time>
      </trkpt>
      <trkpt lat="42.81844616867601871490478515625" lon="-1.6443743370473384857177734375">
        <ele>444.79998779296875</ele>
        <time>2021-04-07T11:52:35.000Z</time>
      </trkpt>
      <trkpt lat="42.81842236407101154327392578125" lon="-1.64435707032680511474609375">
        <ele>445</ele>
        <time>2021-04-07T11:52:36.000Z</time>
      </trkpt>
      <trkpt lat="42.81840543262660503387451171875" lon="-1.644337959587574005126953125">
        <ele>445</ele>
        <time>2021-04-07T11:52:37.000Z</time>
      </trkpt>
      <trkpt lat="42.8183783590793609619140625" lon="-1.6443277336657047271728515625">
        <ele>445</ele>
        <time>2021-04-07T11:52:38.000Z</time>
      </trkpt>
      <trkpt lat="42.8184345178306102752685546875" lon="-1.64424601010978221893310546875">
        <ele>445.20001220703125</ele>
        <time>2021-04-07T11:52:39.000Z</time>
      </trkpt>
      <trkpt lat="42.8184599988162517547607421875" lon="-1.6442023403942584991455078125">
        <ele>445.399993896484375</ele>
        <time>2021-04-07T11:52:40.000Z</time>
      </trkpt>
      <trkpt lat="42.81846486032009124755859375" lon="-1.6441798768937587738037109375">
        <ele>445.399993896484375</ele>
        <time>2021-04-07T11:52:41.000Z</time>
      </trkpt>
      <trkpt lat="42.81847014091908931732177734375" lon="-1.64415062405169010162353515625">
        <ele>445.399993896484375</ele>
        <time>2021-04-07T11:52:42.000Z</time>
      </trkpt>
      <trkpt lat="42.8184549696743488311767578125" lon="-1.64411072619259357452392578125">
        <ele>445.399993896484375</ele>
        <time>2021-04-07T11:52:43.000Z</time>
      </trkpt>
      <trkpt lat="42.818442396819591522216796875" lon="-1.6440702416002750396728515625">
        <ele>445.399993896484375</ele>
        <time>2021-04-07T11:52:44.000Z</time>
      </trkpt>
      <trkpt lat="42.81842839904129505157470703125" lon="-1.6440467722713947296142578125">
        <ele>445.600006103515625</ele>
        <time>2021-04-07T11:52:45.000Z</time>
      </trkpt>
      <trkpt lat="42.8184185922145843505859375" lon="-1.64403143338859081268310546875">
        <ele>445.600006103515625</ele>
        <time>2021-04-07T11:52:46.000Z</time>
      </trkpt>
      <trkpt lat="42.81840325333178043365478515625" lon="-1.64400712586939334869384765625">
        <ele>445.600006103515625</ele>
        <time>2021-04-07T11:52:47.000Z</time>
      </trkpt>
      <trkpt lat="42.81838598661124706268310546875" lon="-1.643985919654369354248046875">
        <ele>445.600006103515625</ele>
        <time>2021-04-07T11:52:48.000Z</time>
      </trkpt>
      <trkpt lat="42.81835799105465412139892578125" lon="-1.64396404288709163665771484375">
        <ele>445.600006103515625</ele>
        <time>2021-04-07T11:52:49.000Z</time>
      </trkpt>
      <trkpt lat="42.81831541098654270172119140625" lon="-1.64392749778926372528076171875">
        <ele>446</ele>
        <time>2021-04-07T11:52:50.000Z</time>
      </trkpt>
      <trkpt lat="42.818282134830951690673828125" lon="-1.6439057886600494384765625">
        <ele>446</ele>
        <time>2021-04-07T11:52:51.000Z</time>
      </trkpt>
      <trkpt lat="42.81825271435081958770751953125" lon="-1.643889360129833221435546875">
        <ele>446.20001220703125</ele>
        <time>2021-04-07T11:52:52.000Z</time>
      </trkpt>
      <trkpt lat="42.81821868382394313812255859375" lon="-1.64386111311614513397216796875">
        <ele>446.20001220703125</ele>
        <time>2021-04-07T11:52:53.000Z</time>
      </trkpt>
      <trkpt lat="42.81820066273212432861328125" lon="-1.6438333690166473388671875">
        <ele>446.399993896484375</ele>
        <time>2021-04-07T11:52:54.000Z</time>
      </trkpt>
      <trkpt lat="42.8181857429444789886474609375" lon="-1.6438177786767482757568359375">
        <ele>446.399993896484375</ele>
        <time>2021-04-07T11:52:55.000Z</time>
      </trkpt>
      <trkpt lat="42.8181719966232776641845703125" lon="-1.64379648864269256591796875">
        <ele>446.600006103515625</ele>
        <time>2021-04-07T11:52:56.000Z</time>
      </trkpt>
      <trkpt lat="42.818160094320774078369140625" lon="-1.6437748633325099945068359375">
        <ele>446.600006103515625</ele>
        <time>2021-04-07T11:52:57.000Z</time>
      </trkpt>
      <trkpt lat="42.8181475214660167694091796875" lon="-1.64374996908009052276611328125">
        <ele>446.600006103515625</ele>
        <time>2021-04-07T11:52:58.000Z</time>
      </trkpt>
      <trkpt lat="42.81815246678888797760009765625" lon="-1.64369917474687099456787109375">
        <ele>446.600006103515625</ele>
        <time>2021-04-07T11:52:59.000Z</time>
      </trkpt>
      <trkpt lat="42.81814525835216045379638671875" lon="-1.6436638869345188140869140625">
        <ele>446.600006103515625</ele>
        <time>2021-04-07T11:53:00.000Z</time>
      </trkpt>
      <trkpt lat="42.818137966096401214599609375" lon="-1.64362373761832714080810546875">
        <ele>446.600006103515625</ele>
        <time>2021-04-07T11:53:01.000Z</time>
      </trkpt>
      <trkpt lat="42.81811625696718692779541015625" lon="-1.6435622982680797576904296875">
        <ele>446.399993896484375</ele>
        <time>2021-04-07T11:53:02.000Z</time>
      </trkpt>
      <trkpt lat="42.818101756274700164794921875" lon="-1.6435180418193340301513671875">
        <ele>446.600006103515625</ele>
        <time>2021-04-07T11:53:03.000Z</time>
      </trkpt>
      <trkpt lat="42.8180908598005771636962890625" lon="-1.643479652702808380126953125">
        <ele>446.600006103515625</ele>
        <time>2021-04-07T11:53:04.000Z</time>
      </trkpt>
      <trkpt lat="42.81807937659323215484619140625" lon="-1.64344319142401218414306640625">
        <ele>446.600006103515625</ele>
        <time>2021-04-07T11:53:05.000Z</time>
      </trkpt>
      <trkpt lat="42.81807417981326580047607421875" lon="-1.6434090770781040191650390625">
        <ele>446.79998779296875</ele>
        <time>2021-04-07T11:53:06.000Z</time>
      </trkpt>
      <trkpt lat="42.8180704079568386077880859375" lon="-1.64338267408311367034912109375">
        <ele>446.79998779296875</ele>
        <time>2021-04-07T11:53:07.000Z</time>
      </trkpt>
      <trkpt lat="42.81806915067136287689208984375" lon="-1.64335903711616992950439453125">
        <ele>447</ele>
        <time>2021-04-07T11:53:08.000Z</time>
      </trkpt>
      <trkpt lat="42.8180724196135997772216796875" lon="-1.643347553908824920654296875">
        <ele>447</ele>
        <time>2021-04-07T11:53:09.000Z</time>
      </trkpt>
      <trkpt lat="42.8180704079568386077880859375" lon="-1.6433329693973064422607421875">
        <ele>447</ele>
        <time>2021-04-07T11:53:10.000Z</time>
      </trkpt>
      <trkpt lat="42.8180751018226146697998046875" lon="-1.64332735352218151092529296875">
        <ele>447.20001220703125</ele>
        <time>2021-04-07T11:53:11.000Z</time>
      </trkpt>
      <trkpt lat="42.8180740959942340850830078125" lon="-1.6433219052851200103759765625">
        <ele>447.600006103515625</ele>
        <time>2021-04-07T11:53:12.000Z</time>
      </trkpt>
      <trkpt lat="42.818071581423282623291015625" lon="-1.6433076560497283935546875">
        <ele>447.79998779296875</ele>
        <time>2021-04-07T11:53:13.000Z</time>
      </trkpt>
      <trkpt lat="42.81807124614715576171875" lon="-1.64330505765974521636962890625">
        <ele>448</ele>
        <time>2021-04-07T11:53:14.000Z</time>
      </trkpt>
      <trkpt lat="42.81807585619390010833740234375" lon="-1.6433051414787769317626953125">
        <ele>448.20001220703125</ele>
        <time>2021-04-07T11:53:15.000Z</time>
      </trkpt>
      <trkpt lat="42.81806814484298229217529296875" lon="-1.64329265244305133819580078125">
        <ele>448.399993896484375</ele>
        <time>2021-04-07T11:53:16.000Z</time>
      </trkpt>
      <trkpt lat="42.81805490143597126007080078125" lon="-1.64327882230281829833984375">
        <ele>448.600006103515625</ele>
        <time>2021-04-07T11:53:17.000Z</time>
      </trkpt>
      <trkpt lat="42.81804216094315052032470703125" lon="-1.643265075981616973876953125">
        <ele>448.79998779296875</ele>
        <time>2021-04-07T11:53:18.000Z</time>
      </trkpt>
      <trkpt lat="42.8180291689932346343994140625" lon="-1.643252335488796234130859375">
        <ele>449</ele>
        <time>2021-04-07T11:53:19.000Z</time>
      </trkpt>
      <trkpt lat="42.81801701523363590240478515625" lon="-1.64323699660599231719970703125">
        <ele>449.20001220703125</ele>
        <time>2021-04-07T11:53:20.000Z</time>
      </trkpt>
      <trkpt lat="42.81800754368305206298828125" lon="-1.6432273574173450469970703125">
        <ele>449.399993896484375</ele>
        <time>2021-04-07T11:53:21.000Z</time>
      </trkpt>
      <trkpt lat="42.81799471937119960784912109375" lon="-1.64321905933320522308349609375">
        <ele>449.600006103515625</ele>
        <time>2021-04-07T11:53:22.000Z</time>
      </trkpt>
      <trkpt lat="42.81798415817320346832275390625" lon="-1.643211431801319122314453125">
        <ele>449.600006103515625</ele>
        <time>2021-04-07T11:53:23.000Z</time>
      </trkpt>
      <trkpt lat="42.817962951958179473876953125" lon="-1.6431985236704349517822265625">
        <ele>449.600006103515625</ele>
        <time>2021-04-07T11:53:24.000Z</time>
      </trkpt>
      <trkpt lat="42.817940823733806610107421875" lon="-1.64318569935858249664306640625">
        <ele>449.79998779296875</ele>
        <time>2021-04-07T11:53:25.000Z</time>
      </trkpt>
      <trkpt lat="42.8179331123828887939453125" lon="-1.64315418340265750885009765625">
        <ele>449.79998779296875</ele>
        <time>2021-04-07T11:53:26.000Z</time>
      </trkpt>
      <trkpt lat="42.817925401031970977783203125" lon="-1.6431277804076671600341796875">
        <ele>449.79998779296875</ele>
        <time>2021-04-07T11:53:27.000Z</time>
      </trkpt>
      <trkpt lat="42.81791090033948421478271484375" lon="-1.6430972702801227569580078125">
        <ele>450</ele>
        <time>2021-04-07T11:53:28.000Z</time>
      </trkpt>
      <trkpt lat="42.8178890235722064971923828125" lon="-1.6430976055562496185302734375">
        <ele>450</ele>
        <time>2021-04-07T11:53:29.000Z</time>
      </trkpt>
      <trkpt lat="42.817855663597583770751953125" lon="-1.64310053922235965728759765625">
        <ele>450.20001220703125</ele>
        <time>2021-04-07T11:53:30.000Z</time>
      </trkpt>
      <trkpt lat="42.81784200109541416168212890625" lon="-1.6430942527949810028076171875">
        <ele>450.399993896484375</ele>
        <time>2021-04-07T11:53:31.000Z</time>
      </trkpt>
      <trkpt lat="42.8178112395107746124267578125" lon="-1.643069945275783538818359375">
        <ele>450.600006103515625</ele>
        <time>2021-04-07T11:53:32.000Z</time>
      </trkpt>
      <trkpt lat="42.81788843683898448944091796875" lon="-1.64293742738664150238037109375">
        <ele>450.600006103515625</ele>
        <time>2021-04-07T11:53:33.000Z</time>
      </trkpt>
      <trkpt lat="42.81791031360626220703125" lon="-1.64285779930651187896728515625">
        <ele>450.600006103515625</ele>
        <time>2021-04-07T11:53:34.000Z</time>
      </trkpt>
      <trkpt lat="42.81792816706001758575439453125" lon="-1.64277565665543079376220703125">
        <ele>450.79998779296875</ele>
        <time>2021-04-07T11:53:35.000Z</time>
      </trkpt>
      <trkpt lat="42.81792431138455867767333984375" lon="-1.642746739089488983154296875">
        <ele>450.79998779296875</ele>
        <time>2021-04-07T11:53:36.000Z</time>
      </trkpt>
      <trkpt lat="42.81791232526302337646484375" lon="-1.64274347014725208282470703125">
        <ele>450.79998779296875</ele>
        <time>2021-04-07T11:53:37.000Z</time>
      </trkpt>
      <trkpt lat="42.81789581291377544403076171875" lon="-1.64274196140468120574951171875">
        <ele>450.79998779296875</ele>
        <time>2021-04-07T11:53:38.000Z</time>
      </trkpt>
      <trkpt lat="42.81789095140993595123291015625" lon="-1.64268412627279758453369140625">
        <ele>450.600006103515625</ele>
        <time>2021-04-07T11:53:39.000Z</time>
      </trkpt>
      <trkpt lat="42.81786513514816761016845703125" lon="-1.642675660550594329833984375">
        <ele>450.600006103515625</ele>
        <time>2021-04-07T11:53:40.000Z</time>
      </trkpt>
      <trkpt lat="42.81784837134182453155517578125" lon="-1.64266325533390045166015625">
        <ele>450.600006103515625</ele>
        <time>2021-04-07T11:53:41.000Z</time>
      </trkpt>
      <trkpt lat="42.8178311884403228759765625" lon="-1.64266920648515224456787109375">
        <ele>450.600006103515625</ele>
        <time>2021-04-07T11:53:42.000Z</time>
      </trkpt>
      <trkpt lat="42.817817442119121551513671875" lon="-1.642667613923549652099609375">
        <ele>450.399993896484375</ele>
        <time>2021-04-07T11:53:43.000Z</time>
      </trkpt>
      <trkpt lat="42.81781014986336231231689453125" lon="-1.64265881292521953582763671875">
        <ele>450.399993896484375</ele>
        <time>2021-04-07T11:53:44.000Z</time>
      </trkpt>
      <trkpt lat="42.81780713237822055816650390625" lon="-1.64264758117496967315673828125">
        <ele>450.600006103515625</ele>
        <time>2021-04-07T11:53:45.000Z</time>
      </trkpt>
      <trkpt lat="42.81780235469341278076171875" lon="-1.64264439605176448822021484375">
        <ele>450.79998779296875</ele>
        <time>2021-04-07T11:53:46.000Z</time>
      </trkpt>
      <trkpt lat="42.81779875047504901885986328125" lon="-1.64265495724976062774658203125">
        <ele>450.79998779296875</ele>
        <time>2021-04-07T11:53:47.000Z</time>
      </trkpt>
      <trkpt lat="42.81779254786670207977294921875" lon="-1.6426637582480907440185546875">
        <ele>451</ele>
        <time>2021-04-07T11:53:48.000Z</time>
      </trkpt>
      <trkpt lat="42.81778550706803798675537109375" lon="-1.642664931714534759521484375">
        <ele>451</ele>
        <time>2021-04-07T11:53:49.000Z</time>
      </trkpt>
      <trkpt lat="42.81778399832546710968017578125" lon="-1.64266191422939300537109375">
        <ele>451</ele>
        <time>2021-04-07T11:53:50.000Z</time>
      </trkpt>
      <trkpt lat="42.81778047792613506317138671875" lon="-1.64265613071620464324951171875">
        <ele>451</ele>
        <time>2021-04-07T11:53:51.000Z</time>
      </trkpt>
      <trkpt lat="42.817777879536151885986328125" lon="-1.642649509012699127197265625">
        <ele>451</ele>
        <time>2021-04-07T11:53:52.000Z</time>
      </trkpt>
      <trkpt lat="42.817773185670375823974609375" lon="-1.64264422841370105743408203125">
        <ele>451</ele>
        <time>2021-04-07T11:53:53.000Z</time>
      </trkpt>
      <trkpt lat="42.8177721798419952392578125" lon="-1.6426530294120311737060546875">
        <ele>451</ele>
        <time>2021-04-07T11:53:54.000Z</time>
      </trkpt>
      <trkpt lat="42.817773856222629547119140625" lon="-1.64265076629817485809326171875">
        <ele>451</ele>
        <time>2021-04-07T11:53:55.000Z</time>
      </trkpt>
      <trkpt lat="42.81777427531778812408447265625" lon="-1.64264908991754055023193359375">
        <ele>451</ele>
        <time>2021-04-07T11:53:56.000Z</time>
      </trkpt>
      <trkpt lat="42.81776907853782176971435546875" lon="-1.64263668470084667205810546875">
        <ele>451</ele>
        <time>2021-04-07T11:53:57.000Z</time>
      </trkpt>
      <trkpt lat="42.8177619539201259613037109375" lon="-1.6426258720457553863525390625">
        <ele>451</ele>
        <time>2021-04-07T11:53:58.000Z</time>
      </trkpt>
      <trkpt lat="42.817725576460361480712890625" lon="-1.64262243546545505523681640625">
        <ele>451</ele>
        <time>2021-04-07T11:53:59.000Z</time>
      </trkpt>
      <trkpt lat="42.81768433749675750732421875" lon="-1.64267532527446746826171875">
        <ele>451</ele>
        <time>2021-04-07T11:54:00.000Z</time>
      </trkpt>
      <trkpt lat="42.81766765750944614410400390625" lon="-1.64269938133656978607177734375">
        <ele>451.20001220703125</ele>
        <time>2021-04-07T11:54:01.000Z</time>
      </trkpt>
      <trkpt lat="42.8176459483802318572998046875" lon="-1.64273357950150966644287109375">
        <ele>451.20001220703125</ele>
        <time>2021-04-07T11:54:02.000Z</time>
      </trkpt>
      <trkpt lat="42.81762088648974895477294921875" lon="-1.6427613236010074615478515625">
        <ele>451.20001220703125</ele>
        <time>2021-04-07T11:54:03.000Z</time>
      </trkpt>
      <trkpt lat="42.81760697253048419952392578125" lon="-1.6427737288177013397216796875">
        <ele>451.20001220703125</ele>
        <time>2021-04-07T11:54:04.000Z</time>
      </trkpt>
      <trkpt lat="42.81759716570377349853515625" lon="-1.6427821107208728790283203125">
        <ele>451.20001220703125</ele>
        <time>2021-04-07T11:54:05.000Z</time>
      </trkpt>
      <trkpt lat="42.81758853234350681304931640625" lon="-1.64278789423406124114990234375">
        <ele>451.20001220703125</ele>
        <time>2021-04-07T11:54:06.000Z</time>
      </trkpt>
      <trkpt lat="42.81757746823132038116455078125" lon="-1.64279309101402759552001953125">
        <ele>451.20001220703125</ele>
        <time>2021-04-07T11:54:07.000Z</time>
      </trkpt>
      <trkpt lat="42.8175736963748931884765625" lon="-1.64279459975659847259521484375">
        <ele>451.20001220703125</ele>
        <time>2021-04-07T11:54:08.000Z</time>
      </trkpt>
      <trkpt lat="42.81756824813783168792724609375" lon="-1.64280516095459461212158203125">
        <ele>451.20001220703125</ele>
        <time>2021-04-07T11:54:09.000Z</time>
      </trkpt>
      <trkpt lat="42.81756229698657989501953125" lon="-1.64281303994357585906982421875">
        <ele>451.20001220703125</ele>
        <time>2021-04-07T11:54:10.000Z</time>
      </trkpt>
      <trkpt lat="42.81755684874951839447021484375" lon="-1.642823852598667144775390625">
        <ele>451.20001220703125</ele>
        <time>2021-04-07T11:54:11.000Z</time>
      </trkpt>
      <trkpt lat="42.81755718402564525604248046875" lon="-1.642839945852756500244140625">
        <ele>451.399993896484375</ele>
        <time>2021-04-07T11:54:12.000Z</time>
      </trkpt>
      <trkpt lat="42.81755626201629638671875" lon="-1.64284765720367431640625">
        <ele>451.399993896484375</ele>
        <time>2021-04-07T11:54:13.000Z</time>
      </trkpt>
      <trkpt lat="42.81755433417856693267822265625" lon="-1.6428484953939914703369140625">
        <ele>451.399993896484375</ele>
        <time>2021-04-07T11:54:14.000Z</time>
      </trkpt>
      <trkpt lat="42.81755290925502777099609375" lon="-1.64284992031753063201904296875">
        <ele>451.399993896484375</ele>
        <time>2021-04-07T11:54:15.000Z</time>
      </trkpt>
      <trkpt lat="42.8175514005124568939208984375" lon="-1.64284891448915004730224609375">
        <ele>451.399993896484375</ele>
        <time>2021-04-07T11:54:16.000Z</time>
      </trkpt>
      <trkpt lat="42.81754863448441028594970703125" lon="-1.64285595528781414031982421875">
        <ele>451.399993896484375</ele>
        <time>2021-04-07T11:54:17.000Z</time>
      </trkpt>
      <trkpt lat="42.81754528172314167022705078125" lon="-1.64286064915359020233154296875">
        <ele>451.399993896484375</ele>
        <time>2021-04-07T11:54:18.000Z</time>
      </trkpt>
      <trkpt lat="42.81754226423799991607666015625" lon="-1.64287255145609378814697265625">
        <ele>451.399993896484375</ele>
        <time>2021-04-07T11:54:19.000Z</time>
      </trkpt>
      <trkpt lat="42.81754226423799991607666015625" lon="-1.64288260973989963531494140625">
        <ele>451.399993896484375</ele>
        <time>2021-04-07T11:54:20.000Z</time>
      </trkpt>
      <trkpt lat="42.81754310242831707000732421875" lon="-1.6428887285292148590087890625">
        <ele>451.399993896484375</ele>
        <time>2021-04-07T11:54:21.000Z</time>
      </trkpt>
      <trkpt lat="42.81754176132380962371826171875" lon="-1.6429024748504161834716796875">
        <ele>451.399993896484375</ele>
        <time>2021-04-07T11:54:22.000Z</time>
      </trkpt>
      <trkpt lat="42.81754042021930217742919921875" lon="-1.64290892891585826873779296875">
        <ele>451.600006103515625</ele>
        <time>2021-04-07T11:54:23.000Z</time>
      </trkpt>
      <trkpt lat="42.8175383247435092926025390625" lon="-1.64291446097195148468017578125">
        <ele>451.600006103515625</ele>
        <time>2021-04-07T11:54:24.000Z</time>
      </trkpt>
      <trkpt lat="42.81753421761095523834228515625" lon="-1.64291982538998126983642578125">
        <ele>451.600006103515625</ele>
        <time>2021-04-07T11:54:25.000Z</time>
      </trkpt>
      <trkpt lat="42.8175280988216400146484375" lon="-1.64292745292186737060546875">
        <ele>451.600006103515625</ele>
        <time>2021-04-07T11:54:26.000Z</time>
      </trkpt>
      <trkpt lat="42.81752281822264194488525390625" lon="-1.64293491281569004058837890625">
        <ele>451.600006103515625</ele>
        <time>2021-04-07T11:54:27.000Z</time>
      </trkpt>
      <trkpt lat="42.81751829199492931365966796875" lon="-1.64293692447245121002197265625">
        <ele>451.600006103515625</ele>
        <time>2021-04-07T11:54:28.000Z</time>
      </trkpt>
      <trkpt lat="42.8175125084817409515380859375" lon="-1.6429396905004978179931640625">
        <ele>451.600006103515625</ele>
        <time>2021-04-07T11:54:29.000Z</time>
      </trkpt>
      <trkpt lat="42.81751242466270923614501953125" lon="-1.64294279180467128753662109375">
        <ele>451.600006103515625</ele>
        <time>2021-04-07T11:54:30.000Z</time>
      </trkpt>
      <trkpt lat="42.817510329186916351318359375" lon="-1.6429460607469081878662109375">
        <ele>451.399993896484375</ele>
        <time>2021-04-07T11:54:31.000Z</time>
      </trkpt>
      <trkpt lat="42.81751426868140697479248046875" lon="-1.64294782094657421112060546875">
        <ele>451.399993896484375</ele>
        <time>2021-04-07T11:54:32.000Z</time>
      </trkpt>
      <trkpt lat="42.81751401722431182861328125" lon="-1.6429507546126842498779296875">
        <ele>451.399993896484375</ele>
        <time>2021-04-07T11:54:33.000Z</time>
      </trkpt>
      <trkpt lat="42.8175141848623752593994140625" lon="-1.6429517604410648345947265625">
        <ele>451.399993896484375</ele>
        <time>2021-04-07T11:54:34.000Z</time>
      </trkpt>
      <trkpt lat="42.8175148554146289825439453125" lon="-1.642946563661098480224609375">
        <ele>451.600006103515625</ele>
        <time>2021-04-07T11:54:35.000Z</time>
      </trkpt>
      <trkpt lat="42.8175158612430095672607421875" lon="-1.6429455578327178955078125">
        <ele>451.79998779296875</ele>
        <time>2021-04-07T11:54:36.000Z</time>
      </trkpt>
      <trkpt lat="42.817519046366214752197265625" lon="-1.6429393552243709564208984375">
        <ele>451.79998779296875</ele>
        <time>2021-04-07T11:54:37.000Z</time>
      </trkpt>
      <trkpt lat="42.8175222314894199371337890625" lon="-1.6429333202540874481201171875">
        <ele>452</ele>
        <time>2021-04-07T11:54:38.000Z</time>
      </trkpt>
      <trkpt lat="42.8175245784223079681396484375" lon="-1.64292787201702594757080078125">
        <ele>452</ele>
        <time>2021-04-07T11:54:39.000Z</time>
      </trkpt>
      <trkpt lat="42.8175239078700542449951171875" lon="-1.64292502216994762420654296875">
        <ele>452.20001220703125</ele>
        <time>2021-04-07T11:54:40.000Z</time>
      </trkpt>
      <trkpt lat="42.81752097420394420623779296875" lon="-1.642923094332218170166015625">
        <ele>452.20001220703125</ele>
        <time>2021-04-07T11:54:41.000Z</time>
      </trkpt>
      <trkpt lat="42.81751695089042186737060546875" lon="-1.6429202444851398468017578125">
        <ele>452.20001220703125</ele>
        <time>2021-04-07T11:54:42.000Z</time>
      </trkpt>
      <trkpt lat="42.817513681948184967041015625" lon="-1.64292083121836185455322265625">
        <ele>452.20001220703125</ele>
        <time>2021-04-07T11:54:43.000Z</time>
      </trkpt>
      <trkpt lat="42.81751175411045551300048828125" lon="-1.6429195739328861236572265625">
        <ele>452.20001220703125</ele>
        <time>2021-04-07T11:54:44.000Z</time>
      </trkpt>
      <trkpt lat="42.81751594506204128265380859375" lon="-1.6429259441792964935302734375">
        <ele>452.20001220703125</ele>
        <time>2021-04-07T11:54:45.000Z</time>
      </trkpt>
      <trkpt lat="42.8175128437578678131103515625" lon="-1.64292518980801105499267578125">
        <ele>452.20001220703125</ele>
        <time>2021-04-07T11:54:46.000Z</time>
      </trkpt>
      <trkpt lat="42.817510999739170074462890625" lon="-1.6429256089031696319580078125">
        <ele>452.399993896484375</ele>
        <time>2021-04-07T11:54:47.000Z</time>
      </trkpt>
      <trkpt lat="42.81750823371112346649169921875" lon="-1.642920412123203277587890625">
        <ele>452.20001220703125</ele>
        <time>2021-04-07T11:54:48.000Z</time>
      </trkpt>
      <trkpt lat="42.81750789843499660491943359375" lon="-1.64291764609515666961669921875">
        <ele>452.20001220703125</ele>
        <time>2021-04-07T11:54:49.000Z</time>
      </trkpt>
      <trkpt lat="42.81750806607306003570556640625" lon="-1.64291781373322010040283203125">
        <ele>452.20001220703125</ele>
        <time>2021-04-07T11:54:50.000Z</time>
      </trkpt>
      <trkpt lat="42.81750622205436229705810546875" lon="-1.64291831664741039276123046875">
        <ele>452.20001220703125</ele>
        <time>2021-04-07T11:54:51.000Z</time>
      </trkpt>
      <trkpt lat="42.8175041265785694122314453125" lon="-1.642920076847076416015625">
        <ele>452.20001220703125</ele>
        <time>2021-04-07T11:54:52.000Z</time>
      </trkpt>
      <trkpt lat="42.8175012767314910888671875" lon="-1.64292200468480587005615234375">
        <ele>452.20001220703125</ele>
        <time>2021-04-07T11:54:53.000Z</time>
      </trkpt>
      <trkpt lat="42.8174997679889202117919921875" lon="-1.64292518980801105499267578125">
        <ele>452.20001220703125</ele>
        <time>2021-04-07T11:54:54.000Z</time>
      </trkpt>
      <trkpt lat="42.81749649904668331146240234375" lon="-1.642926447093486785888671875">
        <ele>452.20001220703125</ele>
        <time>2021-04-07T11:54:55.000Z</time>
      </trkpt>
      <trkpt lat="42.81749314628541469573974609375" lon="-1.6429286263883113861083984375">
        <ele>452.20001220703125</ele>
        <time>2021-04-07T11:54:56.000Z</time>
      </trkpt>
      <trkpt lat="42.81750865280628204345703125" lon="-1.64294899441301822662353515625">
        <ele>452.20001220703125</ele>
        <time>2021-04-07T11:54:57.000Z</time>
      </trkpt>
      <trkpt lat="42.8173810802400112152099609375" lon="-1.64326063357293605804443359375">
        <ele>451.600006103515625</ele>
        <time>2021-04-07T11:55:21.000Z</time>
      </trkpt>
      <trkpt lat="42.81745643354952335357666015625" lon="-1.64354427717626094818115234375">
        <ele>451.79998779296875</ele>
        <time>2021-04-07T11:57:36.000Z</time>
      </trkpt>
      <trkpt lat="42.8174927271902561187744140625" lon="-1.643531285226345062255859375">
        <ele>451.79998779296875</ele>
        <time>2021-04-07T11:57:37.000Z</time>
      </trkpt>
      <trkpt lat="42.81748585402965545654296875" lon="-1.6434794850647449493408203125">
        <ele>452</ele>
        <time>2021-04-07T11:57:38.000Z</time>
      </trkpt>
      <trkpt lat="42.8174773044884204864501953125" lon="-1.64344302378594875335693359375">
        <ele>452</ele>
        <time>2021-04-07T11:57:39.000Z</time>
      </trkpt>
      <trkpt lat="42.817463390529155731201171875" lon="-1.64350253529846668243408203125">
        <ele>452</ele>
        <time>2021-04-07T11:57:40.000Z</time>
      </trkpt>
      <trkpt lat="42.81745291315019130706787109375" lon="-1.6435270942747592926025390625">
        <ele>452</ele>
        <time>2021-04-07T11:57:41.000Z</time>
      </trkpt>
      <trkpt lat="42.81744201667606830596923828125" lon="-1.643535979092121124267578125">
        <ele>451.79998779296875</ele>
        <time>2021-04-07T11:57:42.000Z</time>
      </trkpt>
      <trkpt lat="42.81742542050778865814208984375" lon="-1.6435354761779308319091796875">
        <ele>451.79998779296875</ele>
        <time>2021-04-07T11:57:43.000Z</time>
      </trkpt>
      <trkpt lat="42.81740832142531871795654296875" lon="-1.64352667517960071563720703125">
        <ele>451.79998779296875</ele>
        <time>2021-04-07T11:57:44.000Z</time>
      </trkpt>
      <trkpt lat="42.8173847682774066925048828125" lon="-1.643513180315494537353515625">
        <ele>452.20001220703125</ele>
        <time>2021-04-07T11:57:45.000Z</time>
      </trkpt>
      <trkpt lat="42.81736825592815876007080078125" lon="-1.6435063071548938751220703125">
        <ele>451.20001220703125</ele>
        <time>2021-04-07T11:57:46.000Z</time>
      </trkpt>
      <trkpt lat="42.8173482231795787811279296875" lon="-1.6434954106807708740234375">
        <ele>451.20001220703125</ele>
        <time>2021-04-07T11:57:47.000Z</time>
      </trkpt>
      <trkpt lat="42.8173237480223178863525390625" lon="-1.64347864687442779541015625">
        <ele>450.79998779296875</ele>
        <time>2021-04-07T11:57:48.000Z</time>
      </trkpt>
      <trkpt lat="42.81730840913951396942138671875" lon="-1.64347202517092227935791015625">
        <ele>451</ele>
        <time>2021-04-07T11:57:49.000Z</time>
      </trkpt>
      <trkpt lat="42.8172902204096317291259765625" lon="-1.64346716366708278656005859375">
        <ele>451</ele>
        <time>2021-04-07T11:57:50.000Z</time>
      </trkpt>
      <trkpt lat="42.817289046943187713623046875" lon="-1.64348040707409381866455078125">
        <ele>451</ele>
        <time>2021-04-07T11:57:51.000Z</time>
      </trkpt>
      <trkpt lat="42.81730656512081623077392578125" lon="-1.643489040434360504150390625">
        <ele>450.79998779296875</ele>
        <time>2021-04-07T11:57:52.000Z</time>
      </trkpt>
      <trkpt lat="42.81732316128909587860107421875" lon="-1.643493734300136566162109375">
        <ele>450.79998779296875</ele>
        <time>2021-04-07T11:57:53.000Z</time>
      </trkpt>
      <trkpt lat="42.81732919625937938690185546875" lon="-1.6435083188116550445556640625">
        <ele>451.20001220703125</ele>
        <time>2021-04-07T11:57:54.000Z</time>
      </trkpt>
      <trkpt lat="42.81733590178191661834716796875" lon="-1.64352164603769779205322265625">
        <ele>451.20001220703125</ele>
        <time>2021-04-07T11:57:55.000Z</time>
      </trkpt>
      <trkpt lat="42.8173438645899295806884765625" lon="-1.64353438653051853179931640625">
        <ele>451.20001220703125</ele>
        <time>2021-04-07T11:57:56.000Z</time>
      </trkpt>
      <trkpt lat="42.81735233031213283538818359375" lon="-1.64355752058327198028564453125">
        <ele>451.20001220703125</ele>
        <time>2021-04-07T11:57:57.000Z</time>
      </trkpt>
      <trkpt lat="42.817365489900112152099609375" lon="-1.64357679896056652069091796875">
        <ele>451.20001220703125</ele>
        <time>2021-04-07T11:57:58.000Z</time>
      </trkpt>
      <trkpt lat="42.81738066114485263824462890625" lon="-1.6435907967388629913330078125">
        <ele>451.20001220703125</ele>
        <time>2021-04-07T11:57:59.000Z</time>
      </trkpt>
      <trkpt lat="42.8174018673598766326904296875" lon="-1.64360412396490573883056640625">
        <ele>451.20001220703125</ele>
        <time>2021-04-07T11:58:00.000Z</time>
      </trkpt>
      <trkpt lat="42.81741653569042682647705078125" lon="-1.64361200295388698577880859375">
        <ele>451.20001220703125</ele>
        <time>2021-04-07T11:58:01.000Z</time>
      </trkpt>
      <trkpt lat="42.81742542050778865814208984375" lon="-1.643618457019329071044921875">
        <ele>451.20001220703125</ele>
        <time>2021-04-07T11:58:02.000Z</time>
      </trkpt>
      <trkpt lat="42.81742391176521778106689453125" lon="-1.64362256415188312530517578125">
        <ele>451.20001220703125</ele>
        <time>2021-04-07T11:58:03.000Z</time>
      </trkpt>
      <trkpt lat="42.817394323647022247314453125" lon="-1.64362407289445400238037109375">
        <ele>451.20001220703125</ele>
        <time>2021-04-07T11:58:04.000Z</time>
      </trkpt>
      <trkpt lat="42.8173807449638843536376953125" lon="-1.64362675510346889495849609375">
        <ele>451</ele>
        <time>2021-04-07T11:58:05.000Z</time>
      </trkpt>
      <trkpt lat="42.8173639811575412750244140625" lon="-1.64362189359962940216064453125">
        <ele>450.79998779296875</ele>
        <time>2021-04-07T11:58:06.000Z</time>
      </trkpt>
      <trkpt lat="42.8173242509365081787109375" lon="-1.64359892718493938446044921875">
        <ele>450.79998779296875</ele>
        <time>2021-04-07T11:58:07.000Z</time>
      </trkpt>
      <trkpt lat="42.81729935668408870697021484375" lon="-1.64358132518827915191650390625">
        <ele>450.600006103515625</ele>
        <time>2021-04-07T11:58:08.000Z</time>
      </trkpt>
      <trkpt lat="42.81727856956422328948974609375" lon="-1.64357478730380535125732421875">
        <ele>450.600006103515625</ele>
        <time>2021-04-07T11:58:09.000Z</time>
      </trkpt>
      <trkpt lat="42.81728913076221942901611328125" lon="-1.64357830770313739776611328125">
        <ele>450.600006103515625</ele>
        <time>2021-04-07T11:58:10.000Z</time>
      </trkpt>
      <trkpt lat="42.81729868613183498382568359375" lon="-1.64357881061732769012451171875">
        <ele>450.600006103515625</ele>
        <time>2021-04-07T11:58:11.000Z</time>
      </trkpt>
      <trkpt lat="42.8173056431114673614501953125" lon="-1.64357679896056652069091796875">
        <ele>450.79998779296875</ele>
        <time>2021-04-07T11:58:12.000Z</time>
      </trkpt>
      <trkpt lat="42.81730958260595798492431640625" lon="-1.6435747034847736358642578125">
        <ele>450.79998779296875</ele>
        <time>2021-04-07T11:58:13.000Z</time>
      </trkpt>
      <trkpt lat="42.81725593842566013336181640625" lon="-1.6435415111482143402099609375">
        <ele>450.79998779296875</ele>
        <time>2021-04-07T11:58:14.000Z</time>
      </trkpt>
      <trkpt lat="42.81724906526505947113037109375" lon="-1.64353497326374053955078125">
        <ele>451</ele>
        <time>2021-04-07T11:58:15.000Z</time>
      </trkpt>
      <trkpt lat="42.81724655069410800933837890625" lon="-1.64352902211248874664306640625">
        <ele>451</ele>
        <time>2021-04-07T11:58:16.000Z</time>
      </trkpt>
      <trkpt lat="42.817250825464725494384765625" lon="-1.64353103376924991607666015625">
        <ele>451</ele>
        <time>2021-04-07T11:58:17.000Z</time>
      </trkpt>
      <trkpt lat="42.8172536753118038177490234375" lon="-1.6435103304684162139892578125">
        <ele>451</ele>
        <time>2021-04-07T11:58:18.000Z</time>
      </trkpt>
      <trkpt lat="42.817250825464725494384765625" lon="-1.64351443760097026824951171875">
        <ele>451</ele>
        <time>2021-04-07T11:58:19.000Z</time>
      </trkpt>
      <trkpt lat="42.81725828535854816436767578125" lon="-1.6435307823121547698974609375">
        <ele>451</ele>
        <time>2021-04-07T11:58:20.000Z</time>
      </trkpt>
      <trkpt lat="42.8172734566032886505126953125" lon="-1.6435488872230052947998046875">
        <ele>450.79998779296875</ele>
        <time>2021-04-07T11:58:21.000Z</time>
      </trkpt>
      <trkpt lat="42.81729399226605892181396484375" lon="-1.6435663215816020965576171875">
        <ele>450.79998779296875</ele>
        <time>2021-04-07T11:58:22.000Z</time>
      </trkpt>
      <trkpt lat="42.8172898851335048675537109375" lon="-1.64356640540063381195068359375">
        <ele>451</ele>
        <time>2021-04-07T11:58:23.000Z</time>
      </trkpt>
      <trkpt lat="42.8172942437231540679931640625" lon="-1.64357344619929790496826171875">
        <ele>451</ele>
        <time>2021-04-07T11:58:24.000Z</time>
      </trkpt>
      <trkpt lat="42.8172982670366764068603515625" lon="-1.64357076399028301239013671875">
        <ele>451</ele>
        <time>2021-04-07T11:58:25.000Z</time>
      </trkpt>
      <trkpt lat="42.81730036251246929168701171875" lon="-1.64358367212116718292236328125">
        <ele>451</ele>
        <time>2021-04-07T11:58:26.000Z</time>
      </trkpt>
      <trkpt lat="42.81730505637824535369873046875" lon="-1.6435981728136539459228515625">
        <ele>451</ele>
        <time>2021-04-07T11:58:27.000Z</time>
      </trkpt>
      <trkpt lat="42.81731016933917999267578125" lon="-1.6436062194406986236572265625">
        <ele>451.79998779296875</ele>
        <time>2021-04-07T11:58:28.000Z</time>
      </trkpt>
      <trkpt lat="42.817301452159881591796875" lon="-1.64360739290714263916015625">
        <ele>452.20001220703125</ele>
        <time>2021-04-07T11:58:29.000Z</time>
      </trkpt>
      <trkpt lat="42.81730757094919681549072265625" lon="-1.64361284114420413970947265625">
        <ele>451.79998779296875</ele>
        <time>2021-04-07T11:58:30.000Z</time>
      </trkpt>
      <trkpt lat="42.8173002786934375762939453125" lon="-1.6436089016497135162353515625">
        <ele>452.20001220703125</ele>
        <time>2021-04-07T11:58:31.000Z</time>
      </trkpt>
      <trkpt lat="42.81728200614452362060546875" lon="-1.64360144175589084625244140625">
        <ele>452.600006103515625</ele>
        <time>2021-04-07T11:58:32.000Z</time>
      </trkpt>
      <trkpt lat="42.8172788210213184356689453125" lon="-1.64359976537525653839111328125">
        <ele>452.20001220703125</ele>
        <time>2021-04-07T11:58:33.000Z</time>
      </trkpt>
      <trkpt lat="42.81727932393550872802734375" lon="-1.64361334405839443206787109375">
        <ele>452.20001220703125</ele>
        <time>2021-04-07T11:58:34.000Z</time>
      </trkpt>
      <trkpt lat="42.81730254180729389190673828125" lon="-1.643635220825672149658203125">
        <ele>452</ele>
        <time>2021-04-07T11:58:35.000Z</time>
      </trkpt>
      <trkpt lat="42.817319221794605255126953125" lon="-1.6436555050313472747802734375">
        <ele>451.79998779296875</ele>
        <time>2021-04-07T11:58:36.000Z</time>
      </trkpt>
      <trkpt lat="42.81732986681163311004638671875" lon="-1.64366313256323337554931640625">
        <ele>451.79998779296875</ele>
        <time>2021-04-07T11:58:37.000Z</time>
      </trkpt>
      <trkpt lat="42.8173783980309963226318359375" lon="-1.6436893679201602935791015625">
        <ele>451.79998779296875</ele>
        <time>2021-04-07T11:58:38.000Z</time>
      </trkpt>
      <trkpt lat="42.81741787679493427276611328125" lon="-1.643706969916820526123046875">
        <ele>451.79998779296875</ele>
        <time>2021-04-07T11:58:39.000Z</time>
      </trkpt>
      <trkpt lat="42.8174591995775699615478515625" lon="-1.64372733794152736663818359375">
        <ele>451.79998779296875</ele>
        <time>2021-04-07T11:58:40.000Z</time>
      </trkpt>
      <trkpt lat="42.81748845241963863372802734375" lon="-1.6437396593391895294189453125">
        <ele>451.79998779296875</ele>
        <time>2021-04-07T11:58:41.000Z</time>
      </trkpt>
      <trkpt lat="42.81747604720294475555419921875" lon="-1.64373236708343029022216796875">
        <ele>451.600006103515625</ele>
        <time>2021-04-07T11:58:42.000Z</time>
      </trkpt>
      <trkpt lat="42.8174625523388385772705078125" lon="-1.643717698752880096435546875">
        <ele>451.600006103515625</ele>
        <time>2021-04-07T11:58:43.000Z</time>
      </trkpt>
      <trkpt lat="42.8174602054059505462646484375" lon="-1.64371694438159465789794921875">
        <ele>451.399993896484375</ele>
        <time>2021-04-07T11:58:44.000Z</time>
      </trkpt>
      <trkpt lat="42.817457020282745361328125" lon="-1.64371334016323089599609375">
        <ele>451.399993896484375</ele>
        <time>2021-04-07T11:58:45.000Z</time>
      </trkpt>
      <trkpt lat="42.81745794229209423065185546875" lon="-1.64370018057525157928466796875">
        <ele>451.20001220703125</ele>
        <time>2021-04-07T11:58:46.000Z</time>
      </trkpt>
      <trkpt lat="42.81745827756822109222412109375" lon="-1.6436964087188243865966796875">
        <ele>451.20001220703125</ele>
        <time>2021-04-07T11:58:47.000Z</time>
      </trkpt>
      <trkpt lat="42.81745634973049163818359375" lon="-1.643706969916820526123046875">
        <ele>451.20001220703125</ele>
        <time>2021-04-07T11:58:48.000Z</time>
      </trkpt>
      <trkpt lat="42.81745257787406444549560546875" lon="-1.643725074827671051025390625">
        <ele>451.20001220703125</ele>
        <time>2021-04-07T11:58:49.000Z</time>
      </trkpt>
      <trkpt lat="42.81744989566504955291748046875" lon="-1.64373773150146007537841796875">
        <ele>451.20001220703125</ele>
        <time>2021-04-07T11:58:50.000Z</time>
      </trkpt>
      <trkpt lat="42.8174464590847492218017578125" lon="-1.64373605512082576751708984375">
        <ele>451.20001220703125</ele>
        <time>2021-04-07T11:58:51.000Z</time>
      </trkpt>
      <trkpt lat="42.81744218431413173675537109375" lon="-1.6437353007495403289794921875">
        <ele>451.399993896484375</ele>
        <time>2021-04-07T11:58:52.000Z</time>
      </trkpt>
      <trkpt lat="42.81744168139994144439697265625" lon="-1.64373639039695262908935546875">
        <ele>451.399993896484375</ele>
        <time>2021-04-07T11:58:53.000Z</time>
      </trkpt>
      <trkpt lat="42.81743899919092655181884765625" lon="-1.643741168081760406494140625">
        <ele>451.399993896484375</ele>
        <time>2021-04-07T11:58:54.000Z</time>
      </trkpt>
      <trkpt lat="42.81743648461997509002685546875" lon="-1.64374829269945621490478515625">
        <ele>451.600006103515625</ele>
        <time>2021-04-07T11:58:55.000Z</time>
      </trkpt>
      <trkpt lat="42.8174263425171375274658203125" lon="-1.6437591053545475006103515625">
        <ele>451.600006103515625</ele>
        <time>2021-04-07T11:58:56.000Z</time>
      </trkpt>
      <trkpt lat="42.8174146078526973724365234375" lon="-1.64376237429678440093994140625">
        <ele>451.600006103515625</ele>
        <time>2021-04-07T11:58:57.000Z</time>
      </trkpt>
      <trkpt lat="42.81740362755954265594482421875" lon="-1.64376555941998958587646484375">
        <ele>451.600006103515625</ele>
        <time>2021-04-07T11:58:58.000Z</time>
      </trkpt>
      <trkpt lat="42.8174092434346675872802734375" lon="-1.6437689960002899169921875">
        <ele>451.600006103515625</ele>
        <time>2021-04-07T11:58:59.000Z</time>
      </trkpt>
      <trkpt lat="42.81740044243633747100830078125" lon="-1.64376639761030673980712890625">
        <ele>451.600006103515625</ele>
        <time>2021-04-07T11:59:00.000Z</time>
      </trkpt>
      <trkpt lat="42.81739977188408374786376953125" lon="-1.64376706816256046295166015625">
        <ele>451.600006103515625</ele>
        <time>2021-04-07T11:59:01.000Z</time>
      </trkpt>
      <trkpt lat="42.817399688065052032470703125" lon="-1.64375566877424716949462890625">
        <ele>451.600006103515625</ele>
        <time>2021-04-07T11:59:02.000Z</time>
      </trkpt>
      <trkpt lat="42.8174072317779064178466796875" lon="-1.64374225772917270660400390625">
        <ele>451.600006103515625</ele>
        <time>2021-04-07T11:59:03.000Z</time>
      </trkpt>
      <trkpt lat="42.8174266777932643890380859375" lon="-1.64373354054987430572509765625">
        <ele>451.600006103515625</ele>
        <time>2021-04-07T11:59:04.000Z</time>
      </trkpt>
      <trkpt lat="42.8174260072410106658935546875" lon="-1.64371560327708721160888671875">
        <ele>451.600006103515625</ele>
        <time>2021-04-07T11:59:05.000Z</time>
      </trkpt>
      <trkpt lat="42.81742022372782230377197265625" lon="-1.643693558871746063232421875">
        <ele>451.600006103515625</ele>
        <time>2021-04-07T11:59:06.000Z</time>
      </trkpt>
      <trkpt lat="42.81742558814585208892822265625" lon="-1.6436885297298431396484375">
        <ele>451.600006103515625</ele>
        <time>2021-04-07T11:59:07.000Z</time>
      </trkpt>
      <trkpt lat="42.81741268001496791839599609375" lon="-1.64367981255054473876953125">
        <ele>451.600006103515625</ele>
        <time>2021-04-07T11:59:08.000Z</time>
      </trkpt>
      <trkpt lat="42.817409075796604156494140625" lon="-1.643676124513149261474609375">
        <ele>451.600006103515625</ele>
        <time>2021-04-07T11:59:09.000Z</time>
      </trkpt>
      <trkpt lat="42.8173954971134662628173828125" lon="-1.64366380311548709869384765625">
        <ele>451.600006103515625</ele>
        <time>2021-04-07T11:59:10.000Z</time>
      </trkpt>
      <trkpt lat="42.81738258898258209228515625" lon="-1.6436518169939517974853515625">
        <ele>451.600006103515625</ele>
        <time>2021-04-07T11:59:11.000Z</time>
      </trkpt>
      <trkpt lat="42.81736171804368495941162109375" lon="-1.643634550273418426513671875">
        <ele>451.79998779296875</ele>
        <time>2021-04-07T11:59:12.000Z</time>
      </trkpt>
      <trkpt lat="42.8173311240971088409423828125" lon="-1.643611751496791839599609375">
        <ele>451.79998779296875</ele>
        <time>2021-04-07T11:59:13.000Z</time>
      </trkpt>
      <trkpt lat="42.817307151854038238525390625" lon="-1.64359507150948047637939453125">
        <ele>451.79998779296875</ele>
        <time>2021-04-07T11:59:14.000Z</time>
      </trkpt>
      <trkpt lat="42.81730748713016510009765625" lon="-1.64359121583402156829833984375">
        <ele>451.79998779296875</ele>
        <time>2021-04-07T11:59:15.000Z</time>
      </trkpt>
      <trkpt lat="42.81730941496789455413818359375" lon="-1.64358953945338726043701171875">
        <ele>451.79998779296875</ele>
        <time>2021-04-07T11:59:16.000Z</time>
      </trkpt>
      <trkpt lat="42.81730740331113338470458984375" lon="-1.6435874439775943756103515625">
        <ele>451.79998779296875</ele>
        <time>2021-04-07T11:59:17.000Z</time>
      </trkpt>
      <trkpt lat="42.8172759711742401123046875" lon="-1.6435683332383632659912109375">
        <ele>452</ele>
        <time>2021-04-07T11:59:18.000Z</time>
      </trkpt>
      <trkpt lat="42.81725560314953327178955078125" lon="-1.64355601184070110321044921875">
        <ele>452</ele>
        <time>2021-04-07T11:59:19.000Z</time>
      </trkpt>
      <trkpt lat="42.81724118627607822418212890625" lon="-1.6435441933572292327880859375">
        <ele>452</ele>
        <time>2021-04-07T11:59:20.000Z</time>
      </trkpt>
      <trkpt lat="42.81723246909677982330322265625" lon="-1.643534637987613677978515625">
        <ele>452</ele>
        <time>2021-04-07T11:59:21.000Z</time>
      </trkpt>
      <trkpt lat="42.81722408719360828399658203125" lon="-1.64352550171315670013427734375">
        <ele>452</ele>
        <time>2021-04-07T11:59:22.000Z</time>
      </trkpt>
      <trkpt lat="42.817222662270069122314453125" lon="-1.643517874181270599365234375">
        <ele>452</ele>
        <time>2021-04-07T11:59:23.000Z</time>
      </trkpt>
      <trkpt lat="42.8172224946320056915283203125" lon="-1.64350555278360843658447265625">
        <ele>452</ele>
        <time>2021-04-07T11:59:24.000Z</time>
      </trkpt>
      <trkpt lat="42.81721570529043674468994140625" lon="-1.64348744787275791168212890625">
        <ele>452</ele>
        <time>2021-04-07T11:59:25.000Z</time>
      </trkpt>
      <trkpt lat="42.8172576986253261566162109375" lon="-1.6434925608336925506591796875">
        <ele>451.79998779296875</ele>
        <time>2021-04-07T11:59:26.000Z</time>
      </trkpt>
      <trkpt lat="42.817277647554874420166015625" lon="-1.6434928961098194122314453125">
        <ele>451.79998779296875</ele>
        <time>2021-04-07T11:59:27.000Z</time>
      </trkpt>
      <trkpt lat="42.81734847463667392730712890625" lon="-1.64350722916424274444580078125">
        <ele>451.79998779296875</ele>
        <time>2021-04-07T11:59:28.000Z</time>
      </trkpt>
      <trkpt lat="42.8173569403588771820068359375" lon="-1.643513180315494537353515625">
        <ele>451.79998779296875</ele>
        <time>2021-04-07T11:59:29.000Z</time>
      </trkpt>
      <trkpt lat="42.81740664504468441009521484375" lon="-1.64353899657726287841796875">
        <ele>452</ele>
        <time>2021-04-07T11:59:30.000Z</time>
      </trkpt>
      <trkpt lat="42.81742793507874011993408203125" lon="-1.6435571014881134033203125">
        <ele>452</ele>
        <time>2021-04-07T11:59:31.000Z</time>
      </trkpt>
      <trkpt lat="42.81745961867272853851318359375" lon="-1.643590629100799560546875">
        <ele>452</ele>
        <time>2021-04-07T11:59:32.000Z</time>
      </trkpt>
      <trkpt lat="42.81748040579259395599365234375" lon="-1.64363547228276729583740234375">
        <ele>452</ele>
        <time>2021-04-07T11:59:33.000Z</time>
      </trkpt>
      <trkpt lat="42.81751611270010471343994140625" lon="-1.64368140511214733123779296875">
        <ele>452</ele>
        <time>2021-04-07T11:59:34.000Z</time>
      </trkpt>
      <trkpt lat="42.8175322897732257843017578125" lon="-1.64370805956423282623291015625">
        <ele>452.20001220703125</ele>
        <time>2021-04-07T11:59:35.000Z</time>
      </trkpt>
      <trkpt lat="42.81756187789142131805419921875" lon="-1.643739156424999237060546875">
        <ele>452</ele>
        <time>2021-04-07T11:59:36.000Z</time>
      </trkpt>
      <trkpt lat="42.81757696531713008880615234375" lon="-1.64375089108943939208984375">
        <ele>452</ele>
        <time>2021-04-07T11:59:37.000Z</time>
      </trkpt>
      <trkpt lat="42.81759071163833141326904296875" lon="-1.643762290477752685546875">
        <ele>452</ele>
        <time>2021-04-07T11:59:38.000Z</time>
      </trkpt>
      <trkpt lat="42.81760076992213726043701171875" lon="-1.643773354589939117431640625">
        <ele>452</ele>
        <time>2021-04-07T11:59:39.000Z</time>
      </trkpt>
      <trkpt lat="42.817598171532154083251953125" lon="-1.6437671519815921783447265625">
        <ele>451.79998779296875</ele>
        <time>2021-04-07T11:59:40.000Z</time>
      </trkpt>
      <trkpt lat="42.81759590841829776763916015625" lon="-1.64377880282700061798095703125">
        <ele>451.79998779296875</ele>
        <time>2021-04-07T11:59:41.000Z</time>
      </trkpt>
      <trkpt lat="42.81759372912347316741943359375" lon="-1.643793471157550811767578125">
        <ele>451.79998779296875</ele>
        <time>2021-04-07T11:59:42.000Z</time>
      </trkpt>
      <trkpt lat="42.81759255565702915191650390625" lon="-1.6438087262213230133056640625">
        <ele>451.600006103515625</ele>
        <time>2021-04-07T11:59:43.000Z</time>
      </trkpt>
      <trkpt lat="42.8175912983715534210205078125" lon="-1.6438241489231586456298828125">
        <ele>451.399993896484375</ele>
        <time>2021-04-07T11:59:44.000Z</time>
      </trkpt>
      <trkpt lat="42.81759054400026798248291015625" lon="-1.643837057054042816162109375">
        <ele>451.399993896484375</ele>
        <time>2021-04-07T11:59:45.000Z</time>
      </trkpt>
      <trkpt lat="42.8175359778106212615966796875" lon="-1.643735133111476898193359375">
        <ele>451.399993896484375</ele>
        <time>2021-04-07T11:59:46.000Z</time>
      </trkpt>
      <trkpt lat="42.817542850971221923828125" lon="-1.64376555941998958587646484375">
        <ele>451.20001220703125</ele>
        <time>2021-04-07T11:59:47.000Z</time>
      </trkpt>
      <trkpt lat="42.81755500473082065582275390625" lon="-1.64377209730446338653564453125">
        <ele>451.20001220703125</ele>
        <time>2021-04-07T11:59:48.000Z</time>
      </trkpt>
      <trkpt lat="42.81757478602230548858642578125" lon="-1.643777377903461456298828125">
        <ele>451.20001220703125</ele>
        <time>2021-04-07T11:59:49.000Z</time>
      </trkpt>
      <trkpt lat="42.8176006861031055450439453125" lon="-1.64378986693918704986572265625">
        <ele>451.20001220703125</ele>
        <time>2021-04-07T11:59:50.000Z</time>
      </trkpt>
      <trkpt lat="42.81752265058457851409912109375" lon="-1.64373689331114292144775390625">
        <ele>451.399993896484375</ele>
        <time>2021-04-07T11:59:51.000Z</time>
      </trkpt>
      <trkpt lat="42.8174766339361667633056640625" lon="-1.64369163103401660919189453125">
        <ele>451.399993896484375</ele>
        <time>2021-04-07T11:59:52.000Z</time>
      </trkpt>
      <trkpt lat="42.81745492480695247650146484375" lon="-1.643643938004970550537109375">
        <ele>451.600006103515625</ele>
        <time>2021-04-07T11:59:53.000Z</time>
      </trkpt>
      <trkpt lat="42.81744830310344696044921875" lon="-1.6436162777245044708251953125">
        <ele>451.600006103515625</ele>
        <time>2021-04-07T11:59:54.000Z</time>
      </trkpt>
      <trkpt lat="42.81742961145937442779541015625" lon="-1.643585599958896636962890625">
        <ele>451.79998779296875</ele>
        <time>2021-04-07T11:59:55.000Z</time>
      </trkpt>
      <trkpt lat="42.81741905026137828826904296875" lon="-1.64356171153485774993896484375">
        <ele>451.79998779296875</ele>
        <time>2021-04-07T11:59:56.000Z</time>
      </trkpt>
      <trkpt lat="42.81739675439894199371337890625" lon="-1.643531955778598785400390625">
        <ele>451.79998779296875</ele>
        <time>2021-04-07T11:59:57.000Z</time>
      </trkpt>
      <trkpt lat="42.81736305914819240570068359375" lon="-1.64348945952951908111572265625">
        <ele>451.79998779296875</ele>
        <time>2021-04-07T11:59:58.000Z</time>
      </trkpt>
      <trkpt lat="42.81735719181597232818603515625" lon="-1.64347940124571323394775390625">
        <ele>451.79998779296875</ele>
        <time>2021-04-07T11:59:59.000Z</time>
      </trkpt>
      <trkpt lat="42.8173519112169742584228515625" lon="-1.6434731148183345794677734375">
        <ele>451.79998779296875</ele>
        <time>2021-04-07T12:00:00.000Z</time>
      </trkpt>
      <trkpt lat="42.8173472173511981964111328125" lon="-1.64346389472484588623046875">
        <ele>451.79998779296875</ele>
        <time>2021-04-07T12:00:01.000Z</time>
      </trkpt>
      <trkpt lat="42.81734394840896129608154296875" lon="-1.64345584809780120849609375">
        <ele>451.79998779296875</ele>
        <time>2021-04-07T12:00:02.000Z</time>
      </trkpt>
      <trkpt lat="42.81734461896121501922607421875" lon="-1.64344822056591510772705078125">
        <ele>452</ele>
        <time>2021-04-07T12:00:03.000Z</time>
      </trkpt>
      <trkpt lat="42.8173485584557056427001953125" lon="-1.6434412635862827301025390625">
        <ele>452</ele>
        <time>2021-04-07T12:00:04.000Z</time>
      </trkpt>
      <trkpt lat="42.817355096340179443359375" lon="-1.64343514479696750640869140625">
        <ele>452</ele>
        <time>2021-04-07T12:00:05.000Z</time>
      </trkpt>
      <trkpt lat="42.81734763644635677337646484375" lon="-1.6434231586754322052001953125">
        <ele>452</ele>
        <time>2021-04-07T12:00:06.000Z</time>
      </trkpt>
      <trkpt lat="42.81731712631881237030029296875" lon="-1.64340010844171047210693359375">
        <ele>452</ele>
        <time>2021-04-07T12:00:07.000Z</time>
      </trkpt>
      <trkpt lat="42.81728561036288738250732421875" lon="-1.64338854141533374786376953125">
        <ele>452</ele>
        <time>2021-04-07T12:00:08.000Z</time>
      </trkpt>
      <trkpt lat="42.8172647394239902496337890625" lon="-1.64338116534054279327392578125">
        <ele>452</ele>
        <time>2021-04-07T12:00:09.000Z</time>
      </trkpt>
      <trkpt lat="42.817242108285427093505859375" lon="-1.6433772258460521697998046875">
        <ele>451.399993896484375</ele>
        <time>2021-04-07T12:00:10.000Z</time>
      </trkpt>
      <trkpt lat="42.8172074072062969207763671875" lon="-1.6433866135776042938232421875">
        <ele>451.20001220703125</ele>
        <time>2021-04-07T12:00:11.000Z</time>
      </trkpt>
      <trkpt lat="42.81718770973384380340576171875" lon="-1.64340220391750335693359375">
        <ele>451.399993896484375</ele>
        <time>2021-04-07T12:00:12.000Z</time>
      </trkpt>
      <trkpt lat="42.8171698562800884246826171875" lon="-1.64341234602034091949462890625">
        <ele>451</ele>
        <time>2021-04-07T12:00:13.000Z</time>
      </trkpt>
      <trkpt lat="42.8171641565859317779541015625" lon="-1.6434278525412082672119140625">
        <ele>451</ele>
        <time>2021-04-07T12:00:14.000Z</time>
      </trkpt>
      <trkpt lat="42.8171611391007900238037109375" lon="-1.64344185031950473785400390625">
        <ele>451</ele>
        <time>2021-04-07T12:00:15.000Z</time>
      </trkpt>
      <trkpt lat="42.81716256402432918548583984375" lon="-1.64345509372651576995849609375">
        <ele>451</ele>
        <time>2021-04-07T12:00:16.000Z</time>
      </trkpt>
      <trkpt lat="42.817162312567234039306640625" lon="-1.643478311598300933837890625">
        <ele>451</ele>
        <time>2021-04-07T12:00:17.000Z</time>
      </trkpt>
      <trkpt lat="42.81717069447040557861328125" lon="-1.6434980928897857666015625">
        <ele>451</ele>
        <time>2021-04-07T12:00:18.000Z</time>
      </trkpt>
      <trkpt lat="42.8171785734593868255615234375" lon="-1.64352483116090297698974609375">
        <ele>451</ele>
        <time>2021-04-07T12:00:19.000Z</time>
      </trkpt>
      <trkpt lat="42.8171903081238269805908203125" lon="-1.64353421889245510101318359375">
        <ele>451</ele>
        <time>2021-04-07T12:00:20.000Z</time>
      </trkpt>
      <trkpt lat="42.81720128841698169708251953125" lon="-1.64353991858661174774169921875">
        <ele>451</ele>
        <time>2021-04-07T12:00:21.000Z</time>
      </trkpt>
      <trkpt lat="42.81721218489110469818115234375" lon="-1.64356204681098461151123046875">
        <ele>451</ele>
        <time>2021-04-07T12:00:22.000Z</time>
      </trkpt>
      <trkpt lat="42.81722174026072025299072265625" lon="-1.64357897825539112091064453125">
        <ele>451</ele>
        <time>2021-04-07T12:00:23.000Z</time>
      </trkpt>
      <trkpt lat="42.81723104417324066162109375" lon="-1.6436026990413665771484375">
        <ele>451</ele>
        <time>2021-04-07T12:00:24.000Z</time>
      </trkpt>
      <trkpt lat="42.8172412700951099395751953125" lon="-1.64362105540931224822998046875">
        <ele>451</ele>
        <time>2021-04-07T12:00:25.000Z</time>
      </trkpt>
      <trkpt lat="42.8172473050653934478759765625" lon="-1.64363530464470386505126953125">
        <ele>451.20001220703125</ele>
        <time>2021-04-07T12:00:26.000Z</time>
      </trkpt>
      <trkpt lat="42.81724789179861545562744140625" lon="-1.64363999851047992706298828125">
        <ele>451.399993896484375</ele>
        <time>2021-04-07T12:00:27.000Z</time>
      </trkpt>
      <trkpt lat="42.8172499872744083404541015625" lon="-1.64364494383335113525390625">
        <ele>451.20001220703125</ele>
        <time>2021-04-07T12:00:28.000Z</time>
      </trkpt>
      <trkpt lat="42.8172499872744083404541015625" lon="-1.64364921860396862030029296875">
        <ele>451.399993896484375</ele>
        <time>2021-04-07T12:00:29.000Z</time>
      </trkpt>
      <trkpt lat="42.8172503225505352020263671875" lon="-1.64365609176456928253173828125">
        <ele>451.600006103515625</ele>
        <time>2021-04-07T12:00:30.000Z</time>
      </trkpt>
      <trkpt lat="42.81725493259727954864501953125" lon="-1.643665730953216552734375">
        <ele>451.600006103515625</ele>
        <time>2021-04-07T12:00:31.000Z</time>
      </trkpt>
      <trkpt lat="42.8172610513865947723388671875" lon="-1.643690206110477447509765625">
        <ele>452</ele>
        <time>2021-04-07T12:00:32.000Z</time>
      </trkpt>
      <trkpt lat="42.81726725399494171142578125" lon="-1.64370889775454998016357421875">
        <ele>451.600006103515625</ele>
        <time>2021-04-07T12:00:33.000Z</time>
      </trkpt>
      <trkpt lat="42.8172694332897663116455078125" lon="-1.6437180340290069580078125">
        <ele>451.600006103515625</ele>
        <time>2021-04-07T12:00:34.000Z</time>
      </trkpt>
      <trkpt lat="42.81729415990412235260009765625" lon="-1.64374074898660182952880859375">
        <ele>451.600006103515625</ele>
        <time>2021-04-07T12:00:35.000Z</time>
      </trkpt>
      <trkpt lat="42.817317545413970947265625" lon="-1.64376237429678440093994140625">
        <ele>451.600006103515625</ele>
        <time>2021-04-07T12:00:36.000Z</time>
      </trkpt>
      <trkpt lat="42.8173388354480266571044921875" lon="-1.643784753978252410888671875">
        <ele>451.399993896484375</ele>
        <time>2021-04-07T12:00:37.000Z</time>
      </trkpt>
      <trkpt lat="42.81734478659927845001220703125" lon="-1.643799506127834320068359375">
        <ele>451.399993896484375</ele>
        <time>2021-04-07T12:00:38.000Z</time>
      </trkpt>
      <trkpt lat="42.81734495423734188079833984375" lon="-1.64380579255521297454833984375">
        <ele>451.20001220703125</ele>
        <time>2021-04-07T12:00:39.000Z</time>
      </trkpt>
      <trkpt lat="42.817346043884754180908203125" lon="-1.6438120789825916290283203125">
        <ele>451.399993896484375</ele>
        <time>2021-04-07T12:00:40.000Z</time>
      </trkpt>
      <trkpt lat="42.8173468820750713348388671875" lon="-1.64381903596222400665283203125">
        <ele>451.399993896484375</ele>
        <time>2021-04-07T12:00:41.000Z</time>
      </trkpt>
      <trkpt lat="42.81734512187540531158447265625" lon="-1.64382238872349262237548828125">
        <ele>451.20001220703125</ele>
        <time>2021-04-07T12:00:42.000Z</time>
      </trkpt>
      <trkpt lat="42.81734059564769268035888671875" lon="-1.64382054470479488372802734375">
        <ele>451.20001220703125</ele>
        <time>2021-04-07T12:00:43.000Z</time>
      </trkpt>
      <trkpt lat="42.81733288429677486419677734375" lon="-1.64381685666739940643310546875">
        <ele>451.20001220703125</ele>
        <time>2021-04-07T12:00:44.000Z</time>
      </trkpt>
      <trkpt lat="42.8173274360597133636474609375" lon="-1.64381551556289196014404296875">
        <ele>451.20001220703125</ele>
        <time>2021-04-07T12:00:45.000Z</time>
      </trkpt>
      <trkpt lat="42.81732383184134960174560546875" lon="-1.64381400682032108306884765625">
        <ele>451.20001220703125</ele>
        <time>2021-04-07T12:00:46.000Z</time>
      </trkpt>
      <trkpt lat="42.817321904003620147705078125" lon="-1.6438134200870990753173828125">
        <ele>451.20001220703125</ele>
        <time>2021-04-07T12:00:47.000Z</time>
      </trkpt>
      <trkpt lat="42.817319221794605255126953125" lon="-1.64381199516355991363525390625">
        <ele>451.20001220703125</ele>
        <time>2021-04-07T12:00:48.000Z</time>
      </trkpt>
      <trkpt lat="42.81731394119560718536376953125" lon="-1.64380780421197414398193359375">
        <ele>451.20001220703125</ele>
        <time>2021-04-07T12:00:49.000Z</time>
      </trkpt>
      <trkpt lat="42.8173083253204822540283203125" lon="-1.643805205821990966796875">
        <ele>451.20001220703125</ele>
        <time>2021-04-07T12:00:50.000Z</time>
      </trkpt>
      <trkpt lat="42.81730287708342075347900390625" lon="-1.6438053734600543975830078125">
        <ele>451.20001220703125</ele>
        <time>2021-04-07T12:00:51.000Z</time>
      </trkpt>
      <trkpt lat="42.81729851849377155303955078125" lon="-1.64380864240229129791259765625">
        <ele>451.20001220703125</ele>
        <time>2021-04-07T12:00:52.000Z</time>
      </trkpt>
      <trkpt lat="42.81729063950479030609130859375" lon="-1.6438093967735767364501953125">
        <ele>451.20001220703125</ele>
        <time>2021-04-07T12:00:53.000Z</time>
      </trkpt>
      <trkpt lat="42.81728066504001617431640625" lon="-1.6438120789825916290283203125">
        <ele>451.20001220703125</ele>
        <time>2021-04-07T12:00:54.000Z</time>
      </trkpt>
      <trkpt lat="42.8172727860510349273681640625" lon="-1.64381635375320911407470703125">
        <ele>451.20001220703125</ele>
        <time>2021-04-07T12:00:55.000Z</time>
      </trkpt>
      <trkpt lat="42.81726364977657794952392578125" lon="-1.6438181139528751373291015625">
        <ele>451.20001220703125</ele>
        <time>2021-04-07T12:00:56.000Z</time>
      </trkpt>
      <trkpt lat="42.8171463869512081146240234375" lon="-1.6426531970500946044921875">
        <ele>460</ele>
        <time>2021-04-07T12:27:34.000Z</time>
      </trkpt>
      <trkpt lat="42.81713909469544887542724609375" lon="-1.64265118539333343505859375">
        <ele>460</ele>
        <time>2021-04-07T12:27:35.000Z</time>
      </trkpt>
      <trkpt lat="42.81726800836622714996337890625" lon="-1.642625369131565093994140625">
        <ele>460</ele>
        <time>2021-04-07T12:27:36.000Z</time>
      </trkpt>
      <trkpt lat="42.8172392584383487701416015625" lon="-1.64259594865143299102783203125">
        <ele>460</ele>
        <time>2021-04-07T12:27:37.000Z</time>
      </trkpt>
      <trkpt lat="42.81714479438960552215576171875" lon="-1.6425846330821514129638671875">
        <ele>460</ele>
        <time>2021-04-07T12:27:38.000Z</time>
      </trkpt>
      <trkpt lat="42.8171302936971187591552734375" lon="-1.6425581462681293487548828125">
        <ele>460.20001220703125</ele>
        <time>2021-04-07T12:27:39.000Z</time>
      </trkpt>
      <trkpt lat="42.81707623042166233062744140625" lon="-1.642530150711536407470703125">
        <ele>460.20001220703125</ele>
        <time>2021-04-07T12:27:40.000Z</time>
      </trkpt>
      <trkpt lat="42.8170763142406940460205078125" lon="-1.64246343076229095458984375">
        <ele>460.20001220703125</ele>
        <time>2021-04-07T12:27:41.000Z</time>
      </trkpt>
      <trkpt lat="42.81704672612249851226806640625" lon="-1.6424247063696384429931640625">
        <ele>460.20001220703125</ele>
        <time>2021-04-07T12:27:42.000Z</time>
      </trkpt>
      <trkpt lat="42.817033231258392333984375" lon="-1.6423868201673030853271484375">
        <ele>460.399993896484375</ele>
        <time>2021-04-07T12:27:43.000Z</time>
      </trkpt>
      <trkpt lat="42.8170226700603961944580078125" lon="-1.64235086180269718170166015625">
        <ele>460.399993896484375</ele>
        <time>2021-04-07T12:27:44.000Z</time>
      </trkpt>
      <trkpt lat="42.8170157968997955322265625" lon="-1.642316915094852447509765625">
        <ele>460.399993896484375</ele>
        <time>2021-04-07T12:27:45.000Z</time>
      </trkpt>
      <trkpt lat="42.81700599007308483123779296875" lon="-1.64229135029017925262451171875">
        <ele>460.399993896484375</ele>
        <time>2021-04-07T12:27:46.000Z</time>
      </trkpt>
      <trkpt lat="42.81699676997959613800048828125" lon="-1.64227978326380252838134765625">
        <ele>460.600006103515625</ele>
        <time>2021-04-07T12:27:47.000Z</time>
      </trkpt>
      <trkpt lat="42.81699408777058124542236328125" lon="-1.64226830005645751953125">
        <ele>460.600006103515625</ele>
        <time>2021-04-07T12:27:48.000Z</time>
      </trkpt>
      <trkpt lat="42.81700079329311847686767578125" lon="-1.6422912664711475372314453125">
        <ele>460.79998779296875</ele>
        <time>2021-04-07T12:27:49.000Z</time>
      </trkpt>
      <trkpt lat="42.81702862121164798736572265625" lon="-1.64227844215929508209228515625">
        <ele>460.79998779296875</ele>
        <time>2021-04-07T12:27:50.000Z</time>
      </trkpt>
      <trkpt lat="42.8170290403068065643310546875" lon="-1.642267294228076934814453125">
        <ele>461</ele>
        <time>2021-04-07T12:27:51.000Z</time>
      </trkpt>
      <trkpt lat="42.81702987849712371826171875" lon="-1.64226352237164974212646484375">
        <ele>461</ele>
        <time>2021-04-07T12:27:52.000Z</time>
      </trkpt>
      <trkpt lat="42.81703063286840915679931640625" lon="-1.6422631032764911651611328125">
        <ele>461.20001220703125</ele>
        <time>2021-04-07T12:27:53.000Z</time>
      </trkpt>
      <trkpt lat="42.81702476553618907928466796875" lon="-1.6422577388584613800048828125">
        <ele>461.20001220703125</ele>
        <time>2021-04-07T12:27:54.000Z</time>
      </trkpt>
      <trkpt lat="42.81701001338660717010498046875" lon="-1.64225027896463871002197265625">
        <ele>461.600006103515625</ele>
        <time>2021-04-07T12:27:55.000Z</time>
      </trkpt>
      <trkpt lat="42.81699676997959613800048828125" lon="-1.6422436572611331939697265625">
        <ele>460.20001220703125</ele>
        <time>2021-04-07T12:27:56.000Z</time>
      </trkpt>
      <trkpt lat="42.8169821016490459442138671875" lon="-1.64223502390086650848388671875">
        <ele>460.20001220703125</ele>
        <time>2021-04-07T12:27:57.000Z</time>
      </trkpt>
      <trkpt lat="42.816971875727176666259765625" lon="-1.642229072749614715576171875">
        <ele>461.600006103515625</ele>
        <time>2021-04-07T12:27:58.000Z</time>
      </trkpt>
      <trkpt lat="42.816953100264072418212890625" lon="-1.64221222512423992156982421875">
        <ele>461.600006103515625</ele>
        <time>2021-04-07T12:27:59.000Z</time>
      </trkpt>
      <trkpt lat="42.816922254860401153564453125" lon="-1.6421846486628055572509765625">
        <ele>460.399993896484375</ele>
        <time>2021-04-07T12:28:00.000Z</time>
      </trkpt>
      <trkpt lat="42.81690037809312343597412109375" lon="-1.6421631909906864166259765625">
        <ele>460</ele>
        <time>2021-04-07T12:28:01.000Z</time>
      </trkpt>
      <trkpt lat="42.816880010068416595458984375" lon="-1.6421400569379329681396484375">
        <ele>460.20001220703125</ele>
        <time>2021-04-07T12:28:02.000Z</time>
      </trkpt>
      <trkpt lat="42.81686064787209033966064453125" lon="-1.64212790317833423614501953125">
        <ele>460.20001220703125</ele>
        <time>2021-04-07T12:28:03.000Z</time>
      </trkpt>
      <trkpt lat="42.8168275393545627593994140625" lon="-1.6421239636838436126708984375">
        <ele>460.20001220703125</ele>
        <time>2021-04-07T12:28:04.000Z</time>
      </trkpt>
      <trkpt lat="42.81678940169513225555419921875" lon="-1.6421326808631420135498046875">
        <ele>460.600006103515625</ele>
        <time>2021-04-07T12:28:05.000Z</time>
      </trkpt>
      <trkpt lat="42.81675604172050952911376953125" lon="-1.64214667864143848419189453125">
        <ele>461</ele>
        <time>2021-04-07T12:28:06.000Z</time>
      </trkpt>
      <trkpt lat="42.81673089601099491119384765625" lon="-1.64217651821672916412353515625">
        <ele>460.79998779296875</ele>
        <time>2021-04-07T12:28:07.000Z</time>
      </trkpt>
      <trkpt lat="42.81670625321567058563232421875" lon="-1.64219428785145282745361328125">
        <ele>460.600006103515625</ele>
        <time>2021-04-07T12:28:08.000Z</time>
      </trkpt>
      <trkpt lat="42.8166880644857883453369140625" lon="-1.6422124765813350677490234375">
        <ele>460.600006103515625</ele>
        <time>2021-04-07T12:28:09.000Z</time>
      </trkpt>
      <trkpt lat="42.81666300259530544281005859375" lon="-1.64220593869686126708984375">
        <ele>460.399993896484375</ele>
        <time>2021-04-07T12:28:10.000Z</time>
      </trkpt>
      <trkpt lat="42.81662628985941410064697265625" lon="-1.64216847158968448638916015625">
        <ele>460.20001220703125</ele>
        <time>2021-04-07T12:28:11.000Z</time>
      </trkpt>
      <trkpt lat="42.8166027367115020751953125" lon="-1.64214986376464366912841796875">
        <ele>460</ele>
        <time>2021-04-07T12:28:12.000Z</time>
      </trkpt>
      <trkpt lat="42.8165734000504016876220703125" lon="-1.6421232931315898895263671875">
        <ele>459.79998779296875</ele>
        <time>2021-04-07T12:28:13.000Z</time>
      </trkpt>
      <trkpt lat="42.8165720589458942413330078125" lon="-1.64208381436765193939208984375">
        <ele>459.600006103515625</ele>
        <time>2021-04-07T12:28:14.000Z</time>
      </trkpt>
      <trkpt lat="42.81656493432819843292236328125" lon="-1.6420569084584712982177734375">
        <ele>459.399993896484375</ele>
        <time>2021-04-07T12:28:15.000Z</time>
      </trkpt>
      <trkpt lat="42.81655956991016864776611328125" lon="-1.64204341359436511993408203125">
        <ele>459.399993896484375</ele>
        <time>2021-04-07T12:28:16.000Z</time>
      </trkpt>
      <trkpt lat="42.81655336730182170867919921875" lon="-1.6420309245586395263671875">
        <ele>459.399993896484375</ele>
        <time>2021-04-07T12:28:17.000Z</time>
      </trkpt>
      <trkpt lat="42.8165338374674320220947265625" lon="-1.6419985704123973846435546875">
        <ele>459.399993896484375</ele>
        <time>2021-04-07T12:28:18.000Z</time>
      </trkpt>
      <trkpt lat="42.8165187500417232513427734375" lon="-1.641981638967990875244140625">
        <ele>459.399993896484375</ele>
        <time>2021-04-07T12:28:19.000Z</time>
      </trkpt>
      <trkpt lat="42.8165169060230255126953125" lon="-1.641957499086856842041015625">
        <ele>459.399993896484375</ele>
        <time>2021-04-07T12:28:20.000Z</time>
      </trkpt>
      <trkpt lat="42.81651129014790058135986328125" lon="-1.64194199256598949432373046875">
        <ele>459.399993896484375</ele>
        <time>2021-04-07T12:28:21.000Z</time>
      </trkpt>
      <trkpt lat="42.816512547433376312255859375" lon="-1.64191885851323604583740234375">
        <ele>459.399993896484375</ele>
        <time>2021-04-07T12:28:22.000Z</time>
      </trkpt>
      <trkpt lat="42.8164889104664325714111328125" lon="-1.64191131480038166046142578125">
        <ele>459.399993896484375</ele>
        <time>2021-04-07T12:28:23.000Z</time>
      </trkpt>
      <trkpt lat="42.81645094044506549835205078125" lon="-1.64189740084111690521240234375">
        <ele>459.20001220703125</ele>
        <time>2021-04-07T12:28:24.000Z</time>
      </trkpt>
      <trkpt lat="42.81642110086977481842041015625" lon="-1.6418922878801822662353515625">
        <ele>459.20001220703125</ele>
        <time>2021-04-07T12:28:25.000Z</time>
      </trkpt>
      <trkpt lat="42.8164015710353851318359375" lon="-1.64187342859804630279541015625">
        <ele>459.20001220703125</ele>
        <time>2021-04-07T12:28:26.000Z</time>
      </trkpt>
      <trkpt lat="42.81636913307011127471923828125" lon="-1.641839481890201568603515625">
        <ele>459.20001220703125</ele>
        <time>2021-04-07T12:28:27.000Z</time>
      </trkpt>
      <trkpt lat="42.81633476726710796356201171875" lon="-1.64178491570055484771728515625">
        <ele>459.20001220703125</ele>
        <time>2021-04-07T12:28:28.000Z</time>
      </trkpt>
      <trkpt lat="42.8162969648838043212890625" lon="-1.641716770827770233154296875">
        <ele>459.20001220703125</ele>
        <time>2021-04-07T12:28:29.000Z</time>
      </trkpt>
      <trkpt lat="42.8162629343569278717041015625" lon="-1.64165600202977657318115234375">
        <ele>459.399993896484375</ele>
        <time>2021-04-07T12:28:30.000Z</time>
      </trkpt>
      <trkpt lat="42.8162240423262119293212890625" lon="-1.64158794097602367401123046875">
        <ele>459.399993896484375</ele>
        <time>2021-04-07T12:28:31.000Z</time>
      </trkpt>
      <trkpt lat="42.81624508090317249298095703125" lon="-1.64148668758571147918701171875">
        <ele>459.600006103515625</ele>
        <time>2021-04-07T12:28:32.000Z</time>
      </trkpt>
      <trkpt lat="42.81624742783606052398681640625" lon="-1.641408987343311309814453125">
        <ele>459.600006103515625</ele>
        <time>2021-04-07T12:28:33.000Z</time>
      </trkpt>
      <trkpt lat="42.81623334623873233795166015625" lon="-1.641338579356670379638671875">
        <ele>459.399993896484375</ele>
        <time>2021-04-07T12:28:34.000Z</time>
      </trkpt>
      <trkpt lat="42.8162139840424060821533203125" lon="-1.64126046001911163330078125">
        <ele>459.399993896484375</ele>
        <time>2021-04-07T12:28:35.000Z</time>
      </trkpt>
      <trkpt lat="42.8161915205419063568115234375" lon="-1.641201786696910858154296875">
        <ele>459.20001220703125</ele>
        <time>2021-04-07T12:28:36.000Z</time>
      </trkpt>
      <trkpt lat="42.8161771036684513092041015625" lon="-1.6411516629159450531005859375">
        <ele>458.79998779296875</ele>
        <time>2021-04-07T12:28:37.000Z</time>
      </trkpt>
      <trkpt lat="42.81616754829883575439453125" lon="-1.64110623300075531005859375">
        <ele>458.600006103515625</ele>
        <time>2021-04-07T12:28:38.000Z</time>
      </trkpt>
      <trkpt lat="42.816152460873126983642578125" lon="-1.64105267263948917388916015625">
        <ele>458.399993896484375</ele>
        <time>2021-04-07T12:28:39.000Z</time>
      </trkpt>
      <trkpt lat="42.816133014857769012451171875" lon="-1.64100556634366512298583984375">
        <ele>458</ele>
        <time>2021-04-07T12:28:40.000Z</time>
      </trkpt>
      <trkpt lat="42.8161110542714595794677734375" lon="-1.6409526765346527099609375">
        <ele>457.79998779296875</ele>
        <time>2021-04-07T12:28:41.000Z</time>
      </trkpt>
      <trkpt lat="42.81607140786945819854736328125" lon="-1.6409008763730525970458984375">
        <ele>457.79998779296875</ele>
        <time>2021-04-07T12:28:42.000Z</time>
      </trkpt>
      <trkpt lat="42.81603704206645488739013671875" lon="-1.64085184223949909210205078125">
        <ele>457.79998779296875</ele>
        <time>2021-04-07T12:28:43.000Z</time>
      </trkpt>
      <trkpt lat="42.816004939377307891845703125" lon="-1.64081177674233913421630859375">
        <ele>458</ele>
        <time>2021-04-07T12:28:44.000Z</time>
      </trkpt>
      <trkpt lat="42.81597970984876155853271484375" lon="-1.64077959023416042327880859375">
        <ele>458.20001220703125</ele>
        <time>2021-04-07T12:28:45.000Z</time>
      </trkpt>
      <trkpt lat="42.8159531392157077789306640625" lon="-1.640740446746349334716796875">
        <ele>458.399993896484375</ele>
        <time>2021-04-07T12:28:46.000Z</time>
      </trkpt>
      <trkpt lat="42.81593511812388896942138671875" lon="-1.64070524275302886962890625">
        <ele>458.79998779296875</ele>
        <time>2021-04-07T12:28:47.000Z</time>
      </trkpt>
      <trkpt lat="42.8159008361399173736572265625" lon="-1.6406737267971038818359375">
        <ele>459.20001220703125</ele>
        <time>2021-04-07T12:28:48.000Z</time>
      </trkpt>
      <trkpt lat="42.81587057746946811676025390625" lon="-1.64063550531864166259765625">
        <ele>459.399993896484375</ele>
        <time>2021-04-07T12:28:49.000Z</time>
      </trkpt>
      <trkpt lat="42.8158381395041942596435546875" lon="-1.6405964456498622894287109375">
        <ele>459.600006103515625</ele>
        <time>2021-04-07T12:28:50.000Z</time>
      </trkpt>
      <trkpt lat="42.8158103115856647491455078125" lon="-1.6405605711042881011962890625">
        <ele>459.79998779296875</ele>
        <time>2021-04-07T12:28:51.000Z</time>
      </trkpt>
      <trkpt lat="42.81578139401972293853759765625" lon="-1.64052377454936504364013671875">
        <ele>460</ele>
        <time>2021-04-07T12:28:52.000Z</time>
      </trkpt>
      <trkpt lat="42.81575507484376430511474609375" lon="-1.640497706830501556396484375">
        <ele>460.399993896484375</ele>
        <time>2021-04-07T12:28:53.000Z</time>
      </trkpt>
      <trkpt lat="42.81571903266012668609619140625" lon="-1.64046241901814937591552734375">
        <ele>460.79998779296875</ele>
        <time>2021-04-07T12:28:54.000Z</time>
      </trkpt>
      <trkpt lat="42.815676033496856689453125" lon="-1.64040659554302692413330078125">
        <ele>461</ele>
        <time>2021-04-07T12:28:55.000Z</time>
      </trkpt>
      <trkpt lat="42.81564644537866115570068359375" lon="-1.64038295857608318328857421875">
        <ele>461.20001220703125</ele>
        <time>2021-04-07T12:28:56.000Z</time>
      </trkpt>
      <trkpt lat="42.8156067989766597747802734375" lon="-1.64035412482917308807373046875">
        <ele>461.600006103515625</ele>
        <time>2021-04-07T12:28:57.000Z</time>
      </trkpt>
      <trkpt lat="42.8155759535729885101318359375" lon="-1.64032730273902416229248046875">
        <ele>461.79998779296875</ele>
        <time>2021-04-07T12:28:58.000Z</time>
      </trkpt>
      <trkpt lat="42.81555776484310626983642578125" lon="-1.640319339931011199951171875">
        <ele>461.79998779296875</ele>
        <time>2021-04-07T12:28:59.000Z</time>
      </trkpt>
      <trkpt lat="42.81554250977933406829833984375" lon="-1.6403044201433658599853515625">
        <ele>461.600006103515625</ele>
        <time>2021-04-07T12:29:00.000Z</time>
      </trkpt>
      <trkpt lat="42.8155219741165637969970703125" lon="-1.64029561914503574371337890625">
        <ele>461.20001220703125</ele>
        <time>2021-04-07T12:29:01.000Z</time>
      </trkpt>
      <trkpt lat="42.815513424575328826904296875" lon="-1.64028472267091274261474609375">
        <ele>461.20001220703125</ele>
        <time>2021-04-07T12:29:02.000Z</time>
      </trkpt>
      <trkpt lat="42.81549925915896892547607421875" lon="-1.64027382619678974151611328125">
        <ele>461.20001220703125</ele>
        <time>2021-04-07T12:29:03.000Z</time>
      </trkpt>
      <trkpt lat="42.81549322418868541717529296875" lon="-1.64026678539812564849853515625">
        <ele>461.20001220703125</ele>
        <time>2021-04-07T12:29:04.000Z</time>
      </trkpt>
      <trkpt lat="42.8154914639890193939208984375" lon="-1.64026075042784214019775390625">
        <ele>461.20001220703125</ele>
        <time>2021-04-07T12:29:05.000Z</time>
      </trkpt>
      <trkpt lat="42.81548031605780124664306640625" lon="-1.640258319675922393798828125">
        <ele>461.20001220703125</ele>
        <time>2021-04-07T12:29:06.000Z</time>
      </trkpt>
      <trkpt lat="42.81546480953693389892578125" lon="-1.64025236852467060089111328125">
        <ele>461.20001220703125</ele>
        <time>2021-04-07T12:29:07.000Z</time>
      </trkpt>
      <trkpt lat="42.81544930301606655120849609375" lon="-1.6402487643063068389892578125">
        <ele>461.20001220703125</ele>
        <time>2021-04-07T12:29:08.000Z</time>
      </trkpt>
      <trkpt lat="42.8154475428164005279541015625" lon="-1.64024800993502140045166015625">
        <ele>461.20001220703125</ele>
        <time>2021-04-07T12:29:09.000Z</time>
      </trkpt>
      <trkpt lat="42.815444357693195343017578125" lon="-1.6402490995824337005615234375">
        <ele>461.20001220703125</ele>
        <time>2021-04-07T12:29:10.000Z</time>
      </trkpt>
      <trkpt lat="42.81544066965579986572265625" lon="-1.6402427293360233306884765625">
        <ele>461.20001220703125</ele>
        <time>2021-04-07T12:29:11.000Z</time>
      </trkpt>
      <trkpt lat="42.81543555669486522674560546875" lon="-1.640232838690280914306640625">
        <ele>461.20001220703125</ele>
        <time>2021-04-07T12:29:12.000Z</time>
      </trkpt>
      <trkpt lat="42.8154198825359344482421875" lon="-1.6402125544846057891845703125">
        <ele>461.20001220703125</ele>
        <time>2021-04-07T12:29:13.000Z</time>
      </trkpt>
      <trkpt lat="42.81540018506348133087158203125" lon="-1.6401850618422031402587890625">
        <ele>461.20001220703125</ele>
        <time>2021-04-07T12:29:14.000Z</time>
      </trkpt>
      <trkpt lat="42.81537772156298160552978515625" lon="-1.64015446789562702178955078125">
        <ele>461.20001220703125</ele>
        <time>2021-04-07T12:29:15.000Z</time>
      </trkpt>
      <trkpt lat="42.81534922309219837188720703125" lon="-1.64012496359646320343017578125">
        <ele>461.20001220703125</ele>
        <time>2021-04-07T12:29:16.000Z</time>
      </trkpt>
      <trkpt lat="42.8153318725526332855224609375" lon="-1.6400890052318572998046875">
        <ele>461.600006103515625</ele>
        <time>2021-04-07T12:29:17.000Z</time>
      </trkpt>
      <trkpt lat="42.8152856044471263885498046875" lon="-1.64005212485790252685546875">
        <ele>461.79998779296875</ele>
        <time>2021-04-07T12:29:18.000Z</time>
      </trkpt>
      <trkpt lat="42.81520840711891651153564453125" lon="-1.64000862278044223785400390625">
        <ele>461.79998779296875</ele>
        <time>2021-04-07T12:29:19.000Z</time>
      </trkpt>
      <trkpt lat="42.8151421062648296356201171875" lon="-1.6399610973894596099853515625">
        <ele>461.79998779296875</ele>
        <time>2021-04-07T12:29:20.000Z</time>
      </trkpt>
      <trkpt lat="42.81508862972259521484375" lon="-1.6399101354181766510009765625">
        <ele>461.79998779296875</ele>
        <time>2021-04-07T12:29:21.000Z</time>
      </trkpt>
      <trkpt lat="42.81504211015999317169189453125" lon="-1.6398621909320354461669921875">
        <ele>461.399993896484375</ele>
        <time>2021-04-07T12:29:22.000Z</time>
      </trkpt>
      <trkpt lat="42.81500422395765781402587890625" lon="-1.639821119606494903564453125">
        <ele>461.20001220703125</ele>
        <time>2021-04-07T12:29:23.000Z</time>
      </trkpt>
      <trkpt lat="42.814966924488544464111328125" lon="-1.63978884927928447723388671875">
        <ele>460.79998779296875</ele>
        <time>2021-04-07T12:29:24.000Z</time>
      </trkpt>
      <trkpt lat="42.8149255178868770599365234375" lon="-1.63976537995040416717529296875">
        <ele>460.79998779296875</ele>
        <time>2021-04-07T12:29:25.000Z</time>
      </trkpt>
      <trkpt lat="42.8148913197219371795654296875" lon="-1.63975046016275882720947265625">
        <ele>460.600006103515625</ele>
        <time>2021-04-07T12:29:26.000Z</time>
      </trkpt>
      <trkpt lat="42.8148641623556613922119140625" lon="-1.6397351212799549102783203125">
        <ele>460.600006103515625</ele>
        <time>2021-04-07T12:29:27.000Z</time>
      </trkpt>
      <trkpt lat="42.81484127976000308990478515625" lon="-1.6397230513393878936767578125">
        <ele>461</ele>
        <time>2021-04-07T12:29:28.000Z</time>
      </trkpt>
      <trkpt lat="42.8148266114294528961181640625" lon="-1.63971416652202606201171875">
        <ele>461.399993896484375</ele>
        <time>2021-04-07T12:29:29.000Z</time>
      </trkpt>
      <trkpt lat="42.81480842269957065582275390625" lon="-1.63969161920249462127685546875">
        <ele>461.600006103515625</ele>
        <time>2021-04-07T12:29:30.000Z</time>
      </trkpt>
      <trkpt lat="42.81478495337069034576416015625" lon="-1.63966781459748744964599609375">
        <ele>461.600006103515625</ele>
        <time>2021-04-07T12:29:31.000Z</time>
      </trkpt>
      <trkpt lat="42.81476198695600032806396484375" lon="-1.63963696919381618499755859375">
        <ele>461.79998779296875</ele>
        <time>2021-04-07T12:29:32.000Z</time>
      </trkpt>
      <trkpt lat="42.81473633833229541778564453125" lon="-1.639599502086639404296875">
        <ele>461.79998779296875</ele>
        <time>2021-04-07T12:29:33.000Z</time>
      </trkpt>
      <trkpt lat="42.81471035443246364593505859375" lon="-1.63956454955041408538818359375">
        <ele>462</ele>
        <time>2021-04-07T12:29:34.000Z</time>
      </trkpt>
      <trkpt lat="42.8146804310381412506103515625" lon="-1.63954074494540691375732421875">
        <ele>462</ele>
        <time>2021-04-07T12:29:35.000Z</time>
      </trkpt>
      <trkpt lat="42.81465075910091400146484375" lon="-1.63951576687395572662353515625">
        <ele>462</ele>
        <time>2021-04-07T12:29:36.000Z</time>
      </trkpt>
      <trkpt lat="42.81462770886719226837158203125" lon="-1.63948928005993366241455078125">
        <ele>462.20001220703125</ele>
        <time>2021-04-07T12:29:37.000Z</time>
      </trkpt>
      <trkpt lat="42.81460340134799480438232421875" lon="-1.63946011103689670562744140625">
        <ele>462.399993896484375</ele>
        <time>2021-04-07T12:29:38.000Z</time>
      </trkpt>
      <trkpt lat="42.81458144076168537139892578125" lon="-1.6394330374896526336669921875">
        <ele>462.600006103515625</ele>
        <time>2021-04-07T12:29:39.000Z</time>
      </trkpt>
      <trkpt lat="42.81455897726118564605712890625" lon="-1.63941887207329273223876953125">
        <ele>462.79998779296875</ele>
        <time>2021-04-07T12:29:40.000Z</time>
      </trkpt>
      <trkpt lat="42.81453433446586132049560546875" lon="-1.63940328173339366912841796875">
        <ele>462.79998779296875</ele>
        <time>2021-04-07T12:29:41.000Z</time>
      </trkpt>
      <trkpt lat="42.814506590366363525390625" lon="-1.63937042467296123504638671875">
        <ele>462.79998779296875</ele>
        <time>2021-04-07T12:29:42.000Z</time>
      </trkpt>
      <trkpt lat="42.81449175439774990081787109375" lon="-1.6393431834876537322998046875">
        <ele>463</ele>
        <time>2021-04-07T12:29:43.000Z</time>
      </trkpt>
      <trkpt lat="42.8144638426601886749267578125" lon="-1.63930538110435009002685546875">
        <ele>463</ele>
        <time>2021-04-07T12:29:44.000Z</time>
      </trkpt>
      <trkpt lat="42.814433164894580841064453125" lon="-1.63927017711102962493896484375">
        <ele>462.79998779296875</ele>
        <time>2021-04-07T12:29:45.000Z</time>
      </trkpt>
      <trkpt lat="42.8143884055316448211669921875" lon="-1.63922424428164958953857421875">
        <ele>462.79998779296875</ele>
        <time>2021-04-07T12:29:46.000Z</time>
      </trkpt>
      <trkpt lat="42.814349345862865447998046875" lon="-1.639173030853271484375">
        <ele>462.79998779296875</ele>
        <time>2021-04-07T12:29:47.000Z</time>
      </trkpt>
      <trkpt lat="42.81431037001311779022216796875" lon="-1.63912064395844936370849609375">
        <ele>462.79998779296875</ele>
        <time>2021-04-07T12:29:48.000Z</time>
      </trkpt>
      <trkpt lat="42.81426896341145038604736328125" lon="-1.6390675865113735198974609375">
        <ele>463</ele>
        <time>2021-04-07T12:29:49.000Z</time>
      </trkpt>
      <trkpt lat="42.81420006416738033294677734375" lon="-1.638976894319057464599609375">
        <ele>463</ele>
        <time>2021-04-07T12:29:50.000Z</time>
      </trkpt>
      <trkpt lat="42.8141485154628753662109375" lon="-1.6389116831123828887939453125">
        <ele>463.20001220703125</ele>
        <time>2021-04-07T12:29:51.000Z</time>
      </trkpt>
      <trkpt lat="42.81410417519509792327880859375" lon="-1.63885795511305332183837890625">
        <ele>463.20001220703125</ele>
        <time>2021-04-07T12:29:52.000Z</time>
      </trkpt>
      <trkpt lat="42.8140695579349994659423828125" lon="-1.63882124237716197967529296875">
        <ele>463.20001220703125</ele>
        <time>2021-04-07T12:29:53.000Z</time>
      </trkpt>
      <trkpt lat="42.8140519559383392333984375" lon="-1.638799868524074554443359375">
        <ele>463.20001220703125</ele>
        <time>2021-04-07T12:29:54.000Z</time>
      </trkpt>
      <trkpt lat="42.8140196017920970916748046875" lon="-1.6387547738850116729736328125">
        <ele>463.20001220703125</ele>
        <time>2021-04-07T12:29:55.000Z</time>
      </trkpt>
      <trkpt lat="42.81399738974869251251220703125" lon="-1.6387292928993701934814453125">
        <ele>463.20001220703125</ele>
        <time>2021-04-07T12:29:56.000Z</time>
      </trkpt>
      <trkpt lat="42.8139579109847545623779296875" lon="-1.6386934183537960052490234375">
        <ele>463.20001220703125</ele>
        <time>2021-04-07T12:29:57.000Z</time>
      </trkpt>
      <trkpt lat="42.8139206953346729278564453125" lon="-1.63866081275045871734619140625">
        <ele>463.20001220703125</ele>
        <time>2021-04-07T12:29:58.000Z</time>
      </trkpt>
      <trkpt lat="42.81389772891998291015625" lon="-1.638625524938106536865234375">
        <ele>463.20001220703125</ele>
        <time>2021-04-07T12:29:59.000Z</time>
      </trkpt>
      <trkpt lat="42.8138898499310016632080078125" lon="-1.6386075876653194427490234375">
        <ele>463.20001220703125</ele>
        <time>2021-04-07T12:30:00.000Z</time>
      </trkpt>
      <trkpt lat="42.81385037116706371307373046875" lon="-1.63856685161590576171875">
        <ele>463.20001220703125</ele>
        <time>2021-04-07T12:30:01.000Z</time>
      </trkpt>
      <trkpt lat="42.8138298355042934417724609375" lon="-1.6385435499250888824462890625">
        <ele>463.20001220703125</ele>
        <time>2021-04-07T12:30:02.000Z</time>
      </trkpt>
      <trkpt lat="42.81380695290863513946533203125" lon="-1.638521589338779449462890625">
        <ele>463.20001220703125</ele>
        <time>2021-04-07T12:30:03.000Z</time>
      </trkpt>
      <trkpt lat="42.8137889318168163299560546875" lon="-1.6385096870362758636474609375">
        <ele>463.20001220703125</ele>
        <time>2021-04-07T12:30:04.000Z</time>
      </trkpt>
      <trkpt lat="42.8137741796672344207763671875" lon="-1.6385002993047237396240234375">
        <ele>463.399993896484375</ele>
        <time>2021-04-07T12:30:05.000Z</time>
      </trkpt>
      <trkpt lat="42.81376521103084087371826171875" lon="-1.6384962759912014007568359375">
        <ele>463.399993896484375</ele>
        <time>2021-04-07T12:30:06.000Z</time>
      </trkpt>
      <trkpt lat="42.8137649595737457275390625" lon="-1.63849753327667713165283203125">
        <ele>463.399993896484375</ele>
        <time>2021-04-07T12:30:07.000Z</time>
      </trkpt>
      <trkpt lat="42.81375347636640071868896484375" lon="-1.638481356203556060791015625">
        <ele>463.399993896484375</ele>
        <time>2021-04-07T12:30:08.000Z</time>
      </trkpt>
      <trkpt lat="42.81374626792967319488525390625" lon="-1.63847029209136962890625">
        <ele>463.600006103515625</ele>
        <time>2021-04-07T12:30:09.000Z</time>
      </trkpt>
      <trkpt lat="42.81374207697808742523193359375" lon="-1.6384637542068958282470703125">
        <ele>463.600006103515625</ele>
        <time>2021-04-07T12:30:10.000Z</time>
      </trkpt>
      <trkpt lat="42.8137408196926116943359375" lon="-1.63846199400722980499267578125">
        <ele>463.79998779296875</ele>
        <time>2021-04-07T12:30:11.000Z</time>
      </trkpt>
      <trkpt lat="42.8137406520545482635498046875" lon="-1.63846199400722980499267578125">
        <ele>464</ele>
        <time>2021-04-07T12:30:12.000Z</time>
      </trkpt>
      <trkpt lat="42.81373746693134307861328125" lon="-1.63846014998853206634521484375">
        <ele>464</ele>
        <time>2021-04-07T12:30:13.000Z</time>
      </trkpt>
      <trkpt lat="42.813728749752044677734375" lon="-1.63845763541758060455322265625">
        <ele>464</ele>
        <time>2021-04-07T12:30:14.000Z</time>
      </trkpt>
      <trkpt lat="42.81371894292533397674560546875" lon="-1.63844883441925048828125">
        <ele>464</ele>
        <time>2021-04-07T12:30:15.000Z</time>
      </trkpt>
      <trkpt lat="42.81370720826089382171630859375" lon="-1.63843785412609577178955078125">
        <ele>464</ele>
        <time>2021-04-07T12:30:16.000Z</time>
      </trkpt>
      <trkpt lat="42.813687510788440704345703125" lon="-1.63839443586766719818115234375">
        <ele>464</ele>
        <time>2021-04-07T12:30:17.000Z</time>
      </trkpt>
      <trkpt lat="42.8136608563363552093505859375" lon="-1.6383455693721771240234375">
        <ele>464</ele>
        <time>2021-04-07T12:30:18.000Z</time>
      </trkpt>
      <trkpt lat="42.81361685134470462799072265625" lon="-1.63827373646199703216552734375">
        <ele>464</ele>
        <time>2021-04-07T12:30:19.000Z</time>
      </trkpt>
      <trkpt lat="42.8135713376104831695556640625" lon="-1.638203077018260955810546875">
        <ele>464.20001220703125</ele>
        <time>2021-04-07T12:30:20.000Z</time>
      </trkpt>
      <trkpt lat="42.81351123936474323272705078125" lon="-1.63813962601125240325927734375">
        <ele>464.399993896484375</ele>
        <time>2021-04-07T12:30:21.000Z</time>
      </trkpt>
      <trkpt lat="42.81345717608928680419921875" lon="-1.638094447553157806396484375">
        <ele>464.79998779296875</ele>
        <time>2021-04-07T12:30:22.000Z</time>
      </trkpt>
      <trkpt lat="42.81342155300080776214599609375" lon="-1.63806117139756679534912109375">
        <ele>465</ele>
        <time>2021-04-07T12:30:23.000Z</time>
      </trkpt>
      <trkpt lat="42.8133809007704257965087890625" lon="-1.638026721775531768798828125">
        <ele>465.20001220703125</ele>
        <time>2021-04-07T12:30:24.000Z</time>
      </trkpt>
      <trkpt lat="42.8133272565901279449462890625" lon="-1.6379900090396404266357421875">
        <ele>465.399993896484375</ele>
        <time>2021-04-07T12:30:25.000Z</time>
      </trkpt>
      <trkpt lat="42.81329398043453693389892578125" lon="-1.6379618458449840545654296875">
        <ele>465.399993896484375</ele>
        <time>2021-04-07T12:30:26.000Z</time>
      </trkpt>
      <trkpt lat="42.81327235512435436248779296875" lon="-1.63794265128672122955322265625">
        <ele>465.399993896484375</ele>
        <time>2021-04-07T12:30:27.000Z</time>
      </trkpt>
      <trkpt lat="42.81322776339948177337646484375" lon="-1.637916080653667449951171875">
        <ele>465.20001220703125</ele>
        <time>2021-04-07T12:30:28.000Z</time>
      </trkpt>
      <trkpt lat="42.81320027075707912445068359375" lon="-1.6378934495151042938232421875">
        <ele>465</ele>
        <time>2021-04-07T12:30:29.000Z</time>
      </trkpt>
      <trkpt lat="42.8131793998181819915771484375" lon="-1.63787861354649066925048828125">
        <ele>465</ele>
        <time>2021-04-07T12:30:30.000Z</time>
      </trkpt>
      <trkpt lat="42.813156433403491973876953125" lon="-1.63785916753113269805908203125">
        <ele>465.20001220703125</ele>
        <time>2021-04-07T12:30:31.000Z</time>
      </trkpt>
      <trkpt lat="42.813138663768768310546875" lon="-1.6378431580960750579833984375">
        <ele>465.20001220703125</ele>
        <time>2021-04-07T12:30:32.000Z</time>
      </trkpt>
      <trkpt lat="42.81312684528529644012451171875" lon="-1.6378290764987468719482421875">
        <ele>465.20001220703125</ele>
        <time>2021-04-07T12:30:33.000Z</time>
      </trkpt>
      <trkpt lat="42.8131230734288692474365234375" lon="-1.6378227062523365020751953125">
        <ele>465.399993896484375</ele>
        <time>2021-04-07T12:30:34.000Z</time>
      </trkpt>
      <trkpt lat="42.81310857273638248443603515625" lon="-1.637799739837646484375">
        <ele>465.600006103515625</ele>
        <time>2021-04-07T12:30:35.000Z</time>
      </trkpt>
      <trkpt lat="42.81310270540416240692138671875" lon="-1.63777467794716358184814453125">
        <ele>465.79998779296875</ele>
        <time>2021-04-07T12:30:36.000Z</time>
      </trkpt>
      <trkpt lat="42.8130905516445636749267578125" lon="-1.637726314365863800048828125">
        <ele>465.79998779296875</ele>
        <time>2021-04-07T12:30:37.000Z</time>
      </trkpt>
      <trkpt lat="42.81308577395975589752197265625" lon="-1.6376911103725433349609375">
        <ele>466</ele>
        <time>2021-04-07T12:30:38.000Z</time>
      </trkpt>
      <trkpt lat="42.81304202042520046234130859375" lon="-1.63760662078857421875">
        <ele>465.79998779296875</ele>
        <time>2021-04-07T12:30:39.000Z</time>
      </trkpt>
      <trkpt lat="42.81298267655074596405029296875" lon="-1.63754484616219997406005859375">
        <ele>466</ele>
        <time>2021-04-07T12:30:40.000Z</time>
      </trkpt>
      <trkpt lat="42.8129155375063419342041015625" lon="-1.637496985495090484619140625">
        <ele>466</ele>
        <time>2021-04-07T12:30:41.000Z</time>
      </trkpt>
      <trkpt lat="42.81279073096811771392822265625" lon="-1.6374267451465129852294921875">
        <ele>466.20001220703125</ele>
        <time>2021-04-07T12:30:42.000Z</time>
      </trkpt>
      <trkpt lat="42.81269283033907413482666015625" lon="-1.637335382401943206787109375">
        <ele>466.399993896484375</ele>
        <time>2021-04-07T12:30:43.000Z</time>
      </trkpt>
      <trkpt lat="42.81261554919183254241943359375" lon="-1.63724712096154689788818359375">
        <ele>466.79998779296875</ele>
        <time>2021-04-07T12:30:44.000Z</time>
      </trkpt>
      <trkpt lat="42.81255670823156833648681640625" lon="-1.637183167040348052978515625">
        <ele>467</ele>
        <time>2021-04-07T12:30:45.000Z</time>
      </trkpt>
      <trkpt lat="42.812525443732738494873046875" lon="-1.63714050315320491790771484375">
        <ele>467.399993896484375</ele>
        <time>2021-04-07T12:30:46.000Z</time>
      </trkpt>
      <trkpt lat="42.81249199993908405303955078125" lon="-1.6370975039899349212646484375">
        <ele>467.600006103515625</ele>
        <time>2021-04-07T12:30:47.000Z</time>
      </trkpt>
      <trkpt lat="42.81245294027030467987060546875" lon="-1.6370535828173160552978515625">
        <ele>467.600006103515625</ele>
        <time>2021-04-07T12:30:48.000Z</time>
      </trkpt>
      <trkpt lat="42.81241103075444698333740234375" lon="-1.63699767552316188812255859375">
        <ele>467.399993896484375</ele>
        <time>2021-04-07T12:30:49.000Z</time>
      </trkpt>
      <trkpt lat="42.81236241571605205535888671875" lon="-1.63693631999194622039794921875">
        <ele>467.399993896484375</ele>
        <time>2021-04-07T12:30:50.000Z</time>
      </trkpt>
      <trkpt lat="42.81231933273375034332275390625" lon="-1.636878065764904022216796875">
        <ele>467.399993896484375</ele>
        <time>2021-04-07T12:30:51.000Z</time>
      </trkpt>
      <trkpt lat="42.81226753257215023040771484375" lon="-1.63681277073919773101806640625">
        <ele>467.399993896484375</ele>
        <time>2021-04-07T12:30:52.000Z</time>
      </trkpt>
      <trkpt lat="42.812229730188846588134765625" lon="-1.63676105439662933349609375">
        <ele>467.399993896484375</ele>
        <time>2021-04-07T12:30:53.000Z</time>
      </trkpt>
      <trkpt lat="42.81219259835779666900634765625" lon="-1.6367236711084842681884765625">
        <ele>467.399993896484375</ele>
        <time>2021-04-07T12:30:54.000Z</time>
      </trkpt>
      <trkpt lat="42.8121829591691493988037109375" lon="-1.63669022731482982635498046875">
        <ele>467.399993896484375</ele>
        <time>2021-04-07T12:30:55.000Z</time>
      </trkpt>
      <trkpt lat="42.8121779300272464752197265625" lon="-1.6366683505475521087646484375">
        <ele>467.399993896484375</ele>
        <time>2021-04-07T12:30:56.000Z</time>
      </trkpt>
      <trkpt lat="42.81215907074511051177978515625" lon="-1.63661613129079341888427734375">
        <ele>467.399993896484375</ele>
        <time>2021-04-07T12:30:57.000Z</time>
      </trkpt>
      <trkpt lat="42.812129817903041839599609375" lon="-1.63658461533486843109130859375">
        <ele>467.399993896484375</ele>
        <time>2021-04-07T12:30:58.000Z</time>
      </trkpt>
      <trkpt lat="42.812076173722743988037109375" lon="-1.6365305520594120025634765625">
        <ele>467.399993896484375</ele>
        <time>2021-04-07T12:30:59.000Z</time>
      </trkpt>
      <trkpt lat="42.81203971244394779205322265625" lon="-1.6364893130958080291748046875">
        <ele>467.600006103515625</ele>
        <time>2021-04-07T12:31:00.000Z</time>
      </trkpt>
      <trkpt lat="42.81201171688735485076904296875" lon="-1.6364594735205173492431640625">
        <ele>467.79998779296875</ele>
        <time>2021-04-07T12:31:01.000Z</time>
      </trkpt>
      <trkpt lat="42.8119834698736667633056640625" lon="-1.636411361396312713623046875">
        <ele>468</ele>
        <time>2021-04-07T12:31:02.000Z</time>
      </trkpt>
      <trkpt lat="42.81194801442325115203857421875" lon="-1.6363541968166828155517578125">
        <ele>468.20001220703125</ele>
        <time>2021-04-07T12:31:03.000Z</time>
      </trkpt>
      <trkpt lat="42.8119222819805145263671875" lon="-1.6363039053976535797119140625">
        <ele>468.399993896484375</ele>
        <time>2021-04-07T12:31:04.000Z</time>
      </trkpt>
      <trkpt lat="42.81188598833978176116943359375" lon="-1.6362614929676055908203125">
        <ele>468.600006103515625</ele>
        <time>2021-04-07T12:31:05.000Z</time>
      </trkpt>
      <trkpt lat="42.8118265606462955474853515625" lon="-1.6361956112086772918701171875">
        <ele>468.600006103515625</ele>
        <time>2021-04-07T12:31:06.000Z</time>
      </trkpt>
      <trkpt lat="42.81172044575214385986328125" lon="-1.63615412078797817230224609375">
        <ele>468.79998779296875</ele>
        <time>2021-04-07T12:31:07.000Z</time>
      </trkpt>
      <trkpt lat="42.81162656843662261962890625" lon="-1.6360899992287158966064453125">
        <ele>468.79998779296875</ele>
        <time>2021-04-07T12:31:08.000Z</time>
      </trkpt>
      <trkpt lat="42.81157468445599079132080078125" lon="-1.63604565896093845367431640625">
        <ele>468.79998779296875</ele>
        <time>2021-04-07T12:31:09.000Z</time>
      </trkpt>
      <trkpt lat="42.81152925454080104827880859375" lon="-1.6359897516667842864990234375">
        <ele>468.79998779296875</ele>
        <time>2021-04-07T12:31:10.000Z</time>
      </trkpt>
      <trkpt lat="42.81149857677519321441650390625" lon="-1.6359441541135311126708984375">
        <ele>468.79998779296875</ele>
        <time>2021-04-07T12:31:11.000Z</time>
      </trkpt>
      <trkpt lat="42.8114689886569976806640625" lon="-1.63590542972087860107421875">
        <ele>468.79998779296875</ele>
        <time>2021-04-07T12:31:12.000Z</time>
      </trkpt>
      <trkpt lat="42.8113920427858829498291015625" lon="-1.63584583438932895660400390625">
        <ele>468.79998779296875</ele>
        <time>2021-04-07T12:31:13.000Z</time>
      </trkpt>
      <trkpt lat="42.81136781908571720123291015625" lon="-1.63579470477998256683349609375">
        <ele>469</ele>
        <time>2021-04-07T12:31:14.000Z</time>
      </trkpt>
      <trkpt lat="42.8113923780620098114013671875" lon="-1.63575849495828151702880859375">
        <ele>469</ele>
        <time>2021-04-07T12:31:15.000Z</time>
      </trkpt>
      <trkpt lat="42.8114295937120914459228515625" lon="-1.6357195191085338592529296875">
        <ele>469</ele>
        <time>2021-04-07T12:31:16.000Z</time>
      </trkpt>
      <trkpt lat="42.81146873719990253448486328125" lon="-1.63567719049751758575439453125">
        <ele>469</ele>
        <time>2021-04-07T12:31:17.000Z</time>
      </trkpt>
      <trkpt lat="42.81149405054748058319091796875" lon="-1.63562170229852199554443359375">
        <ele>469.20001220703125</ele>
        <time>2021-04-07T12:31:18.000Z</time>
      </trkpt>
      <trkpt lat="42.8115261532366275787353515625" lon="-1.635583229362964630126953125">
        <ele>469.600006103515625</ele>
        <time>2021-04-07T12:31:19.000Z</time>
      </trkpt>
      <trkpt lat="42.81155825592577457427978515625" lon="-1.63554861210286617279052734375">
        <ele>470.20001220703125</ele>
        <time>2021-04-07T12:31:20.000Z</time>
      </trkpt>
      <trkpt lat="42.8115965612232685089111328125" lon="-1.6355113126337528228759765625">
        <ele>470.399993896484375</ele>
        <time>2021-04-07T12:31:21.000Z</time>
      </trkpt>
      <trkpt lat="42.81162883155047893524169921875" lon="-1.6354720853269100189208984375">
        <ele>470.600006103515625</ele>
        <time>2021-04-07T12:31:22.000Z</time>
      </trkpt>
      <trkpt lat="42.81163939274847507476806640625" lon="-1.63538801483809947967529296875">
        <ele>470.79998779296875</ele>
        <time>2021-04-07T12:31:23.000Z</time>
      </trkpt>
      <trkpt lat="42.811652719974517822265625" lon="-1.6353093087673187255859375">
        <ele>471</ele>
        <time>2021-04-07T12:31:24.000Z</time>
      </trkpt>
      <trkpt lat="42.811665125191211700439453125" lon="-1.63523663766682147979736328125">
        <ele>471</ele>
        <time>2021-04-07T12:31:25.000Z</time>
      </trkpt>
      <trkpt lat="42.81167241744697093963623046875" lon="-1.63516321219503879547119140625">
        <ele>471</ele>
        <time>2021-04-07T12:31:26.000Z</time>
      </trkpt>
      <trkpt lat="42.81167082488536834716796875" lon="-1.635090373456478118896484375">
        <ele>471</ele>
        <time>2021-04-07T12:31:27.000Z</time>
      </trkpt>
      <trkpt lat="42.81167082488536834716796875" lon="-1.63499473594129085540771484375">
        <ele>471</ele>
        <time>2021-04-07T12:31:28.000Z</time>
      </trkpt>
      <trkpt lat="42.81168557703495025634765625" lon="-1.63491879589855670928955078125">
        <ele>471</ele>
        <time>2021-04-07T12:31:29.000Z</time>
      </trkpt>
      <trkpt lat="42.81171231530606746673583984375" lon="-1.63481418974697589874267578125">
        <ele>470.79998779296875</ele>
        <time>2021-04-07T12:31:30.000Z</time>
      </trkpt>
      <trkpt lat="42.81173444353044033050537109375" lon="-1.6347317956387996673583984375">
        <ele>470.79998779296875</ele>
        <time>2021-04-07T12:31:31.000Z</time>
      </trkpt>
      <trkpt lat="42.8117544762790203094482421875" lon="-1.63466490805149078369140625">
        <ele>470.600006103515625</ele>
        <time>2021-04-07T12:31:32.000Z</time>
      </trkpt>
      <trkpt lat="42.81178238801658153533935546875" lon="-1.63460765965282917022705078125">
        <ele>470</ele>
        <time>2021-04-07T12:31:33.000Z</time>
      </trkpt>
      <trkpt lat="42.81185262836515903472900390625" lon="-1.6345668397843837738037109375">
        <ele>469.79998779296875</ele>
        <time>2021-04-07T12:31:34.000Z</time>
      </trkpt>
      <trkpt lat="42.811885736882686614990234375" lon="-1.634539179503917694091796875">
        <ele>469.600006103515625</ele>
        <time>2021-04-07T12:31:35.000Z</time>
      </trkpt>
      <trkpt lat="42.81190074048936367034912109375" lon="-1.63452199660241603851318359375">
        <ele>469.600006103515625</ele>
        <time>2021-04-07T12:31:36.000Z</time>
      </trkpt>
      <trkpt lat="42.8119184263050556182861328125" lon="-1.63451713509857654571533203125">
        <ele>469.600006103515625</ele>
        <time>2021-04-07T12:31:37.000Z</time>
      </trkpt>
      <trkpt lat="42.8119395487010478973388671875" lon="-1.63450959138572216033935546875">
        <ele>470</ele>
        <time>2021-04-07T12:31:38.000Z</time>
      </trkpt>
      <trkpt lat="42.8119603358209133148193359375" lon="-1.63450188003480434417724609375">
        <ele>470.20001220703125</ele>
        <time>2021-04-07T12:31:39.000Z</time>
      </trkpt>
      <trkpt lat="42.8119786083698272705078125" lon="-1.63448947481811046600341796875">
        <ele>470.399993896484375</ele>
        <time>2021-04-07T12:31:40.000Z</time>
      </trkpt>
      <trkpt lat="42.81199428252875804901123046875" lon="-1.63447220809757709503173828125">
        <ele>470.79998779296875</ele>
        <time>2021-04-07T12:31:41.000Z</time>
      </trkpt>
      <trkpt lat="42.8120045922696590423583984375" lon="-1.6344545222818851470947265625">
        <ele>470.600006103515625</ele>
        <time>2021-04-07T12:31:42.000Z</time>
      </trkpt>
      <trkpt lat="42.81201741658151149749755859375" lon="-1.6344360820949077606201171875">
        <ele>470.399993896484375</ele>
        <time>2021-04-07T12:31:43.000Z</time>
      </trkpt>
      <trkpt lat="42.8120250441133975982666015625" lon="-1.63442124612629413604736328125">
        <ele>470.399993896484375</ele>
        <time>2021-04-07T12:31:44.000Z</time>
      </trkpt>
      <trkpt lat="42.81203686259686946868896484375" lon="-1.634406745433807373046875">
        <ele>470.20001220703125</ele>
        <time>2021-04-07T12:31:45.000Z</time>
      </trkpt>
      <trkpt lat="42.8120498545467853546142578125" lon="-1.6343911550939083099365234375">
        <ele>470.20001220703125</ele>
        <time>2021-04-07T12:31:46.000Z</time>
      </trkpt>
      <trkpt lat="42.81207223422825336456298828125" lon="-1.63437028415501117706298828125">
        <ele>470.20001220703125</ele>
        <time>2021-04-07T12:31:47.000Z</time>
      </trkpt>
      <trkpt lat="42.8121021576225757598876953125" lon="-1.63434932939708232879638671875">
        <ele>470</ele>
        <time>2021-04-07T12:31:48.000Z</time>
      </trkpt>
      <trkpt lat="42.81212654896080493927001953125" lon="-1.6343197412788867950439453125">
        <ele>469.79998779296875</ele>
        <time>2021-04-07T12:31:49.000Z</time>
      </trkpt>
      <trkpt lat="42.81214649789035320281982421875" lon="-1.63427825085818767547607421875">
        <ele>469.600006103515625</ele>
        <time>2021-04-07T12:31:50.000Z</time>
      </trkpt>
      <trkpt lat="42.81217466108500957489013671875" lon="-1.63424187339842319488525390625">
        <ele>469.600006103515625</ele>
        <time>2021-04-07T12:31:51.000Z</time>
      </trkpt>
      <trkpt lat="42.81220081262290477752685546875" lon="-1.63419895805418491363525390625">
        <ele>469.600006103515625</ele>
        <time>2021-04-07T12:31:52.000Z</time>
      </trkpt>
      <trkpt lat="42.81221422366797924041748046875" lon="-1.634140200912952423095703125">
        <ele>469.600006103515625</ele>
        <time>2021-04-07T12:31:53.000Z</time>
      </trkpt>
      <trkpt lat="42.81220751814544200897216796875" lon="-1.63407457061111927032470703125">
        <ele>469.600006103515625</ele>
        <time>2021-04-07T12:31:54.000Z</time>
      </trkpt>
      <trkpt lat="42.81219192780554294586181640625" lon="-1.634006761014461517333984375">
        <ele>469.600006103515625</ele>
        <time>2021-04-07T12:31:55.000Z</time>
      </trkpt>
      <trkpt lat="42.81216963194310665130615234375" lon="-1.63394750095903873443603515625">
        <ele>469.600006103515625</ele>
        <time>2021-04-07T12:31:56.000Z</time>
      </trkpt>
      <trkpt lat="42.8121457435190677642822265625" lon="-1.633901484310626983642578125">
        <ele>469.600006103515625</ele>
        <time>2021-04-07T12:31:57.000Z</time>
      </trkpt>
      <trkpt lat="42.81211531721055507659912109375" lon="-1.63386292755603790283203125">
        <ele>469.79998779296875</ele>
        <time>2021-04-07T12:31:58.000Z</time>
      </trkpt>
      <trkpt lat="42.81208480708301067352294921875" lon="-1.63383015431463718414306640625">
        <ele>470</ele>
        <time>2021-04-07T12:31:59.000Z</time>
      </trkpt>
      <trkpt lat="42.8120454959571361541748046875" lon="-1.633792184293270111083984375">
        <ele>469.79998779296875</ele>
        <time>2021-04-07T12:32:00.000Z</time>
      </trkpt>
      <trkpt lat="42.812017835676670074462890625" lon="-1.63376427255570888519287109375">
        <ele>469.79998779296875</ele>
        <time>2021-04-07T12:32:01.000Z</time>
      </trkpt>
      <trkpt lat="42.8119687177240848541259765625" lon="-1.6337216086685657501220703125">
        <ele>469.600006103515625</ele>
        <time>2021-04-07T12:32:02.000Z</time>
      </trkpt>
      <trkpt lat="42.811925970017910003662109375" lon="-1.6336729936301708221435546875">
        <ele>469.399993896484375</ele>
        <time>2021-04-07T12:32:03.000Z</time>
      </trkpt>
      <trkpt lat="42.8118885867297649383544921875" lon="-1.63362965919077396392822265625">
        <ele>469.399993896484375</ele>
        <time>2021-04-07T12:32:04.000Z</time>
      </trkpt>
      <trkpt lat="42.81185547821223735809326171875" lon="-1.63359059952199459075927734375">
        <ele>469.20001220703125</ele>
        <time>2021-04-07T12:32:05.000Z</time>
      </trkpt>
      <trkpt lat="42.81180770136415958404541015625" lon="-1.63354801945388317108154296875">
        <ele>469.20001220703125</ele>
        <time>2021-04-07T12:32:06.000Z</time>
      </trkpt>
      <trkpt lat="42.8117688931524753570556640625" lon="-1.6335013322532176971435546875">
        <ele>469.20001220703125</ele>
        <time>2021-04-07T12:32:07.000Z</time>
      </trkpt>
      <trkpt lat="42.81174567528069019317626953125" lon="-1.63342832587659358978271484375">
        <ele>469.20001220703125</ele>
        <time>2021-04-07T12:32:08.000Z</time>
      </trkpt>
      <trkpt lat="42.81169219873845577239990234375" lon="-1.633380465209484100341796875">
        <ele>469.20001220703125</ele>
        <time>2021-04-07T12:32:09.000Z</time>
      </trkpt>
      <trkpt lat="42.8116528876125812530517578125" lon="-1.6333370469510555267333984375">
        <ele>469.399993896484375</ele>
        <time>2021-04-07T12:32:10.000Z</time>
      </trkpt>
      <trkpt lat="42.811618186533451080322265625" lon="-1.63329706527292728424072265625">
        <ele>469.79998779296875</ele>
        <time>2021-04-07T12:32:11.000Z</time>
      </trkpt>
      <trkpt lat="42.81157904304563999176025390625" lon="-1.63326236419379711151123046875">
        <ele>470</ele>
        <time>2021-04-07T12:32:12.000Z</time>
      </trkpt>
      <trkpt lat="42.81153327785432338714599609375" lon="-1.6332156769931316375732421875">
        <ele>470</ele>
        <time>2021-04-07T12:32:13.000Z</time>
      </trkpt>
      <trkpt lat="42.8114805556833744049072265625" lon="-1.63316823542118072509765625">
        <ele>470</ele>
        <time>2021-04-07T12:32:14.000Z</time>
      </trkpt>
      <trkpt lat="42.811416350305080413818359375" lon="-1.63312842138111591339111328125">
        <ele>470</ele>
        <time>2021-04-07T12:32:15.000Z</time>
      </trkpt>
      <trkpt lat="42.81136681325733661651611328125" lon="-1.63309807889163494110107421875">
        <ele>470.20001220703125</ele>
        <time>2021-04-07T12:32:16.000Z</time>
      </trkpt>
      <trkpt lat="42.81133412383496761322021484375" lon="-1.63308600895106792449951171875">
        <ele>470.399993896484375</ele>
        <time>2021-04-07T12:32:17.000Z</time>
      </trkpt>
      <trkpt lat="42.811311073601245880126953125" lon="-1.6330792196094989776611328125">
        <ele>470.20001220703125</ele>
        <time>2021-04-07T12:32:18.000Z</time>
      </trkpt>
      <trkpt lat="42.811305709183216094970703125" lon="-1.6330758668482303619384765625">
        <ele>470.20001220703125</ele>
        <time>2021-04-07T12:32:19.000Z</time>
      </trkpt>
      <trkpt lat="42.81129037030041217803955078125" lon="-1.63306874223053455352783203125">
        <ele>470.399993896484375</ele>
        <time>2021-04-07T12:32:20.000Z</time>
      </trkpt>
      <trkpt lat="42.81128601171076297760009765625" lon="-1.63308634422719478607177734375">
        <ele>470.399993896484375</ele>
        <time>2021-04-07T12:32:21.000Z</time>
      </trkpt>
      <trkpt lat="42.81128969974815845489501953125" lon="-1.63310897536575794219970703125">
        <ele>470.399993896484375</ele>
        <time>2021-04-07T12:32:22.000Z</time>
      </trkpt>
    </trkseg>
  </trk>
</gpx>
